Darstellungsparameter: Aktuell verwendete Einstellungen:
Skalierung der Graphiken ... ?
xyx+y,   Skalierungsfaktor:      Skalierung: Modus: x, Faktor: 1
Darstellungszeitraum ... ?
Vom - - bis: - -   Zeitraum: 01.07.2010 - 30.09.2010
Min/Max/Avg-Anzeige ... ?
Zeige MMA aktuell
Zeige MMA Monat
Zeige MMA alles
Zeige --A aktuell
Zeige --A Monat
Zeige --A alles
Keine MMA-Anzeige
MMA:
Minimum Maximum Average (ber die Originaldaten)
MMA-Basis: 01.07.2010 - 30.09.2010
Quicknavigation für Darstellung... ?
Tage:      1T, 2T, 3T, 5T -1T -2T -3T -5T +1T +2T +3T +5T
Wochen: 1W, 2W, 3W -1W -2W -3W +1W +2W +3W
Monate: 1M, 3M, 6M -1M -3M -6M +1M +3M +6M
Jahre:    1J, 3J, 5J, 10J -1J -3J -5J -10J +1J +3J +5J +10J
Nutze für die Darstellung ... ?
Originaldaten oder Mittelwerte auf ...
Stundenbasis Tagesbasis Wochenbasis
Monatsbasis Jahresbasis      Datenbasis: Original-Daten
Darstellen als:
Statistik (Auto) Statistik J:M      Darstellung:
Zur Graphik,    zurück zur Übersicht aller Sensoren.
 
Tabellarische Datenbersicht: ?
 
Sensor: Nr:Datum:Temp:Abs-Feuchte:Windchill:Wind:
Aussen-T/F 1 01-07-2010 00:02:04 22.9 C 8.58 g/m*3 22.9 C 0 km/h
2 01-07-2010 00:14:04 22.7 C 8.49 g/m*3 22.7 C 0 km/h
3 01-07-2010 00:26:04 22.4 C 8.94 g/m*3 22.4 C 0 km/h
4 01-07-2010 00:38:04 22.2 C 8.44 g/m*3 22.2 C 0 km/h
5 01-07-2010 00:50:04 21.9 C 9.07 g/m*3 21.9 C 0 km/h
6 01-07-2010 01:02:04 21.6 C 8.91 g/m*3 21.6 C 0 km/h
7 01-07-2010 01:14:04 21.4 C 8.81 g/m*3 21.4 C 0 km/h
8 01-07-2010 01:26:04 21.2 C 9.08 g/m*3 21.2 C 0 km/h
9 01-07-2010 01:38:04 20.9 C 9.29 g/m*3 20.9 C 0 km/h
10 01-07-2010 01:50:04 20.7 C 9.36 g/m*3 20.7 C 0 km/h
11 01-07-2010 02:02:04 20.4 C 9.2 g/m*3 20.4 C 0 km/h
12 01-07-2010 02:14:04 20.2 C 9.44 g/m*3 20.2 C 0 km/h
13 01-07-2010 02:26:04 20.1 C 9.39 g/m*3 20.1 C 0 km/h
14 01-07-2010 02:38:04 19.8 C 9.74 g/m*3 19.8 C 0 km/h
15 01-07-2010 02:50:04 19.5 C 9.73 g/m*3 19.5 C 0 km/h
16 01-07-2010 03:02:04 19.4 C 9.84 g/m*3 19.4 C 0 km/h
17 01-07-2010 03:14:05 19.2 C 9.73 g/m*3 19.2 C 0 km/h
18 01-07-2010 03:26:05 19 C 9.78 g/m*3 19 C 0 km/h
19 01-07-2010 03:38:05 18.9 C 9.88 g/m*3 18.9 C 0 km/h
20 01-07-2010 03:50:05 18.8 C 9.99 g/m*3 18.8 C 0 km/h
21 01-07-2010 04:02:05 18.7 C 9.93 g/m*3 18.7 C 0 km/h
22 01-07-2010 04:14:05 18.4 C 9.75 g/m*3 18.4 C 0 km/h
23 01-07-2010 04:26:05 18.3 C 9.85 g/m*3 18.3 C 0 km/h
24 01-07-2010 04:38:05 18.1 C 9.89 g/m*3 18.1 C 0 km/h
25 01-07-2010 04:50:05 18 C 9.83 g/m*3 18 C 0 km/h
Sensor: Nr:Datum:Temp:Abs-Feuchte:Windchill:Wind:
Aussen-T/F 26 01-07-2010 05:02:05 17.8 C 10.02 g/m*3 17.8 C 0 km/h
27 01-07-2010 05:14:05 17.6 C 10.2 g/m*3 17.6 C 0 km/h
28 01-07-2010 05:26:05 17.3 C 10.16 g/m*3 17.3 C 0 km/h
29 01-07-2010 05:38:05 17.1 C 10.19 g/m*3 17.1 C 0 km/h
30 01-07-2010 05:50:05 17 C 10.27 g/m*3 17 C 0 km/h
31 01-07-2010 06:02:05 16.8 C 10.44 g/m*3 16.8 C 0 km/h
32 01-07-2010 06:14:05 16.9 C 10.36 g/m*3 16.9 C 0 km/h
33 01-07-2010 06:26:05 17.1 C 10.34 g/m*3 17.1 C 0 km/h
34 01-07-2010 06:38:05 17.3 C 10.46 g/m*3 17.3 C 0 km/h
35 01-07-2010 06:50:02 17.5 C 10.44 g/m*3 17.5 C 0 km/h
36 01-07-2010 07:02:01 17.5 C 10.44 g/m*3 17.5 C 0 km/h
37 01-07-2010 07:14:01 17.7 C 10.41 g/m*3 17.7 C 0 km/h
38 01-07-2010 07:26:02 17.7 C 10.26 g/m*3 17.7 C 0 km/h
39 01-07-2010 07:38:02 17.7 C 10.41 g/m*3 17.7 C 0 km/h
40 01-07-2010 07:50:02 17.8 C 10.62 g/m*3 17.8 C 0 km/h
41 01-07-2010 08:02:02 18.1 C 10.51 g/m*3 18.1 C 0 km/h
42 01-07-2010 08:14:02 18.5 C 10.76 g/m*3 18.5 C 0 km/h
43 01-07-2010 08:26:02 18.8 C 10.47 g/m*3 18.8 C 0 km/h
44 01-07-2010 08:38:02 19.1 C 10.33 g/m*3 19.1 C 0 km/h
45 01-07-2010 08:50:02 19.6 C 10.64 g/m*3 19.6 C 0 km/h
46 01-07-2010 09:02:02 20.4 C 10.61 g/m*3 20.4 C 0 km/h
47 01-07-2010 09:14:03 20.9 C 10.38 g/m*3 20.9 C 0 km/h
48 01-07-2010 09:26:02 21.6 C 10.43 g/m*3 21.6 C 0 km/h
49 01-07-2010 09:38:02 22.6 C 10.45 g/m*3 22.6 C 0 km/h
50 01-07-2010 09:50:01 23.5 C 10.36 g/m*3 23.5 C 0 km/h
Sensor: Nr:Datum:Temp:Abs-Feuchte:Windchill:Wind:
Aussen-T/F 51 01-07-2010 10:02:01 24.3 C 10.18 g/m*3 24.3 C 0 km/h
52 01-07-2010 10:14:01 24.8 C 10.02 g/m*3 24.8 C 0 km/h
53 01-07-2010 10:26:02 25.9 C 10.41 g/m*3 25.9 C 0 km/h
54 01-07-2010 10:38:01 26.6 C 10.07 g/m*3 26.6 C 0 km/h
55 01-07-2010 10:50:03 27.5 C 10.32 g/m*3 27.5 C 0 km/h
56 01-07-2010 11:02:02 27.7 C 10.16 g/m*3 27.7 C 0 km/h
57 01-07-2010 11:14:02 28.4 C 9.73 g/m*3 28.4 C 0 km/h
58 01-07-2010 11:26:02 28.6 C 8.71 g/m*3 28.6 C 0 km/h
59 01-07-2010 11:38:02 28.9 C 8.57 g/m*3 28.9 C 0 km/h
60 01-07-2010 11:50:02 29.8 C 8.7 g/m*3 29.8 C 0 km/h
61 01-07-2010 12:02:02 30.1 C 7.93 g/m*3 30.1 C 0 km/h
62 01-07-2010 12:14:02 30.7 C 7.24 g/m*3 30.7 C 0 km/h
63 01-07-2010 12:26:02 31.4 C 6.54 g/m*3 31.4 C 0 km/h
64 01-07-2010 12:38:02 31.4 C 6.54 g/m*3 31.4 C 0 km/h
65 01-07-2010 12:50:02 31.9 C 6.72 g/m*3 31.9 C 0 km/h
66 01-07-2010 13:02:01 32.7 C 7.01 g/m*3 32.7 C 0 km/h
67 01-07-2010 13:14:01 33 C 7.12 g/m*3 33 C 0 km/h
68 01-07-2010 13:26:01 32.6 C 6.97 g/m*3 32.6 C 0 km/h
69 01-07-2010 13:38:02 33 C 7.12 g/m*3 33 C 0 km/h
70 01-07-2010 13:50:02 32.7 C 7.01 g/m*3 32.7 C 0 km/h
71 01-07-2010 14:02:02 32.7 C 7.01 g/m*3 32.7 C 0 km/h
72 01-07-2010 14:14:02 32.5 C 6.93 g/m*3 32.5 C 0 km/h
73 01-07-2010 14:26:02 32.1 C 6.79 g/m*3 32.1 C 0 km/h
74 01-07-2010 14:38:02 31.9 C 6.72 g/m*3 31.9 C 0 km/h
75 01-07-2010 14:50:02 31.9 C 6.72 g/m*3 31.9 C 0 km/h
Sensor: Nr:Datum:Temp:Abs-Feuchte:Windchill:Wind:
Aussen-T/F 76 01-07-2010 15:02:02 32.5 C 6.93 g/m*3 32.5 C 0 km/h
77 01-07-2010 15:14:03 33.1 C 7.16 g/m*3 33.1 C 0 km/h
78 01-07-2010 15:26:02 32.7 C 7.01 g/m*3 32.7 C 0 km/h
79 01-07-2010 15:38:02 33 C 7.12 g/m*3 33 C 0 km/h
80 01-07-2010 15:50:02 33.1 C 7.16 g/m*3 33.1 C 0 km/h
81 01-07-2010 16:02:02 33.1 C 7.16 g/m*3 33.1 C 0 km/h
82 01-07-2010 16:14:02 33 C 7.12 g/m*3 33 C 0 km/h
83 01-07-2010 16:26:03 33.3 C 7.23 g/m*3 33.3 C 0 km/h
84 01-07-2010 16:38:02 33.3 C 7.23 g/m*3 33.3 C 0 km/h
85 01-07-2010 16:50:02 33.3 C 7.23 g/m*3 33.3 C 0 km/h
86 01-07-2010 17:02:02 33.5 C 7.31 g/m*3 33.5 C 0 km/h
87 01-07-2010 17:14:02 33.6 C 7.35 g/m*3 33.6 C 0 km/h
88 01-07-2010 17:26:02 33.1 C 7.16 g/m*3 33.1 C 0 km/h
89 01-07-2010 17:38:02 33 C 7.12 g/m*3 33 C 0 km/h
90 01-07-2010 17:50:02 33.3 C 7.23 g/m*3 33.3 C 0 km/h
91 01-07-2010 18:02:02 33.7 C 7.39 g/m*3 33.7 C 0 km/h
92 01-07-2010 18:14:02 34.1 C 7.54 g/m*3 34.1 C 0 km/h
93 01-07-2010 18:26:02 33.9 C 7.46 g/m*3 33.9 C 0 km/h
94 01-07-2010 18:38:01 33.8 C 7.43 g/m*3 33.8 C 0 km/h
95 01-07-2010 18:50:02 33.8 C 7.43 g/m*3 33.8 C 0 km/h
96 01-07-2010 19:02:01 33.7 C 7.39 g/m*3 33.7 C 0 km/h
97 01-07-2010 19:14:01 33.4 C 7.27 g/m*3 33.4 C 0 km/h
98 01-07-2010 19:26:02 33.6 C 7.35 g/m*3 33.6 C 0 km/h
99 01-07-2010 19:38:02 33.3 C 7.23 g/m*3 33.3 C 0 km/h
100 01-07-2010 19:50:02 33.3 C 7.23 g/m*3 33.3 C 0 km/h
Sensor: Nr:Datum:Temp:Abs-Feuchte:Windchill:Wind:
Aussen-T/F 101 01-07-2010 20:02:03 33.1 C 7.16 g/m*3 33.1 C 0 km/h
102 01-07-2010 20:14:03 32.6 C 6.97 g/m*3 32.6 C 0 km/h
103 01-07-2010 20:26:02 31.9 C 7.72 g/m*3 31.9 C 0 km/h
104 01-07-2010 20:38:02 30.6 C 8.14 g/m*3 30.6 C 0 km/h
105 01-07-2010 20:50:01 29.4 C 8.22 g/m*3 29.4 C 0 km/h
106 01-07-2010 21:02:02 28.5 C 8.38 g/m*3 28.5 C 0 km/h
107 01-07-2010 21:14:02 27.8 C 8.34 g/m*3 27.8 C 0 km/h
108 01-07-2010 21:26:01 27.5 C 8.73 g/m*3 27.5 C 0 km/h
109 01-07-2010 21:38:01 26.9 C 8.7 g/m*3 26.9 C 0 km/h
110 01-07-2010 21:50:02 26.4 C 8.71 g/m*3 26.4 C 0 km/h
111 01-07-2010 22:02:02 25.9 C 8.72 g/m*3 25.9 C 0 km/h
112 01-07-2010 22:14:02 25.6 C 8.57 g/m*3 25.6 C 0 km/h
113 01-07-2010 22:26:02 25.5 C 8.52 g/m*3 25.5 C 0 km/h
114 01-07-2010 22:38:02 25.3 C 8.43 g/m*3 25.3 C 0 km/h
115 01-07-2010 22:50:02 25.2 C 8.38 g/m*3 25.2 C 0 km/h
116 01-07-2010 23:02:02 25.1 C 8.33 g/m*3 25.1 C 0 km/h
117 01-07-2010 23:14:02 24.9 C 8.24 g/m*3 24.9 C 0 km/h
118 01-07-2010 23:27:18 24.7 C 8.37 g/m*3 24.7 C 0 km/h
119 01-07-2010 23:39:18 24.6 C 8.55 g/m*3 24.6 C 0 km/h
120 01-07-2010 23:51:18 24.4 C 8.68 g/m*3 24.4 C 0 km/h
121 02-07-2010 00:03:18 24.1 C 8.53 g/m*3 24.1 C 0 km/h
122 02-07-2010 00:15:18 23.7 C 8.98 g/m*3 23.7 C 0 km/h
123 02-07-2010 00:27:19 23.6 C 9.15 g/m*3 23.6 C 0 km/h
124 02-07-2010 00:39:19 23.1 C 8.68 g/m*3 23.1 C 0 km/h
125 02-07-2010 00:51:19 22.9 C 8.79 g/m*3 22.9 C 0 km/h
Sensor: Nr:Datum:Temp:Abs-Feuchte:Windchill:Wind:
Aussen-T/F 126 02-07-2010 01:03:19 22.8 C 8.94 g/m*3 22.8 C 0 km/h
127 02-07-2010 01:15:19 22.6 C 9.04 g/m*3 22.6 C 0 km/h
128 02-07-2010 01:27:19 22.4 C 9.14 g/m*3 22.4 C 0 km/h
129 02-07-2010 01:39:19 22.4 C 9.14 g/m*3 22.4 C 0 km/h
130 02-07-2010 01:51:19 22.1 C 8.98 g/m*3 22.1 C 0 km/h
131 02-07-2010 02:03:19 21.7 C 8.97 g/m*3 21.7 C 0 km/h
132 02-07-2010 02:15:19 21.6 C 9.29 g/m*3 21.6 C 0 km/h
133 02-07-2010 02:27:19 21.3 C 8.76 g/m*3 21.3 C 0 km/h
134 02-07-2010 02:39:19 21.1 C 8.84 g/m*3 21.1 C 0 km/h
135 02-07-2010 02:51:19 20.9 C 8.92 g/m*3 20.9 C 0 km/h
136 02-07-2010 03:03:19 20.9 C 8.92 g/m*3 20.9 C 0 km/h
137 02-07-2010 03:15:19 20.7 C 9.18 g/m*3 20.7 C 0 km/h
138 02-07-2010 03:27:19 20.6 C 9.13 g/m*3 20.6 C 0 km/h
139 02-07-2010 03:39:19 20.4 C 9.2 g/m*3 20.4 C 0 km/h
140 02-07-2010 03:51:19 20.4 C 9.38 g/m*3 20.4 C 0 km/h
141 02-07-2010 04:03:19 20.1 C 9.39 g/m*3 20.1 C 0 km/h
142 02-07-2010 04:15:19 19.9 C 9.62 g/m*3 19.9 C 0 km/h
143 02-07-2010 04:27:19 19.6 C 9.79 g/m*3 19.6 C 0 km/h
144 02-07-2010 04:39:19 19.5 C 9.73 g/m*3 19.5 C 0 km/h
145 02-07-2010 04:51:19 19.3 C 9.79 g/m*3 19.3 C 0 km/h
146 02-07-2010 05:03:20 19.2 C 9.73 g/m*3 19.2 C 0 km/h
147 02-07-2010 05:15:20 19 C 9.61 g/m*3 19 C 0 km/h
148 02-07-2010 05:27:20 18.8 C 9.99 g/m*3 18.8 C 0 km/h
149 02-07-2010 05:39:20 18.7 C 9.77 g/m*3 18.7 C 0 km/h
150 02-07-2010 05:51:20 18.6 C 9.87 g/m*3 18.6 C 0 km/h
Sensor: Nr:Datum:Temp:Abs-Feuchte:Windchill:Wind:
Aussen-T/F 151 02-07-2010 06:03:20 18.6 C 10.03 g/m*3 18.6 C 0 km/h
152 02-07-2010 06:15:20 18.6 C 10.19 g/m*3 18.6 C 0 km/h
153 02-07-2010 06:27:20 18.6 C 10.19 g/m*3 18.6 C 0 km/h
154 02-07-2010 06:39:20 18.7 C 10.41 g/m*3 18.7 C 0 km/h
155 02-07-2010 06:51:04 18.9 C 10.53 g/m*3 18.9 C 0 km/h
156 02-07-2010 07:03:02 19.1 C 10.33 g/m*3 19.1 C 0 km/h
157 02-07-2010 07:15:02 19.4 C 10.51 g/m*3 19.4 C 0 km/h
158 02-07-2010 07:27:02 19.5 C 10.41 g/m*3 19.5 C 0 km/h
159 02-07-2010 07:39:02 19.7 C 10.7 g/m*3 19.7 C 0 km/h
160 02-07-2010 07:51:02 19.9 C 10.65 g/m*3 19.9 C 0 km/h
161 02-07-2010 08:03:02 20.1 C 10.43 g/m*3 20.1 C 0 km/h
162 02-07-2010 08:15:02 20.4 C 10.44 g/m*3 20.4 C 0 km/h
163 02-07-2010 08:27:02 20.8 C 10.5 g/m*3 20.8 C 0 km/h
164 02-07-2010 08:39:02 21.2 C 10.56 g/m*3 21.2 C 0 km/h
165 02-07-2010 08:51:02 21.8 C 10.74 g/m*3 21.8 C 0 km/h
166 02-07-2010 09:03:02 22.6 C 10.65 g/m*3 22.6 C 0 km/h
167 02-07-2010 09:15:02 23.2 C 10.6 g/m*3 23.2 C 0 km/h
168 02-07-2010 09:27:02 24.1 C 10.72 g/m*3 24.1 C 0 km/h
169 02-07-2010 09:39:02 24.9 C 10.76 g/m*3 24.9 C 0 km/h
170 02-07-2010 09:51:03 25.9 C 10.65 g/m*3 25.9 C 0 km/h
171 02-07-2010 10:03:02 26.2 C 10.09 g/m*3 26.2 C 0 km/h
172 02-07-2010 10:15:03 26.9 C 10.49 g/m*3 26.9 C 0 km/h
173 02-07-2010 10:27:03 27.7 C 10.43 g/m*3 27.7 C 0 km/h
174 02-07-2010 10:39:02 28.9 C 10.57 g/m*3 28.9 C 0 km/h
175 02-07-2010 10:51:02 29.6 C 10.39 g/m*3 29.6 C 0 km/h
Sensor: Nr:Datum:Temp:Abs-Feuchte:Windchill:Wind:
Aussen-T/F 176 02-07-2010 11:03:01 30.1 C 10.37 g/m*3 30.1 C 0 km/h
177 02-07-2010 11:15:02 29.8 C 9.9 g/m*3 29.8 C 0 km/h
178 02-07-2010 11:27:02 30.1 C 10.06 g/m*3 30.1 C 0 km/h
179 02-07-2010 11:39:02 30.3 C 9.55 g/m*3 30.3 C 0 km/h
180 02-07-2010 11:51:02 30.6 C 9.71 g/m*3 30.6 C 0 km/h
181 02-07-2010 12:03:03 31.2 C 10.03 g/m*3 31.2 C 0 km/h
182 02-07-2010 12:15:02 31.5 C 8.55 g/m*3 31.5 C 0 km/h
183 02-07-2010 12:27:02 32 C 7.09 g/m*3 32 C 0 km/h
184 02-07-2010 12:39:03 32.9 C 7.08 g/m*3 32.9 C 0 km/h
185 02-07-2010 12:51:02 33 C 7.12 g/m*3 33 C 0 km/h
186 02-07-2010 13:03:02 32.7 C 7.01 g/m*3 32.7 C 0 km/h
187 02-07-2010 13:15:02 33.3 C 7.23 g/m*3 33.3 C 0 km/h
188 02-07-2010 13:27:02 33.7 C 7.39 g/m*3 33.7 C 0 km/h
189 02-07-2010 13:39:02 33.9 C 7.46 g/m*3 33.9 C 0 km/h
190 02-07-2010 13:51:02 33.2 C 7.2 g/m*3 33.2 C 0 km/h
191 02-07-2010 14:03:02 32.4 C 7.59 g/m*3 32.4 C 0 km/h
192 02-07-2010 14:15:03 32.9 C 7.79 g/m*3 32.9 C 0 km/h
193 02-07-2010 14:27:03 32.9 C 7.08 g/m*3 32.9 C 0 km/h
194 02-07-2010 14:39:02 32.8 C 7.04 g/m*3 32.8 C 0 km/h
195 02-07-2010 14:51:01 32.9 C 7.44 g/m*3 32.9 C 0 km/h
196 02-07-2010 15:03:01 32.4 C 6.9 g/m*3 32.4 C 0 km/h
197 02-07-2010 15:15:02 32.4 C 8.62 g/m*3 32.4 C 0 km/h
198 02-07-2010 15:27:02 31.9 C 8.73 g/m*3 31.9 C 0 km/h
199 02-07-2010 15:39:01 32 C 9.11 g/m*3 32 C 0 km/h
200 02-07-2010 15:51:03 32.3 C 9.26 g/m*3 32.3 C 0 km/h
Sensor: Nr:Datum:Temp:Abs-Feuchte:Windchill:Wind:
Aussen-T/F 201 02-07-2010 16:03:02 32.1 C 9.5 g/m*3 32.1 C 0 km/h
202 02-07-2010 16:15:03 31.9 C 9.74 g/m*3 31.9 C 0 km/h
203 02-07-2010 16:27:03 32.3 C 8.92 g/m*3 32.3 C 0 km/h
204 02-07-2010 16:39:02 32.9 C 8.14 g/m*3 32.9 C 0 km/h
205 02-07-2010 16:51:02 33.1 C 7.52 g/m*3 33.1 C 0 km/h
206 02-07-2010 17:03:02 33.7 C 7.39 g/m*3 33.7 C 0 km/h
207 02-07-2010 17:15:02 34.2 C 7.58 g/m*3 34.2 C 0 km/h
208 02-07-2010 17:27:02 34.6 C 7.74 g/m*3 34.6 C 0 km/h
209 02-07-2010 17:39:02 34.4 C 7.66 g/m*3 34.4 C 0 km/h
210 02-07-2010 17:51:02 34.2 C 7.58 g/m*3 34.2 C 0 km/h
211 02-07-2010 18:03:01 34.1 C 7.54 g/m*3 34.1 C 0 km/h
212 02-07-2010 18:15:02 34 C 7.5 g/m*3 34 C 0 km/h
213 02-07-2010 18:27:02 33.5 C 7.31 g/m*3 33.5 C 0 km/h
214 02-07-2010 18:39:02 33.3 C 7.23 g/m*3 33.3 C 0 km/h
215 02-07-2010 18:51:01 33.6 C 7.35 g/m*3 33.6 C 0 km/h
216 02-07-2010 19:03:02 33.4 C 7.27 g/m*3 33.4 C 0 km/h
217 02-07-2010 19:15:01 33.5 C 7.31 g/m*3 33.5 C 0 km/h
218 02-07-2010 19:27:01 34 C 7.5 g/m*3 34 C 0 km/h
219 02-07-2010 19:39:02 34.1 C 7.54 g/m*3 34.1 C 0 km/h
220 02-07-2010 19:51:02 33.8 C 7.43 g/m*3 33.8 C 0 km/h
221 02-07-2010 20:03:02 33.5 C 7.31 g/m*3 33.5 C 0 km/h
222 02-07-2010 20:15:01 33 C 7.48 g/m*3 33 C 0 km/h
223 02-07-2010 20:27:01 32.7 C 7.71 g/m*3 32.7 C 0 km/h
224 02-07-2010 20:39:02 32 C 8.78 g/m*3 32 C 0 km/h
225 02-07-2010 20:51:02 31.6 C 8.92 g/m*3 31.6 C 0 km/h
Sensor: Nr:Datum:Temp:Abs-Feuchte:Windchill:Wind:
Aussen-T/F 226 02-07-2010 21:03:02 31 C 8.64 g/m*3 31 C 0 km/h
227 02-07-2010 21:15:03 30.3 C 8.32 g/m*3 30.3 C 0 km/h
228 02-07-2010 21:27:03 29.4 C 8.51 g/m*3 29.4 C 0 km/h
229 02-07-2010 21:39:02 29.1 C 8.38 g/m*3 29.1 C 0 km/h
230 02-07-2010 21:51:03 28.6 C 7.87 g/m*3 28.6 C 0 km/h
231 02-07-2010 22:03:02 27.8 C 8.34 g/m*3 27.8 C 0 km/h
232 02-07-2010 22:15:03 27.4 C 7.89 g/m*3 27.4 C 0 km/h
233 02-07-2010 22:27:03 27.2 C 7.81 g/m*3 27.2 C 0 km/h
234 02-07-2010 22:39:02 26.8 C 7.89 g/m*3 26.8 C 0 km/h
235 02-07-2010 22:52:03 26.3 C 7.67 g/m*3 26.3 C 0 km/h
236 02-07-2010 23:04:03 26 C 7.79 g/m*3 26 C 0 km/h
237 02-07-2010 23:16:03 25.8 C 8.19 g/m*3 25.8 C 0 km/h
238 02-07-2010 23:28:03 25.6 C 8.33 g/m*3 25.6 C 0 km/h
239 02-07-2010 23:40:03 25.5 C 8.29 g/m*3 25.5 C 0 km/h
240 02-07-2010 23:52:03 25.2 C 8.38 g/m*3 25.2 C 0 km/h
241 03-07-2010 00:04:03 25 C 8.52 g/m*3 25 C 0 km/h
242 03-07-2010 00:16:03 24.7 C 8.83 g/m*3 24.7 C 0 km/h
243 03-07-2010 00:28:03 24.4 C 9.12 g/m*3 24.4 C 0 km/h
244 03-07-2010 00:40:03 24.2 C 9.24 g/m*3 24.2 C 0 km/h
245 03-07-2010 00:52:03 24 C 9.14 g/m*3 24 C 0 km/h
246 03-07-2010 01:04:03 23.8 C 9.68 g/m*3 23.8 C 0 km/h
247 03-07-2010 01:16:03 23.6 C 9.78 g/m*3 23.6 C 0 km/h
248 03-07-2010 01:28:03 23.4 C 9.67 g/m*3 23.4 C 0 km/h
249 03-07-2010 01:40:03 23.1 C 9.92 g/m*3 23.1 C 0 km/h
250 03-07-2010 01:52:03 23 C 10.07 g/m*3 23 C 0 km/h
Sensor: Nr:Datum:Temp:Abs-Feuchte:Windchill:Wind:
Aussen-T/F 251 03-07-2010 02:04:04 22.8 C 10.36 g/m*3 22.8 C 0 km/h
252 03-07-2010 02:16:04 22.6 C 10.45 g/m*3 22.6 C 0 km/h
253 03-07-2010 02:28:04 22.5 C 10.39 g/m*3 22.5 C 0 km/h
254 03-07-2010 02:40:04 22.5 C 10.39 g/m*3 22.5 C 0 km/h
255 03-07-2010 02:52:04 22.2 C 10.6 g/m*3 22.2 C 0 km/h
256 03-07-2010 03:04:04 22 C 10.48 g/m*3 22 C 0 km/h
257 03-07-2010 03:16:04 21.7 C 10.68 g/m*3 21.7 C 0 km/h
258 03-07-2010 03:28:04 21.6 C 10.81 g/m*3 21.6 C 0 km/h
259 03-07-2010 03:40:04 21.4 C 10.87 g/m*3 21.4 C 0 km/h
260 03-07-2010 03:52:04 21.2 C 10.93 g/m*3 21.2 C 0 km/h
261 03-07-2010 04:04:04 21 C 10.81 g/m*3 21 C 0 km/h
262 03-07-2010 04:16:04 20.8 C 11.05 g/m*3 20.8 C 0 km/h
263 03-07-2010 04:28:04 20.8 C 11.23 g/m*3 20.8 C 0 km/h
264 03-07-2010 04:40:04 20.5 C 11.03 g/m*3 20.5 C 0 km/h
265 03-07-2010 04:52:04 20.3 C 11.08 g/m*3 20.3 C 0 km/h
266 03-07-2010 05:04:04 20.3 C 11.08 g/m*3 20.3 C 0 km/h
267 03-07-2010 05:16:04 20.1 C 11.13 g/m*3 20.1 C 0 km/h
268 03-07-2010 05:28:04 19.9 C 11.34 g/m*3 19.9 C 0 km/h
269 03-07-2010 05:40:04 19.9 C 11.51 g/m*3 19.9 C 0 km/h
270 03-07-2010 05:52:04 19.9 C 11.51 g/m*3 19.9 C 0 km/h
271 03-07-2010 06:04:05 20 C 11.23 g/m*3 20 C 0 km/h
272 03-07-2010 06:16:05 20 C 11.41 g/m*3 20 C 0 km/h
273 03-07-2010 06:28:05 20.2 C 11.54 g/m*3 20.2 C 0 km/h
274 03-07-2010 06:40:05 20.2 C 11.54 g/m*3 20.2 C 0 km/h
275 03-07-2010 06:52:02 20.5 C 11.74 g/m*3 20.5 C 0 km/h
Sensor: Nr:Datum:Temp:Abs-Feuchte:Windchill:Wind:
Aussen-T/F 276 03-07-2010 07:04:01 20.9 C 11.84 g/m*3 20.9 C 0 km/h
277 03-07-2010 07:16:02 21.1 C 11.61 g/m*3 21.1 C 0 km/h
278 03-07-2010 07:28:02 21.2 C 11.68 g/m*3 21.2 C 0 km/h
279 03-07-2010 07:40:02 21.6 C 11.76 g/m*3 21.6 C 0 km/h
280 03-07-2010 07:52:02 21.8 C 11.9 g/m*3 21.8 C 0 km/h
281 03-07-2010 08:04:02 22.1 C 11.71 g/m*3 22.1 C 0 km/h
282 03-07-2010 08:16:02 22.3 C 11.65 g/m*3 22.3 C 0 km/h
283 03-07-2010 08:28:02 22.5 C 11.78 g/m*3 22.5 C 0 km/h
284 03-07-2010 08:40:02 22.8 C 11.99 g/m*3 22.8 C 0 km/h
285 03-07-2010 08:52:02 23.2 C 11.85 g/m*3 23.2 C 0 km/h
286 03-07-2010 09:04:02 23.9 C 12.11 g/m*3 23.9 C 0 km/h
287 03-07-2010 09:16:01 24.5 C 11.86 g/m*3 24.5 C 0 km/h
288 03-07-2010 09:28:01 25.1 C 12.04 g/m*3 25.1 C 0 km/h
289 03-07-2010 09:40:02 25.8 C 12.28 g/m*3 25.8 C 0 km/h
290 03-07-2010 09:52:02 26.5 C 12.27 g/m*3 26.5 C 0 km/h
291 03-07-2010 10:04:02 27.3 C 12.56 g/m*3 27.3 C 0 km/h
292 03-07-2010 10:16:02 28.1 C 12.03 g/m*3 28.1 C 0 km/h
293 03-07-2010 10:28:02 29 C 12.06 g/m*3 29 C 0 km/h
294 03-07-2010 10:40:02 29.5 C 11.81 g/m*3 29.5 C 0 km/h
295 03-07-2010 10:52:02 30.3 C 12.02 g/m*3 30.3 C 0 km/h
296 03-07-2010 11:04:03 30.7 C 11.97 g/m*3 30.7 C 0 km/h
297 03-07-2010 11:16:03 30.9 C 11.78 g/m*3 30.9 C 0 km/h
298 03-07-2010 11:28:03 31.1 C 10.62 g/m*3 31.1 C 0 km/h
299 03-07-2010 11:40:02 31.6 C 10.24 g/m*3 31.6 C 0 km/h
300 03-07-2010 11:52:01 32.2 C 9.55 g/m*3 32.2 C 0 km/h
Sensor: Nr:Datum:Temp:Abs-Feuchte:Windchill:Wind:
Aussen-T/F 301 03-07-2010 12:04:02 32.7 C 8.76 g/m*3 32.7 C 0 km/h
302 03-07-2010 12:16:01 33.3 C 7.23 g/m*3 33.3 C 0 km/h
303 03-07-2010 12:28:01 33.1 C 7.16 g/m*3 33.1 C 0 km/h
304 03-07-2010 12:40:02 33.4 C 7.27 g/m*3 33.4 C 0 km/h
305 03-07-2010 12:52:02 34 C 7.5 g/m*3 34 C 0 km/h
306 03-07-2010 13:04:02 34 C 7.5 g/m*3 34 C 0 km/h
307 03-07-2010 13:16:01 34.3 C 7.62 g/m*3 34.3 C 0 km/h
308 03-07-2010 13:28:01 33.9 C 7.46 g/m*3 33.9 C 0 km/h
309 03-07-2010 13:40:02 32.6 C 8.36 g/m*3 32.6 C 0 km/h
310 03-07-2010 13:52:02 34.1 C 7.54 g/m*3 34.1 C 0 km/h
311 03-07-2010 14:04:02 34.2 C 7.58 g/m*3 34.2 C 0 km/h
312 03-07-2010 14:16:01 33.7 C 7.39 g/m*3 33.7 C 0 km/h
313 03-07-2010 14:28:01 33.5 C 7.31 g/m*3 33.5 C 0 km/h
314 03-07-2010 14:40:02 33.8 C 7.43 g/m*3 33.8 C 0 km/h
315 03-07-2010 14:52:02 33.4 C 7.27 g/m*3 33.4 C 0 km/h
316 03-07-2010 15:04:01 32.8 C 7.4 g/m*3 32.8 C 0 km/h
317 03-07-2010 15:16:02 32.3 C 8.58 g/m*3 32.3 C 0 km/h
318 03-07-2010 15:28:02 31.7 C 7.64 g/m*3 31.7 C 0 km/h
319 03-07-2010 15:40:02 31.5 C 7.56 g/m*3 31.5 C 0 km/h
320 03-07-2010 15:52:02 31.4 C 7.85 g/m*3 31.4 C 0 km/h
321 03-07-2010 16:04:03 31.2 C 8.09 g/m*3 31.2 C 0 km/h
322 03-07-2010 16:16:02 31.5 C 8.22 g/m*3 31.5 C 0 km/h
323 03-07-2010 16:28:02 31 C 8.32 g/m*3 31 C 0 km/h
324 03-07-2010 16:40:03 30.2 C 9.2 g/m*3 30.2 C 0 km/h
325 03-07-2010 16:52:02 30.1 C 9.76 g/m*3 30.1 C 0 km/h
Sensor: Nr:Datum:Temp:Abs-Feuchte:Windchill:Wind:
Aussen-T/F 326 03-07-2010 17:04:02 30.2 C 10.42 g/m*3 30.2 C 0 km/h
327 03-07-2010 17:16:02 29.7 C 10.14 g/m*3 29.7 C 0 km/h
328 03-07-2010 17:28:02 29.5 C 9.44 g/m*3 29.5 C 0 km/h
329 03-07-2010 17:40:02 29.5 C 9.74 g/m*3 29.5 C 0 km/h
330 03-07-2010 17:52:01 28.1 C 9.57 g/m*3 28.1 C 0 km/h
331 03-07-2010 18:04:01 27.3 C 9.94 g/m*3 27.3 C 0 km/h
332 03-07-2010 18:16:02 26.3 C 10.64 g/m*3 26.3 C 0 km/h
333 03-07-2010 18:28:02 26.2 C 11.08 g/m*3 26.2 C 0 km/h
334 03-07-2010 18:40:01 26.1 C 11.02 g/m*3 26.1 C 0 km/h
335 03-07-2010 18:52:01 26.5 C 10.76 g/m*3 26.5 C 0 km/h
336 03-07-2010 19:04:02 26.6 C 11.08 g/m*3 26.6 C 0 km/h
337 03-07-2010 19:16:02 27.1 C 11.13 g/m*3 27.1 C 0 km/h
338 03-07-2010 19:28:02 26.8 C 11.71 g/m*3 26.8 C 0 km/h
339 03-07-2010 19:40:02 27.5 C 11.64 g/m*3 27.5 C 0 km/h
340 03-07-2010 19:52:02 27.5 C 11.64 g/m*3 27.5 C 0 km/h
341 03-07-2010 20:04:02 27.8 C 12.1 g/m*3 27.8 C 0 km/h
342 03-07-2010 20:16:02 28.3 C 11.89 g/m*3 28.3 C 0 km/h
343 03-07-2010 20:28:02 28.2 C 12.1 g/m*3 28.2 C 0 km/h
344 03-07-2010 20:40:01 28.4 C 11.95 g/m*3 28.4 C 0 km/h
345 03-07-2010 20:52:02 27.7 C 12.3 g/m*3 27.7 C 0 km/h
346 03-07-2010 21:04:01 27.3 C 12.82 g/m*3 27.3 C 0 km/h
347 03-07-2010 21:16:02 26.6 C 13.09 g/m*3 26.6 C 0 km/h
348 03-07-2010 21:28:02 26.1 C 13.46 g/m*3 26.1 C 0 km/h
349 03-07-2010 21:40:02 25.8 C 13.72 g/m*3 25.8 C 0 km/h
350 03-07-2010 21:52:02 25.4 C 13.89 g/m*3 25.4 C 0 km/h
Sensor: Nr:Datum:Temp:Abs-Feuchte:Windchill:Wind:
Aussen-T/F 351 03-07-2010 22:04:03 25.6 C 14.05 g/m*3 25.6 C 0 km/h
352 03-07-2010 22:16:02 25.4 C 14.36 g/m*3 25.4 C 0 km/h
353 03-07-2010 22:28:02 25 C 14.04 g/m*3 25 C 0 km/h
354 03-07-2010 22:40:02 24.6 C 13.95 g/m*3 24.6 C 0 km/h
355 03-07-2010 22:52:01 24.5 C 13.88 g/m*3 24.5 C 0 km/h
356 03-07-2010 23:04:02 24.2 C 13.64 g/m*3 24.2 C 0 km/h
357 03-07-2010 23:16:01 24.1 C 14 g/m*3 24.1 C 0 km/h
358 03-07-2010 23:28:01 24.1 C 13.78 g/m*3 24.1 C 0 km/h
359 03-07-2010 23:40:02 24 C 13.71 g/m*3 24 C 0 km/h
360 03-07-2010 23:52:01 23.8 C 13.77 g/m*3 23.8 C 0 km/h
361 04-07-2010 00:04:02 23.7 C 13.9 g/m*3 23.7 C 0 km/h
362 04-07-2010 00:16:01 23.5 C 13.96 g/m*3 23.5 C 0 km/h
363 04-07-2010 00:28:01 23.4 C 14.09 g/m*3 23.4 C 0 km/h
364 04-07-2010 00:40:02 23.4 C 14.09 g/m*3 23.4 C 0 km/h
365 04-07-2010 00:52:01 23.3 C 14.01 g/m*3 23.3 C 0 km/h
366 04-07-2010 01:04:02 23.2 C 13.93 g/m*3 23.2 C 0 km/h
367 04-07-2010 01:16:01 23.1 C 13.85 g/m*3 23.1 C 0 km/h
368 04-07-2010 01:28:01 22.9 C 13.9 g/m*3 22.9 C 0 km/h
369 04-07-2010 01:41:02 22.7 C 13.74 g/m*3 22.7 C 0 km/h
370 04-07-2010 01:53:02 22.7 C 13.54 g/m*3 22.7 C 0 km/h
371 04-07-2010 02:05:02 22.6 C 13.66 g/m*3 22.6 C 0 km/h
372 04-07-2010 02:17:02 22.4 C 13.5 g/m*3 22.4 C 0 km/h
373 04-07-2010 02:29:02 22.4 C 13.7 g/m*3 22.4 C 0 km/h
374 04-07-2010 02:41:02 22.3 C 13.62 g/m*3 22.3 C 0 km/h
375 04-07-2010 02:53:02 22.2 C 13.55 g/m*3 22.2 C 0 km/h
Sensor: Nr:Datum:Temp:Abs-Feuchte:Windchill:Wind:
Aussen-T/F 376 04-07-2010 03:05:02 22.2 C 13.74 g/m*3 22.2 C 0 km/h
377 04-07-2010 03:17:02 22.2 C 13.94 g/m*3 22.2 C 0 km/h
378 04-07-2010 03:29:02 22.2 C 13.74 g/m*3 22.2 C 0 km/h
379 04-07-2010 03:41:02 22.2 C 13.74 g/m*3 22.2 C 0 km/h
380 04-07-2010 03:53:02 22 C 13.78 g/m*3 22 C 0 km/h
381 04-07-2010 04:05:02 21.8 C 14.01 g/m*3 21.8 C 0 km/h
382 04-07-2010 04:17:02 21.7 C 13.93 g/m*3 21.7 C 0 km/h
383 04-07-2010 04:29:02 21.7 C 13.93 g/m*3 21.7 C 0 km/h
384 04-07-2010 04:41:02 21.6 C 13.85 g/m*3 21.6 C 0 km/h
385 04-07-2010 04:53:02 21.3 C 13.79 g/m*3 21.3 C 0 km/h
386 04-07-2010 05:05:02 21.1 C 13.82 g/m*3 21.1 C 0 km/h
387 04-07-2010 05:17:02 21 C 13.92 g/m*3 21 C 0 km/h
388 04-07-2010 05:29:02 21 C 13.92 g/m*3 21 C 0 km/h
389 04-07-2010 05:41:03 21.2 C 14.08 g/m*3 21.2 C 0 km/h
390 04-07-2010 05:53:03 21.3 C 13.98 g/m*3 21.3 C 0 km/h
391 04-07-2010 06:05:03 21.5 C 13.95 g/m*3 21.5 C 0 km/h
392 04-07-2010 06:17:03 21.5 C 13.95 g/m*3 21.5 C 0 km/h
393 04-07-2010 06:29:03 21.6 C 14.03 g/m*3 21.6 C 0 km/h
394 04-07-2010 06:41:03 21.8 C 14.01 g/m*3 21.8 C 0 km/h
395 04-07-2010 06:53:03 21.8 C 14.01 g/m*3 21.8 C 0 km/h
396 04-07-2010 07:05:03 22 C 13.97 g/m*3 22 C 0 km/h
397 04-07-2010 07:17:03 22.1 C 13.86 g/m*3 22.1 C 0 km/h
398 04-07-2010 07:29:03 22.1 C 13.86 g/m*3 22.1 C 0 km/h
399 04-07-2010 07:41:03 22.5 C 13.98 g/m*3 22.5 C 0 km/h
400 04-07-2010 07:53:03 23 C 13.77 g/m*3 23 C 0 km/h
Sensor: Nr:Datum:Temp:Abs-Feuchte:Windchill:Wind:
Aussen-T/F 401 04-07-2010 08:05:03 23.2 C 13.72 g/m*3 23.2 C 0 km/h
402 04-07-2010 08:17:03 22.9 C 13.49 g/m*3 22.9 C 0 km/h
403 04-07-2010 08:29:03 23 C 13.36 g/m*3 23 C 0 km/h
404 04-07-2010 08:41:03 23.4 C 13.46 g/m*3 23.4 C 0 km/h
405 04-07-2010 08:53:03 23.3 C 13.17 g/m*3 23.3 C 0 km/h
406 04-07-2010 09:05:03 23.4 C 12.83 g/m*3 23.4 C 0 km/h
407 04-07-2010 09:17:03 23.4 C 12.83 g/m*3 23.4 C 0 km/h
408 04-07-2010 09:29:03 23.9 C 13.2 g/m*3 23.9 C 0 km/h
409 04-07-2010 09:41:03 23.6 C 12.76 g/m*3 23.6 C 0 km/h
410 04-07-2010 09:53:04 23.4 C 13.04 g/m*3 23.4 C 0 km/h
411 04-07-2010 10:05:04 23.9 C 12.76 g/m*3 23.9 C 0 km/h
412 04-07-2010 10:17:02 24.1 C 12.91 g/m*3 24.1 C 0 km/h
413 04-07-2010 10:29:02 24.2 C 12.54 g/m*3 24.2 C 0 km/h
414 04-07-2010 10:41:03 24.8 C 12.52 g/m*3 24.8 C 0 km/h
415 04-07-2010 10:53:02 25.1 C 12.27 g/m*3 25.1 C 0 km/h
416 04-07-2010 11:05:01 24.3 C 12.17 g/m*3 24.3 C 0 km/h
417 04-07-2010 11:17:02 25.4 C 12.24 g/m*3 25.4 C 0 km/h
418 04-07-2010 11:29:02 25.5 C 12.31 g/m*3 25.5 C 0 km/h
419 04-07-2010 11:41:02 27.1 C 11.9 g/m*3 27.1 C 0 km/h
420 04-07-2010 11:53:02 27.8 C 11.57 g/m*3 27.8 C 0 km/h
421 04-07-2010 12:05:03 27 C 11.32 g/m*3 27 C 0 km/h
422 04-07-2010 12:17:02 26.4 C 11.45 g/m*3 26.4 C 0 km/h
423 04-07-2010 12:29:02 27.6 C 11.44 g/m*3 27.6 C 0 km/h
424 04-07-2010 12:41:02 29.4 C 10.27 g/m*3 29.4 C 0 km/h
425 04-07-2010 12:53:02 29.3 C 10.22 g/m*3 29.3 C 0 km/h
Sensor: Nr:Datum:Temp:Abs-Feuchte:Windchill:Wind:
Aussen-T/F 426 04-07-2010 13:05:02 29.5 C 10.33 g/m*3 29.5 C 0 km/h
427 04-07-2010 13:17:01 29.3 C 10.22 g/m*3 29.3 C 0 km/h
428 04-07-2010 13:29:01 31.2 C 9.7 g/m*3 31.2 C 0 km/h
429 04-07-2010 13:41:02 31.2 C 8.73 g/m*3 31.2 C 0 km/h
430 04-07-2010 13:53:02 30.5 C 9.03 g/m*3 30.5 C 0 km/h
431 04-07-2010 14:05:02 31 C 9.28 g/m*3 31 C 0 km/h
432 04-07-2010 14:17:02 31 C 8.96 g/m*3 31 C 0 km/h
433 04-07-2010 14:29:02 30.5 C 9.66 g/m*3 30.5 C 0 km/h
434 04-07-2010 14:41:02 30 C 9.7 g/m*3 30 C 0 km/h
435 04-07-2010 14:53:02 30.3 C 9.86 g/m*3 30.3 C 0 km/h
436 04-07-2010 15:05:02 31.5 C 8.88 g/m*3 31.5 C 0 km/h
437 04-07-2010 15:17:02 32.1 C 8.48 g/m*3 32.1 C 0 km/h
438 04-07-2010 15:29:02 32 C 8.44 g/m*3 32 C 0 km/h
439 04-07-2010 15:41:02 32.3 C 8.23 g/m*3 32.3 C 0 km/h
440 04-07-2010 15:53:02 32 C 8.44 g/m*3 32 C 0 km/h
441 04-07-2010 16:05:02 32.4 C 7.93 g/m*3 32.4 C 0 km/h
442 04-07-2010 16:17:03 31.8 C 8.02 g/m*3 31.8 C 0 km/h
443 04-07-2010 16:29:03 32.2 C 7.85 g/m*3 32.2 C 0 km/h
444 04-07-2010 16:41:02 32.3 C 7.89 g/m*3 32.3 C 0 km/h
445 04-07-2010 16:53:02 32.4 C 7.59 g/m*3 32.4 C 0 km/h
446 04-07-2010 17:05:02 32.1 C 7.81 g/m*3 32.1 C 0 km/h
447 04-07-2010 17:17:02 31.8 C 7.68 g/m*3 31.8 C 0 km/h
448 04-07-2010 17:29:02 32.8 C 7.4 g/m*3 32.8 C 0 km/h
449 04-07-2010 17:41:02 32.8 C 7.4 g/m*3 32.8 C 0 km/h
450 04-07-2010 17:53:02 32.9 C 7.44 g/m*3 32.9 C 0 km/h
Sensor: Nr:Datum:Temp:Abs-Feuchte:Windchill:Wind:
Aussen-T/F 451 04-07-2010 18:05:02 32.9 C 7.44 g/m*3 32.9 C 0 km/h
452 04-07-2010 18:17:02 32.9 C 7.44 g/m*3 32.9 C 0 km/h
453 04-07-2010 18:29:03 32.3 C 7.55 g/m*3 32.3 C 0 km/h
454 04-07-2010 18:41:01 31.9 C 7.72 g/m*3 31.9 C 0 km/h
455 04-07-2010 18:53:02 32.5 C 7.63 g/m*3 32.5 C 0 km/h
456 04-07-2010 19:05:01 31.2 C 8.41 g/m*3 31.2 C 0 km/h
457 04-07-2010 19:17:02 30 C 9.1 g/m*3 30 C 0 km/h
458 04-07-2010 19:29:02 30.1 C 9.45 g/m*3 30.1 C 0 km/h
459 04-07-2010 19:41:02 31.3 C 8.78 g/m*3 31.3 C 0 km/h
460 04-07-2010 19:53:02 32 C 7.76 g/m*3 32 C 0 km/h
461 04-07-2010 20:05:01 31.5 C 8.55 g/m*3 31.5 C 0 km/h
462 04-07-2010 20:17:01 31.6 C 8.26 g/m*3 31.6 C 0 km/h
463 04-07-2010 20:29:01 31.7 C 8.64 g/m*3 31.7 C 0 km/h
464 04-07-2010 20:41:02 30.8 C 8.86 g/m*3 30.8 C 0 km/h
465 04-07-2010 20:53:02 29.7 C 9.55 g/m*3 29.7 C 0 km/h
466 04-07-2010 21:05:01 28.3 C 9.4 g/m*3 28.3 C 0 km/h
467 04-07-2010 21:17:02 27.8 C 9.68 g/m*3 27.8 C 0 km/h
468 04-07-2010 21:29:02 27.9 C 10.01 g/m*3 27.9 C 0 km/h
469 04-07-2010 21:41:02 27.4 C 9.74 g/m*3 27.4 C 0 km/h
470 04-07-2010 21:53:01 27.3 C 9.42 g/m*3 27.3 C 0 km/h
471 04-07-2010 22:05:02 26.9 C 9.73 g/m*3 26.9 C 0 km/h
472 04-07-2010 22:17:01 26.6 C 9.82 g/m*3 26.6 C 0 km/h
473 04-07-2010 22:29:01 26.4 C 9.96 g/m*3 26.4 C 0 km/h
474 04-07-2010 22:41:02 26.2 C 9.35 g/m*3 26.2 C 0 km/h
475 04-07-2010 22:54:03 26.1 C 9.06 g/m*3 26.1 C 0 km/h
Sensor: Nr:Datum:Temp:Abs-Feuchte:Windchill:Wind:
Aussen-T/F 476 04-07-2010 23:06:03 26.1 C 9.06 g/m*3 26.1 C 0 km/h
477 04-07-2010 23:18:03 26.1 C 9.3 g/m*3 26.1 C 0 km/h
478 04-07-2010 23:30:03 25.9 C 9.44 g/m*3 25.9 C 0 km/h
479 04-07-2010 23:42:03 25.7 C 9.58 g/m*3 25.7 C 0 km/h
480 04-07-2010 23:54:03 25.2 C 8.85 g/m*3 25.2 C 0 km/h
481 05-07-2010 00:06:03 24.7 C 8.6 g/m*3 24.7 C 0 km/h
482 05-07-2010 00:18:03 24.5 C 8.06 g/m*3 24.5 C 0 km/h
483 05-07-2010 00:30:03 24.4 C 8.46 g/m*3 24.4 C 0 km/h
484 05-07-2010 00:42:03 24.1 C 7.88 g/m*3 24.1 C 0 km/h
485 05-07-2010 00:54:03 24 C 7.83 g/m*3 24 C 0 km/h
486 05-07-2010 01:06:03 23.9 C 7.57 g/m*3 23.9 C 0 km/h
487 05-07-2010 01:18:04 23.8 C 7.1 g/m*3 23.8 C 0 km/h
488 05-07-2010 01:30:04 23.3 C 6.9 g/m*3 23.3 C 0 km/h
489 05-07-2010 01:42:04 22.9 C 7.15 g/m*3 22.9 C 0 km/h
490 05-07-2010 01:54:04 22.4 C 6.95 g/m*3 22.4 C 0 km/h
491 05-07-2010 02:06:04 22.5 C 7.19 g/m*3 22.5 C 0 km/h
492 05-07-2010 02:18:04 22.2 C 7.07 g/m*3 22.2 C 0 km/h
493 05-07-2010 02:30:04 21.9 C 6.95 g/m*3 21.9 C 0 km/h
494 05-07-2010 02:42:04 21.7 C 7.25 g/m*3 21.7 C 0 km/h
495 05-07-2010 02:54:04 21.4 C 6.94 g/m*3 21.4 C 0 km/h
496 05-07-2010 03:06:04 21.5 C 7.17 g/m*3 21.5 C 0 km/h
497 05-07-2010 03:18:04 21.2 C 7.04 g/m*3 21.2 C 0 km/h
498 05-07-2010 03:30:04 20.8 C 6.7 g/m*3 20.8 C 0 km/h
499 05-07-2010 03:42:04 20.8 C 6.52 g/m*3 20.8 C 0 km/h
500 05-07-2010 03:54:04 20.8 C 6.7 g/m*3 20.8 C 0 km/h
Sensor: Nr:Datum:Temp:Abs-Feuchte:Windchill:Wind:
Aussen-T/F 501 05-07-2010 04:06:04 20.5 C 6.41 g/m*3 20.5 C 0 km/h
502 05-07-2010 04:18:04 20.3 C 6.51 g/m*3 20.3 C 0 km/h
503 05-07-2010 04:30:04 20 C 6.22 g/m*3 20 C 0 km/h
504 05-07-2010 04:42:04 19.7 C 6.11 g/m*3 19.7 C 0 km/h
505 05-07-2010 04:54:04 19.3 C 6.14 g/m*3 19.3 C 0 km/h
506 05-07-2010 05:06:04 19.1 C 6.23 g/m*3 19.1 C 0 km/h
507 05-07-2010 05:18:04 18.9 C 6.32 g/m*3 18.9 C 0 km/h
508 05-07-2010 05:30:05 18.9 C 6.32 g/m*3 18.9 C 0 km/h
509 05-07-2010 05:42:05 18.8 C 6.28 g/m*3 18.8 C 0 km/h
510 05-07-2010 05:54:05 18.6 C 6.37 g/m*3 18.6 C 0 km/h
511 05-07-2010 06:06:05 18.5 C 6.33 g/m*3 18.5 C 0 km/h
512 05-07-2010 06:18:05 18.4 C 6.45 g/m*3 18.4 C 0 km/h
513 05-07-2010 06:30:05 18.4 C 6.61 g/m*3 18.4 C 0 km/h
514 05-07-2010 06:42:05 18.2 C 7.15 g/m*3 18.2 C 0 km/h
515 05-07-2010 06:54:05 18.2 C 7.31 g/m*3 18.2 C 0 km/h
516 05-07-2010 07:06:02 18.3 C 7.35 g/m*3 18.3 C 0 km/h
517 05-07-2010 07:18:03 18.3 C 7.66 g/m*3 18.3 C 0 km/h
518 05-07-2010 07:30:03 18.4 C 7.55 g/m*3 18.4 C 0 km/h
519 05-07-2010 07:42:02 18.5 C 7.44 g/m*3 18.5 C 0 km/h
520 05-07-2010 07:54:02 18.7 C 7.36 g/m*3 18.7 C 0 km/h
521 05-07-2010 08:06:02 18.9 C 7.45 g/m*3 18.9 C 0 km/h
522 05-07-2010 08:18:03 19.2 C 7.09 g/m*3 19.2 C 0 km/h
523 05-07-2010 08:30:03 19.4 C 6.84 g/m*3 19.4 C 0 km/h
524 05-07-2010 08:42:02 19.6 C 6.92 g/m*3 19.6 C 0 km/h
525 05-07-2010 08:54:03 19.9 C 6.7 g/m*3 19.9 C 0 km/h
Sensor: Nr:Datum:Temp:Abs-Feuchte:Windchill:Wind:
Aussen-T/F 526 05-07-2010 09:06:02 20.3 C 6.33 g/m*3 20.3 C 0 km/h
527 05-07-2010 09:18:02 20.8 C 6.88 g/m*3 20.8 C 0 km/h
528 05-07-2010 09:30:02 21.4 C 6.75 g/m*3 21.4 C 0 km/h
529 05-07-2010 09:42:02 21.8 C 6.72 g/m*3 21.8 C 0 km/h
530 05-07-2010 09:54:02 22.1 C 6.64 g/m*3 22.1 C 0 km/h
531 05-07-2010 10:06:01 22.7 C 6.06 g/m*3 22.7 C 0 km/h
532 05-07-2010 10:18:02 23.3 C 6.48 g/m*3 23.3 C 0 km/h
533 05-07-2010 10:30:03 23.3 C 6.48 g/m*3 23.3 C 0 km/h
534 05-07-2010 10:42:01 24.4 C 6.45 g/m*3 24.4 C 0 km/h
535 05-07-2010 10:54:02 24.8 C 6.6 g/m*3 24.8 C 0 km/h
536 05-07-2010 11:06:01 24.9 C 6.87 g/m*3 24.9 C 0 km/h
537 05-07-2010 11:18:01 26.8 C 6.62 g/m*3 26.8 C 0 km/h
538 05-07-2010 11:30:01 27.7 C 6.69 g/m*3 27.7 C 0 km/h
539 05-07-2010 11:42:01 26.5 C 6.26 g/m*3 26.5 C 0 km/h
540 05-07-2010 11:54:02 26.8 C 6.62 g/m*3 26.8 C 0 km/h
541 05-07-2010 12:06:02 27.4 C 6.58 g/m*3 27.4 C 0 km/h
542 05-07-2010 12:18:02 28.2 C 6.32 g/m*3 28.2 C 0 km/h
543 05-07-2010 12:30:02 28.1 C 6.56 g/m*3 28.1 C 0 km/h
544 05-07-2010 12:42:02 28.2 C 6.6 g/m*3 28.2 C 0 km/h
545 05-07-2010 12:54:02 27.8 C 6.99 g/m*3 27.8 C 0 km/h
546 05-07-2010 13:06:02 27.6 C 7.45 g/m*3 27.6 C 0 km/h
547 05-07-2010 13:18:01 29.6 C 7.42 g/m*3 29.6 C 0 km/h
548 05-07-2010 13:30:01 28.9 C 7.43 g/m*3 28.9 C 0 km/h
549 05-07-2010 13:42:02 27.1 C 7.76 g/m*3 27.1 C 0 km/h
550 05-07-2010 13:54:02 26.2 C 7.63 g/m*3 26.2 C 0 km/h
Sensor: Nr:Datum:Temp:Abs-Feuchte:Windchill:Wind:
Aussen-T/F 551 05-07-2010 14:06:02 26.5 C 7.51 g/m*3 26.5 C 0 km/h
552 05-07-2010 14:18:01 25.8 C 7.94 g/m*3 25.8 C 0 km/h
553 05-07-2010 14:30:01 26.1 C 8.08 g/m*3 26.1 C 0 km/h
554 05-07-2010 14:42:02 26.4 C 8.21 g/m*3 26.4 C 0 km/h
555 05-07-2010 14:54:02 26.2 C 8.37 g/m*3 26.2 C 0 km/h
556 05-07-2010 15:06:02 27.2 C 8.07 g/m*3 27.2 C 0 km/h
557 05-07-2010 15:18:02 26.5 C 8.26 g/m*3 26.5 C 0 km/h
558 05-07-2010 15:30:02 25.8 C 7.94 g/m*3 25.8 C 0 km/h
559 05-07-2010 15:42:02 25.1 C 8.33 g/m*3 25.1 C 0 km/h
560 05-07-2010 15:54:02 24.7 C 8.6 g/m*3 24.7 C 0 km/h
561 05-07-2010 16:06:02 24.2 C 8.8 g/m*3 24.2 C 0 km/h
562 05-07-2010 16:18:02 24.2 C 9.02 g/m*3 24.2 C 0 km/h
563 05-07-2010 16:30:02 25.4 C 8.95 g/m*3 25.4 C 0 km/h
564 05-07-2010 16:42:02 25.1 C 8.8 g/m*3 25.1 C 0 km/h
565 05-07-2010 16:54:02 24.9 C 8.93 g/m*3 24.9 C 0 km/h
566 05-07-2010 17:06:02 24.7 C 9.05 g/m*3 24.7 C 0 km/h
567 05-07-2010 17:18:02 24.2 C 9.02 g/m*3 24.2 C 0 km/h
568 05-07-2010 17:30:02 23.7 C 9.41 g/m*3 23.7 C 0 km/h
569 05-07-2010 17:42:02 22.7 C 10.71 g/m*3 22.7 C 0 km/h
570 05-07-2010 17:54:02 22 C 11.65 g/m*3 22 C 0 km/h
571 05-07-2010 18:06:02 22.9 C 11.65 g/m*3 22.9 C 0 km/h
572 05-07-2010 18:18:03 23 C 10.48 g/m*3 23 C 0 km/h
573 05-07-2010 18:30:03 21.6 C 11 g/m*3 21.6 C 0 km/h
574 05-07-2010 18:42:02 19.4 C 12.18 g/m*3 19.4 C 0 km/h
575 05-07-2010 18:54:02 18.6 C 12.73 g/m*3 18.6 C 0 km/h
Sensor: Nr:Datum:Temp:Abs-Feuchte:Windchill:Wind:
Aussen-T/F 576 05-07-2010 19:06:02 18.5 C 13.13 g/m*3 18.5 C 0 km/h
577 05-07-2010 19:18:02 18.9 C 13.61 g/m*3 18.9 C 0 km/h
578 05-07-2010 19:30:02 19.7 C 14.09 g/m*3 19.7 C 0 km/h
579 05-07-2010 19:42:02 19.6 C 13.51 g/m*3 19.6 C 0 km/h
580 05-07-2010 19:54:02 19.9 C 13.74 g/m*3 19.9 C 0 km/h
581 05-07-2010 20:06:02 19.9 C 13.4 g/m*3 19.9 C 0 km/h
582 05-07-2010 20:18:02 19.8 C 13.32 g/m*3 19.8 C 0 km/h
583 05-07-2010 20:30:02 19.3 C 13.1 g/m*3 19.3 C 0 km/h
584 05-07-2010 20:42:02 19.1 C 12.95 g/m*3 19.1 C 0 km/h
585 05-07-2010 20:54:02 19.1 C 12.95 g/m*3 19.1 C 0 km/h
586 05-07-2010 21:06:02 19.1 C 13.11 g/m*3 19.1 C 0 km/h
587 05-07-2010 21:18:02 19.1 C 12.95 g/m*3 19.1 C 0 km/h
588 05-07-2010 21:30:02 19 C 12.87 g/m*3 19 C 0 km/h
589 05-07-2010 21:42:01 18.9 C 12.96 g/m*3 18.9 C 0 km/h
590 05-07-2010 21:54:02 18.7 C 12.81 g/m*3 18.7 C 0 km/h
591 05-07-2010 22:06:01 18.7 C 12.81 g/m*3 18.7 C 0 km/h
592 05-07-2010 22:18:02 18.8 C 12.88 g/m*3 18.8 C 0 km/h
593 05-07-2010 22:30:02 18.7 C 12.81 g/m*3 18.7 C 0 km/h
594 05-07-2010 22:42:01 18.5 C 12.66 g/m*3 18.5 C 0 km/h
595 05-07-2010 22:54:01 18.4 C 12.74 g/m*3 18.4 C 0 km/h
596 05-07-2010 23:07:02 18.2 C 12.59 g/m*3 18.2 C 0 km/h
597 05-07-2010 23:19:02 18 C 12.59 g/m*3 18 C 0 km/h
598 05-07-2010 23:31:02 17.9 C 12.67 g/m*3 17.9 C 0 km/h
599 05-07-2010 23:43:02 17.7 C 12.37 g/m*3 17.7 C 0 km/h
600 05-07-2010 23:55:02 17.6 C 12.15 g/m*3 17.6 C 0 km/h
Sensor: Nr:Datum:Temp:Abs-Feuchte:Windchill:Wind:
Aussen-T/F 601 06-07-2010 00:07:02 17.5 C 12.08 g/m*3 17.5 C 0 km/h
602 06-07-2010 00:19:02 17.2 C 11.86 g/m*3 17.2 C 0 km/h
603 06-07-2010 00:31:02 17.1 C 11.94 g/m*3 17.1 C 0 km/h
604 06-07-2010 00:43:02 17.1 C 11.94 g/m*3 17.1 C 0 km/h
605 06-07-2010 00:55:02 17.3 C 12.08 g/m*3 17.3 C 0 km/h
606 06-07-2010 01:07:02 17.3 C 11.93 g/m*3 17.3 C 0 km/h
607 06-07-2010 01:19:02 17.1 C 11.79 g/m*3 17.1 C 0 km/h
608 06-07-2010 01:31:02 17.2 C 11.86 g/m*3 17.2 C 0 km/h
609 06-07-2010 01:43:02 17.3 C 11.79 g/m*3 17.3 C 0 km/h
610 06-07-2010 01:55:02 17.3 C 11.49 g/m*3 17.3 C 0 km/h
611 06-07-2010 02:07:02 17.1 C 11.21 g/m*3 17.1 C 0 km/h
612 06-07-2010 02:19:02 17.3 C 11.49 g/m*3 17.3 C 0 km/h
613 06-07-2010 02:31:02 16.9 C 11.22 g/m*3 16.9 C 0 km/h
614 06-07-2010 02:43:02 16.6 C 11.16 g/m*3 16.6 C 0 km/h
615 06-07-2010 02:55:02 16.3 C 11.24 g/m*3 16.3 C 0 km/h
616 06-07-2010 03:07:02 16.4 C 11.31 g/m*3 16.4 C 0 km/h
617 06-07-2010 03:19:03 16.4 C 11.17 g/m*3 16.4 C 0 km/h
618 06-07-2010 03:31:03 16.5 C 10.95 g/m*3 16.5 C 0 km/h
619 06-07-2010 03:43:03 16.4 C 10.75 g/m*3 16.4 C 0 km/h
620 06-07-2010 03:55:03 16 C 10.22 g/m*3 16 C 0 km/h
621 06-07-2010 04:07:03 15.7 C 10.3 g/m*3 15.7 C 0 km/h
622 06-07-2010 04:19:03 15.4 C 10.12 g/m*3 15.4 C 0 km/h
623 06-07-2010 04:31:03 15.1 C 10.06 g/m*3 15.1 C 0 km/h
624 06-07-2010 04:43:03 15 C 10 g/m*3 15 C 0 km/h
625 06-07-2010 04:55:03 14.8 C 10.01 g/m*3 14.8 C 0 km/h
Sensor: Nr:Datum:Temp:Abs-Feuchte:Windchill:Wind:
Aussen-T/F 626 06-07-2010 05:07:03 14.8 C 10.13 g/m*3 14.8 C 0 km/h
627 06-07-2010 05:19:03 15 C 10.39 g/m*3 15 C 0 km/h
628 06-07-2010 05:31:03 15 C 10.26 g/m*3 15 C 0 km/h
629 06-07-2010 05:43:03 14.8 C 10.26 g/m*3 14.8 C 0 km/h
630 06-07-2010 05:55:03 14.7 C 10.2 g/m*3 14.7 C 0 km/h
631 06-07-2010 06:07:03 14.7 C 10.2 g/m*3 14.7 C 0 km/h
632 06-07-2010 06:19:03 14.6 C 10.01 g/m*3 14.6 C 0 km/h
633 06-07-2010 06:31:03 14.6 C 10.01 g/m*3 14.6 C 0 km/h
634 06-07-2010 06:43:03 14.7 C 9.69 g/m*3 14.7 C 0 km/h
635 06-07-2010 06:55:03 14.7 C 9.69 g/m*3 14.7 C 0 km/h
636 06-07-2010 07:07:02 14.8 C 9.75 g/m*3 14.8 C 0 km/h
637 06-07-2010 07:19:02 14.9 C 9.81 g/m*3 14.9 C 0 km/h
638 06-07-2010 07:31:02 15.1 C 9.68 g/m*3 15.1 C 0 km/h
639 06-07-2010 07:43:02 15.2 C 9.61 g/m*3 15.2 C 0 km/h
640 06-07-2010 07:55:02 15.4 C 9.72 g/m*3 15.4 C 0 km/h
641 06-07-2010 08:07:02 15.5 C 9.65 g/m*3 15.5 C 0 km/h
642 06-07-2010 08:19:02 15.7 C 9.5 g/m*3 15.7 C 0 km/h
643 06-07-2010 08:31:01 15.8 C 9.29 g/m*3 15.8 C 0 km/h
644 06-07-2010 08:43:01 16.1 C 9.05 g/m*3 16.1 C 0 km/h
645 06-07-2010 08:55:02 16.4 C 8.65 g/m*3 16.4 C 0 km/h
646 06-07-2010 09:07:01 16.8 C 8.72 g/m*3 16.8 C 0 km/h
647 06-07-2010 09:19:01 17.3 C 8.54 g/m*3 17.3 C 0 km/h
648 06-07-2010 09:31:02 17.5 C 8.05 g/m*3 17.5 C 0 km/h
649 06-07-2010 09:43:02 18 C 7.99 g/m*3 18 C 0 km/h
650 06-07-2010 09:55:02 18.1 C 8.03 g/m*3 18.1 C 0 km/h
Sensor: Nr:Datum:Temp:Abs-Feuchte:Windchill:Wind:
Aussen-T/F 651 06-07-2010 10:07:01 19 C 7.66 g/m*3 19 C 0 km/h
652 06-07-2010 10:19:01 19.4 C 7.51 g/m*3 19.4 C 0 km/h
653 06-07-2010 10:31:02 20.2 C 7.34 g/m*3 20.2 C 0 km/h
654 06-07-2010 10:43:02 20.4 C 7.08 g/m*3 20.4 C 0 km/h
655 06-07-2010 10:55:02 21.1 C 6.63 g/m*3 21.1 C 0 km/h
656 06-07-2010 11:07:02 20.9 C 6.92 g/m*3 20.9 C 0 km/h
657 06-07-2010 11:19:02 20.7 C 6.66 g/m*3 20.7 C 0 km/h
658 06-07-2010 11:31:02 22 C 6.79 g/m*3 22 C 0 km/h
659 06-07-2010 11:43:03 21.3 C 6.34 g/m*3 21.3 C 0 km/h
660 06-07-2010 11:55:02 22.5 C 6.19 g/m*3 22.5 C 0 km/h
661 06-07-2010 12:07:02 21.9 C 6.18 g/m*3 21.9 C 0 km/h
662 06-07-2010 12:19:02 22.7 C 5.25 g/m*3 22.7 C 0 km/h
663 06-07-2010 12:31:02 23.3 C 5.23 g/m*3 23.3 C 0 km/h
664 06-07-2010 12:43:02 22.5 C 5.39 g/m*3 22.5 C 0 km/h
665 06-07-2010 12:55:02 24.7 C 5.43 g/m*3 24.7 C 0 km/h
666 06-07-2010 13:07:02 23.6 C 5.32 g/m*3 23.6 C 0 km/h
667 06-07-2010 13:19:02 24.5 C 4.92 g/m*3 24.5 C 0 km/h
668 06-07-2010 13:31:02 27 C 5.15 g/m*3 27 C 0 km/h
669 06-07-2010 13:43:02 23.4 C 4.63 g/m*3 23.4 C 0 km/h
670 06-07-2010 13:55:02 24.5 C 5.15 g/m*3 24.5 C 0 km/h
671 06-07-2010 14:07:02 24.1 C 4.59 g/m*3 24.1 C 0 km/h
672 06-07-2010 14:19:02 23.6 C 4.68 g/m*3 23.6 C 0 km/h
673 06-07-2010 14:31:02 23.8 C 5.16 g/m*3 23.8 C 0 km/h
674 06-07-2010 14:43:02 25.3 C 4.68 g/m*3 25.3 C 0 km/h
675 06-07-2010 14:55:02 24.6 C 4.5 g/m*3 24.6 C 0 km/h
Sensor: Nr:Datum:Temp:Abs-Feuchte:Windchill:Wind:
Aussen-T/F 676 06-07-2010 15:07:02 24.2 C 4.4 g/m*3 24.2 C 0 km/h
677 06-07-2010 15:19:02 24.8 C 4.55 g/m*3 24.8 C 0 km/h
678 06-07-2010 15:31:01 23.7 C 4.28 g/m*3 23.7 C 0 km/h
679 06-07-2010 15:43:01 24.9 C 4.58 g/m*3 24.9 C 0 km/h
680 06-07-2010 15:55:02 25 C 4.6 g/m*3 25 C 0 km/h
681 06-07-2010 16:07:01 25.2 C 4.66 g/m*3 25.2 C 0 km/h
682 06-07-2010 16:19:01 25.4 C 4.71 g/m*3 25.4 C 0 km/h
683 06-07-2010 16:31:02 26.6 C 5.03 g/m*3 26.6 C 0 km/h
684 06-07-2010 16:43:02 25.7 C 4.79 g/m*3 25.7 C 0 km/h
685 06-07-2010 16:55:02 26.3 C 4.95 g/m*3 26.3 C 0 km/h
686 06-07-2010 17:07:01 27.3 C 5.23 g/m*3 27.3 C 0 km/h
687 06-07-2010 17:19:02 26.3 C 4.95 g/m*3 26.3 C 0 km/h
688 06-07-2010 17:31:02 26.7 C 5.06 g/m*3 26.7 C 0 km/h
689 06-07-2010 17:43:02 27.1 C 5.18 g/m*3 27.1 C 0 km/h
690 06-07-2010 17:55:01 27.2 C 5.2 g/m*3 27.2 C 0 km/h
691 06-07-2010 18:07:02 25.1 C 4.63 g/m*3 25.1 C 0 km/h
692 06-07-2010 18:19:01 25.3 C 4.68 g/m*3 25.3 C 0 km/h
693 06-07-2010 18:31:02 25.5 C 4.73 g/m*3 25.5 C 0 km/h
694 06-07-2010 18:43:02 25.3 C 4.68 g/m*3 25.3 C 0 km/h
695 06-07-2010 18:55:02 26.1 C 4.9 g/m*3 26.1 C 0 km/h
696 06-07-2010 19:07:02 26 C 4.87 g/m*3 26 C 0 km/h
697 06-07-2010 19:19:01 25.8 C 5.06 g/m*3 25.8 C 0 km/h
698 06-07-2010 19:31:02 25.1 C 4.63 g/m*3 25.1 C 0 km/h
699 06-07-2010 19:43:03 24.1 C 4.59 g/m*3 24.1 C 0 km/h
700 06-07-2010 19:55:02 24.3 C 4.87 g/m*3 24.3 C 0 km/h
Sensor: Nr:Datum:Temp:Abs-Feuchte:Windchill:Wind:
Aussen-T/F 701 06-07-2010 20:07:02 24.7 C 4.98 g/m*3 24.7 C 0 km/h
702 06-07-2010 20:19:01 25.2 C 4.89 g/m*3 25.2 C 0 km/h
703 06-07-2010 20:31:02 24.3 C 5.09 g/m*3 24.3 C 0 km/h
704 06-07-2010 20:43:02 23.7 C 5.78 g/m*3 23.7 C 0 km/h
705 06-07-2010 20:55:02 23.6 C 5.74 g/m*3 23.6 C 0 km/h
706 06-07-2010 21:07:02 23 C 5.96 g/m*3 23 C 0 km/h
707 06-07-2010 21:19:02 22.3 C 6.32 g/m*3 22.3 C 0 km/h
708 06-07-2010 21:31:02 21.2 C 6.12 g/m*3 21.2 C 0 km/h
709 06-07-2010 21:43:02 20.5 C 6.41 g/m*3 20.5 C 0 km/h
710 06-07-2010 21:55:02 19.8 C 6.32 g/m*3 19.8 C 0 km/h
711 06-07-2010 22:07:02 19.3 C 6.3 g/m*3 19.3 C 0 km/h
712 06-07-2010 22:19:02 19.1 C 6.39 g/m*3 19.1 C 0 km/h
713 06-07-2010 22:31:02 18.9 C 6.48 g/m*3 18.9 C 0 km/h
714 06-07-2010 22:43:02 18.6 C 6.68 g/m*3 18.6 C 0 km/h
715 06-07-2010 22:56:03 18.3 C 6.72 g/m*3 18.3 C 0 km/h
716 06-07-2010 23:08:03 18.1 C 6.95 g/m*3 18.1 C 0 km/h
717 06-07-2010 23:20:03 17.8 C 7.13 g/m*3 17.8 C 0 km/h
718 06-07-2010 23:32:03 17.7 C 6.79 g/m*3 17.7 C 0 km/h
719 06-07-2010 23:44:03 17.5 C 6.56 g/m*3 17.5 C 0 km/h
720 06-07-2010 23:56:03 17.3 C 6.63 g/m*3 17.3 C 0 km/h
721 07-07-2010 00:08:03 16.8 C 6.72 g/m*3 16.8 C 0 km/h
722 07-07-2010 00:20:03 16.7 C 6.82 g/m*3 16.7 C 0 km/h
723 07-07-2010 00:32:03 16.5 C 6.74 g/m*3 16.5 C 0 km/h
724 07-07-2010 00:44:03 16.4 C 6.98 g/m*3 16.4 C 0 km/h
725 07-07-2010 00:56:03 16.1 C 7.13 g/m*3 16.1 C 0 km/h
Sensor: Nr:Datum:Temp:Abs-Feuchte:Windchill:Wind:
Aussen-T/F 726 07-07-2010 01:08:04 15.8 C 7.27 g/m*3 15.8 C 0 km/h
727 07-07-2010 01:20:04 15.7 C 7.36 g/m*3 15.7 C 0 km/h
728 07-07-2010 01:32:04 15.6 C 7.45 g/m*3 15.6 C 0 km/h
729 07-07-2010 01:44:04 15.3 C 7.44 g/m*3 15.3 C 0 km/h
730 07-07-2010 01:56:04 15.2 C 7.53 g/m*3 15.2 C 0 km/h
731 07-07-2010 02:08:04 15.2 C 7.53 g/m*3 15.2 C 0 km/h
732 07-07-2010 02:20:04 15 C 7.69 g/m*3 15 C 0 km/h
733 07-07-2010 02:32:04 14.8 C 7.73 g/m*3 14.8 C 0 km/h
734 07-07-2010 02:44:04 14.6 C 7.63 g/m*3 14.6 C 0 km/h
735 07-07-2010 02:56:04 14.4 C 7.79 g/m*3 14.4 C 0 km/h
736 07-07-2010 03:08:04 14.1 C 7.77 g/m*3 14.1 C 0 km/h
737 07-07-2010 03:20:04 13.9 C 7.79 g/m*3 13.9 C 0 km/h
738 07-07-2010 03:32:04 14 C 7.72 g/m*3 14 C 0 km/h
739 07-07-2010 03:44:04 13.9 C 7.79 g/m*3 13.9 C 0 km/h
740 07-07-2010 03:56:04 13.7 C 7.82 g/m*3 13.7 C 0 km/h
741 07-07-2010 04:08:04 13.5 C 7.72 g/m*3 13.5 C 0 km/h
742 07-07-2010 04:20:04 13.4 C 7.67 g/m*3 13.4 C 0 km/h
743 07-07-2010 04:32:04 13.3 C 7.74 g/m*3 13.3 C 0 km/h
744 07-07-2010 04:44:04 13.2 C 7.81 g/m*3 13.2 C 0 km/h
745 07-07-2010 04:56:04 13.1 C 7.76 g/m*3 13.1 C 0 km/h
746 07-07-2010 05:08:04 13 C 7.83 g/m*3 13 C 0 km/h
747 07-07-2010 05:20:04 12.9 C 8 g/m*3 12.9 C 0 km/h
748 07-07-2010 05:32:05 12.8 C 7.95 g/m*3 12.8 C 0 km/h
749 07-07-2010 05:44:05 12.6 C 8.08 g/m*3 12.6 C 0 km/h
750 07-07-2010 05:56:05 12.5 C 8.14 g/m*3 12.5 C 0 km/h
Sensor: Nr:Datum:Temp:Abs-Feuchte:Windchill:Wind:
Aussen-T/F 751 07-07-2010 06:08:05 12.5 C 8.14 g/m*3 12.5 C 0 km/h
752 07-07-2010 06:20:03 12.6 C 8.19 g/m*3 12.6 C 0 km/h
753 07-07-2010 06:32:03 12.7 C 8.24 g/m*3 12.7 C 0 km/h
754 07-07-2010 06:44:03 12.8 C 8.29 g/m*3 12.8 C 0 km/h
755 07-07-2010 06:56:02 12.9 C 8.34 g/m*3 12.9 C 0 km/h
756 07-07-2010 07:08:02 13 C 8.39 g/m*3 13 C 0 km/h
757 07-07-2010 07:20:03 13.2 C 8.38 g/m*3 13.2 C 0 km/h
758 07-07-2010 07:32:02 13.3 C 8.32 g/m*3 13.3 C 0 km/h
759 07-07-2010 07:44:02 13.4 C 8.37 g/m*3 13.4 C 0 km/h
760 07-07-2010 07:56:03 13.8 C 8.46 g/m*3 13.8 C 0 km/h
761 07-07-2010 08:08:02 14.1 C 8.37 g/m*3 14.1 C 0 km/h
762 07-07-2010 08:20:02 14.3 C 8.23 g/m*3 14.3 C 0 km/h
763 07-07-2010 08:32:02 14.7 C 8.44 g/m*3 14.7 C 0 km/h
764 07-07-2010 08:44:02 15.1 C 8.39 g/m*3 15.1 C 0 km/h
765 07-07-2010 08:56:02 15.6 C 8.11 g/m*3 15.6 C 0 km/h
766 07-07-2010 09:08:02 16.2 C 8.14 g/m*3 16.2 C 0 km/h
767 07-07-2010 09:20:02 16.9 C 8.2 g/m*3 16.9 C 0 km/h
768 07-07-2010 09:32:02 17.7 C 8.15 g/m*3 17.7 C 0 km/h
769 07-07-2010 09:44:02 18.4 C 8.02 g/m*3 18.4 C 0 km/h
770 07-07-2010 09:56:02 19.1 C 8.03 g/m*3 19.1 C 0 km/h
771 07-07-2010 10:08:01 19.8 C 8.03 g/m*3 19.8 C 0 km/h
772 07-07-2010 10:20:01 20.3 C 8.09 g/m*3 20.3 C 0 km/h
773 07-07-2010 10:32:02 21.3 C 8.2 g/m*3 21.3 C 0 km/h
774 07-07-2010 10:44:02 21.7 C 8.01 g/m*3 21.7 C 0 km/h
775 07-07-2010 10:56:02 22.1 C 7.42 g/m*3 22.1 C 0 km/h
Sensor: Nr:Datum:Temp:Abs-Feuchte:Windchill:Wind:
Aussen-T/F 776 07-07-2010 11:08:02 23 C 6.58 g/m*3 23 C 0 km/h
777 07-07-2010 11:20:02 23 C 6.17 g/m*3 23 C 0 km/h
778 07-07-2010 11:32:02 23.5 C 5.92 g/m*3 23.5 C 0 km/h
779 07-07-2010 11:44:02 23.9 C 5.62 g/m*3 23.9 C 0 km/h
780 07-07-2010 11:56:01 24.7 C 5.66 g/m*3 24.7 C 0 km/h
781 07-07-2010 12:08:02 25.4 C 5.41 g/m*3 25.4 C 0 km/h
782 07-07-2010 12:20:01 26.1 C 5.14 g/m*3 26.1 C 0 km/h
783 07-07-2010 12:32:01 26.5 C 5.26 g/m*3 26.5 C 0 km/h
784 07-07-2010 12:44:01 28 C 5.44 g/m*3 28 C 0 km/h
785 07-07-2010 12:56:02 27.9 C 5.41 g/m*3 27.9 C 0 km/h
786 07-07-2010 13:08:02 28.1 C 5.47 g/m*3 28.1 C 0 km/h
787 07-07-2010 13:20:01 28.4 C 5.56 g/m*3 28.4 C 0 km/h
788 07-07-2010 13:32:02 30.1 C 6.1 g/m*3 30.1 C 0 km/h
789 07-07-2010 13:44:02 30.5 C 6.23 g/m*3 30.5 C 0 km/h
790 07-07-2010 13:56:02 29.8 C 6 g/m*3 29.8 C 0 km/h
791 07-07-2010 14:08:02 28.2 C 5.5 g/m*3 28.2 C 0 km/h
792 07-07-2010 14:20:01 27.7 C 5.35 g/m*3 27.7 C 0 km/h
793 07-07-2010 14:32:02 28.1 C 5.47 g/m*3 28.1 C 0 km/h
794 07-07-2010 14:44:02 28.9 C 5.71 g/m*3 28.9 C 0 km/h
795 07-07-2010 14:56:02 28.8 C 5.68 g/m*3 28.8 C 0 km/h
796 07-07-2010 15:08:02 29.3 C 5.84 g/m*3 29.3 C 0 km/h
797 07-07-2010 15:20:02 30.1 C 6.1 g/m*3 30.1 C 0 km/h
798 07-07-2010 15:32:02 30.1 C 6.1 g/m*3 30.1 C 0 km/h
799 07-07-2010 15:44:02 31 C 6.4 g/m*3 31 C 0 km/h
800 07-07-2010 15:56:02 31.5 C 6.57 g/m*3 31.5 C 0 km/h
Sensor: Nr:Datum:Temp:Abs-Feuchte:Windchill:Wind:
Aussen-T/F 801 07-07-2010 16:08:02 31.8 C 6.68 g/m*3 31.8 C 0 km/h
802 07-07-2010 16:20:02 31.9 C 6.72 g/m*3 31.9 C 0 km/h
803 07-07-2010 16:32:02 31.7 C 6.64 g/m*3 31.7 C 0 km/h
804 07-07-2010 16:44:02 32 C 6.75 g/m*3 32 C 0 km/h
805 07-07-2010 16:56:01 32.4 C 6.9 g/m*3 32.4 C 0 km/h
806 07-07-2010 17:08:02 32.5 C 6.93 g/m*3 32.5 C 0 km/h
807 07-07-2010 17:20:02 32.1 C 6.79 g/m*3 32.1 C 0 km/h
808 07-07-2010 17:32:02 32.7 C 7.01 g/m*3 32.7 C 0 km/h
809 07-07-2010 17:44:02 32.6 C 6.97 g/m*3 32.6 C 0 km/h
810 07-07-2010 17:56:02 32.8 C 7.04 g/m*3 32.8 C 0 km/h
811 07-07-2010 18:08:02 33 C 7.12 g/m*3 33 C 0 km/h
812 07-07-2010 18:20:02 33.2 C 7.2 g/m*3 33.2 C 0 km/h
813 07-07-2010 18:32:01 32.8 C 7.04 g/m*3 32.8 C 0 km/h
814 07-07-2010 18:44:01 32.8 C 7.04 g/m*3 32.8 C 0 km/h
815 07-07-2010 18:56:02 32.6 C 6.97 g/m*3 32.6 C 0 km/h
816 07-07-2010 19:08:02 32.5 C 6.93 g/m*3 32.5 C 0 km/h
817 07-07-2010 19:20:02 32.5 C 6.93 g/m*3 32.5 C 0 km/h
818 07-07-2010 19:32:02 32.5 C 6.93 g/m*3 32.5 C 0 km/h
819 07-07-2010 19:44:02 32.4 C 6.9 g/m*3 32.4 C 0 km/h
820 07-07-2010 19:56:02 32.1 C 6.79 g/m*3 32.1 C 0 km/h
821 07-07-2010 20:08:01 32 C 6.75 g/m*3 32 C 0 km/h
822 07-07-2010 20:20:02 31.7 C 6.64 g/m*3 31.7 C 0 km/h
823 07-07-2010 20:32:02 31.3 C 6.5 g/m*3 31.3 C 0 km/h
824 07-07-2010 20:44:02 30.9 C 6.37 g/m*3 30.9 C 0 km/h
825 07-07-2010 20:56:02 30.4 C 6.2 g/m*3 30.4 C 0 km/h
Sensor: Nr:Datum:Temp:Abs-Feuchte:Windchill:Wind:
Aussen-T/F 826 07-07-2010 21:08:02 29.1 C 6.35 g/m*3 29.1 C 0 km/h
827 07-07-2010 21:20:02 27.5 C 6.61 g/m*3 27.5 C 0 km/h
828 07-07-2010 21:32:02 26.5 C 6.76 g/m*3 26.5 C 0 km/h
829 07-07-2010 21:44:03 25.9 C 6.78 g/m*3 25.9 C 0 km/h
830 07-07-2010 21:56:01 25.3 C 6.79 g/m*3 25.3 C 0 km/h
831 07-07-2010 22:08:02 24.9 C 6.87 g/m*3 24.9 C 0 km/h
832 07-07-2010 22:20:01 24.6 C 6.75 g/m*3 24.6 C 0 km/h
833 07-07-2010 22:32:01 24.4 C 6.9 g/m*3 24.4 C 0 km/h
834 07-07-2010 22:44:01 24.1 C 6.78 g/m*3 24.1 C 0 km/h
835 07-07-2010 22:56:01 24 C 6.96 g/m*3 24 C 0 km/h
836 07-07-2010 23:08:01 23.8 C 7.1 g/m*3 23.8 C 0 km/h
837 07-07-2010 23:20:02 23.7 C 6.84 g/m*3 23.7 C 0 km/h
838 07-07-2010 23:32:01 23.7 C 7.06 g/m*3 23.7 C 0 km/h
839 07-07-2010 23:44:01 23.7 C 7.27 g/m*3 23.7 C 0 km/h
840 07-07-2010 23:56:01 23.6 C 7.23 g/m*3 23.6 C 0 km/h
841 08-07-2010 00:08:01 23.3 C 7.32 g/m*3 23.3 C 0 km/h
842 08-07-2010 00:21:04 22.8 C 7.52 g/m*3 22.8 C 0 km/h
843 08-07-2010 00:33:04 22.3 C 7.7 g/m*3 22.3 C 0 km/h
844 08-07-2010 00:45:04 22 C 7.96 g/m*3 22 C 0 km/h
845 08-07-2010 00:57:04 21.5 C 8.11 g/m*3 21.5 C 0 km/h
846 08-07-2010 01:09:04 21.1 C 7.92 g/m*3 21.1 C 0 km/h
847 08-07-2010 01:21:04 20.8 C 7.97 g/m*3 20.8 C 0 km/h
848 08-07-2010 01:33:04 20.4 C 7.96 g/m*3 20.4 C 0 km/h
849 08-07-2010 01:45:04 20.3 C 8.09 g/m*3 20.3 C 0 km/h
850 08-07-2010 01:57:04 20.1 C 8 g/m*3 20.1 C 0 km/h
Sensor: Nr:Datum:Temp:Abs-Feuchte:Windchill:Wind:
Aussen-T/F 851 08-07-2010 02:09:04 20 C 8.3 g/m*3 20 C 0 km/h
852 08-07-2010 02:21:04 19.9 C 8.42 g/m*3 19.9 C 0 km/h
853 08-07-2010 02:33:04 19.8 C 8.2 g/m*3 19.8 C 0 km/h
854 08-07-2010 02:45:04 19.7 C 7.98 g/m*3 19.7 C 0 km/h
855 08-07-2010 02:57:05 19.5 C 8.06 g/m*3 19.5 C 0 km/h
856 08-07-2010 03:09:05 19.4 C 8.01 g/m*3 19.4 C 0 km/h
857 08-07-2010 03:21:05 19.6 C 8.1 g/m*3 19.6 C 0 km/h
858 08-07-2010 03:33:05 19.6 C 8.1 g/m*3 19.6 C 0 km/h
859 08-07-2010 03:45:05 19.3 C 8.29 g/m*3 19.3 C 0 km/h
860 08-07-2010 03:57:05 19.1 C 8.2 g/m*3 19.1 C 0 km/h
861 08-07-2010 04:09:05 18.8 C 8.21 g/m*3 18.8 C 0 km/h
862 08-07-2010 04:21:05 18.7 C 8.33 g/m*3 18.7 C 0 km/h
863 08-07-2010 04:33:05 18.4 C 8.18 g/m*3 18.4 C 0 km/h
864 08-07-2010 04:45:05 18.4 C 8.65 g/m*3 18.4 C 0 km/h
865 08-07-2010 04:57:05 18.3 C 8.76 g/m*3 18.3 C 0 km/h
866 08-07-2010 05:09:05 18.1 C 8.5 g/m*3 18.1 C 0 km/h
867 08-07-2010 05:21:05 17.9 C 8.4 g/m*3 17.9 C 0 km/h
868 08-07-2010 05:33:05 17.8 C 8.5 g/m*3 17.8 C 0 km/h
869 08-07-2010 05:45:05 17.6 C 8.4 g/m*3 17.6 C 0 km/h
870 08-07-2010 05:57:05 17.5 C 8.2 g/m*3 17.5 C 0 km/h
871 08-07-2010 06:09:05 17.4 C 8.15 g/m*3 17.4 C 0 km/h
872 08-07-2010 06:21:03 17.3 C 8.4 g/m*3 17.3 C 0 km/h
873 08-07-2010 06:33:03 17.3 C 8.4 g/m*3 17.3 C 0 km/h
874 08-07-2010 06:45:02 17.4 C 8.74 g/m*3 17.4 C 0 km/h
875 08-07-2010 06:57:02 17.5 C 8.8 g/m*3 17.5 C 0 km/h
Sensor: Nr:Datum:Temp:Abs-Feuchte:Windchill:Wind:
Aussen-T/F 876 08-07-2010 07:09:02 17.7 C 8.9 g/m*3 17.7 C 0 km/h
877 08-07-2010 07:21:02 17.7 C 8.9 g/m*3 17.7 C 0 km/h
878 08-07-2010 07:33:01 17.9 C 9.01 g/m*3 17.9 C 0 km/h
879 08-07-2010 07:45:02 18.1 C 8.96 g/m*3 18.1 C 0 km/h
880 08-07-2010 07:57:02 18.2 C 8.86 g/m*3 18.2 C 0 km/h
881 08-07-2010 08:09:01 18.5 C 9.02 g/m*3 18.5 C 0 km/h
882 08-07-2010 08:21:02 18.7 C 8.81 g/m*3 18.7 C 0 km/h
883 08-07-2010 08:33:01 19.1 C 8.85 g/m*3 19.1 C 0 km/h
884 08-07-2010 08:45:02 19.4 C 8.84 g/m*3 19.4 C 0 km/h
885 08-07-2010 08:57:02 19.9 C 8.93 g/m*3 19.9 C 0 km/h
886 08-07-2010 09:09:02 20.6 C 9.13 g/m*3 20.6 C 0 km/h
887 08-07-2010 09:21:02 21.3 C 9.32 g/m*3 21.3 C 0 km/h
888 08-07-2010 09:33:02 22.3 C 9.08 g/m*3 22.3 C 0 km/h
889 08-07-2010 09:45:02 23.1 C 9.1 g/m*3 23.1 C 0 km/h
890 08-07-2010 09:57:03 23.9 C 9.09 g/m*3 23.9 C 0 km/h
891 08-07-2010 10:09:01 24.6 C 9.23 g/m*3 24.6 C 0 km/h
892 08-07-2010 10:21:01 25.3 C 8.66 g/m*3 25.3 C 0 km/h
893 08-07-2010 10:33:02 26 C 9.01 g/m*3 26 C 0 km/h
894 08-07-2010 10:45:02 26.5 C 9.01 g/m*3 26.5 C 0 km/h
895 08-07-2010 10:57:02 27.4 C 8.68 g/m*3 27.4 C 0 km/h
896 08-07-2010 11:09:02 27.8 C 6.99 g/m*3 27.8 C 0 km/h
897 08-07-2010 11:21:01 28.6 C 7.03 g/m*3 28.6 C 0 km/h
898 08-07-2010 11:33:02 29.3 C 7.01 g/m*3 29.3 C 0 km/h
899 08-07-2010 11:45:02 29.9 C 7.54 g/m*3 29.9 C 0 km/h
900 08-07-2010 11:57:02 30.3 C 6.78 g/m*3 30.3 C 0 km/h
Sensor: Nr:Datum:Temp:Abs-Feuchte:Windchill:Wind:
Aussen-T/F 901 08-07-2010 12:09:02 30.8 C 6.33 g/m*3 30.8 C 0 km/h
902 08-07-2010 12:21:01 31.4 C 6.54 g/m*3 31.4 C 0 km/h
903 08-07-2010 12:33:02 31.8 C 6.68 g/m*3 31.8 C 0 km/h
904 08-07-2010 12:45:02 31.9 C 6.72 g/m*3 31.9 C 0 km/h
905 08-07-2010 12:57:02 31.6 C 6.61 g/m*3 31.6 C 0 km/h
906 08-07-2010 13:09:02 32.1 C 6.79 g/m*3 32.1 C 0 km/h
907 08-07-2010 13:21:01 32.8 C 7.04 g/m*3 32.8 C 0 km/h
908 08-07-2010 13:33:02 33 C 7.12 g/m*3 33 C 0 km/h
909 08-07-2010 13:45:01 33.3 C 7.23 g/m*3 33.3 C 0 km/h
910 08-07-2010 13:57:01 33.2 C 7.2 g/m*3 33.2 C 0 km/h
911 08-07-2010 14:09:02 32.5 C 6.93 g/m*3 32.5 C 0 km/h
912 08-07-2010 14:21:01 32.3 C 6.86 g/m*3 32.3 C 0 km/h
913 08-07-2010 14:33:02 32.3 C 6.86 g/m*3 32.3 C 0 km/h
914 08-07-2010 14:45:01 32.3 C 6.86 g/m*3 32.3 C 0 km/h
915 08-07-2010 14:57:01 32.4 C 6.9 g/m*3 32.4 C 0 km/h
916 08-07-2010 15:09:02 32.7 C 7.01 g/m*3 32.7 C 0 km/h
917 08-07-2010 15:21:01 32.9 C 7.08 g/m*3 32.9 C 0 km/h
918 08-07-2010 15:33:01 33.3 C 7.23 g/m*3 33.3 C 0 km/h
919 08-07-2010 15:45:01 33.7 C 7.39 g/m*3 33.7 C 0 km/h
920 08-07-2010 15:57:01 33.7 C 7.39 g/m*3 33.7 C 0 km/h
921 08-07-2010 16:09:02 33.8 C 7.43 g/m*3 33.8 C 0 km/h
922 08-07-2010 16:21:02 33.8 C 7.43 g/m*3 33.8 C 0 km/h
923 08-07-2010 16:33:01 33.9 C 7.46 g/m*3 33.9 C 0 km/h
924 08-07-2010 16:45:01 33.3 C 7.23 g/m*3 33.3 C 0 km/h
925 08-07-2010 16:57:01 33.3 C 7.23 g/m*3 33.3 C 0 km/h
Sensor: Nr:Datum:Temp:Abs-Feuchte:Windchill:Wind:
Aussen-T/F 926 08-07-2010 17:09:01 33.3 C 7.23 g/m*3 33.3 C 0 km/h
927 08-07-2010 17:21:02 33.5 C 7.31 g/m*3 33.5 C 0 km/h
928 08-07-2010 17:33:01 34.2 C 7.58 g/m*3 34.2 C 0 km/h
929 08-07-2010 17:45:03 34.6 C 7.74 g/m*3 34.6 C 0 km/h
930 08-07-2010 17:57:03 34.2 C 7.58 g/m*3 34.2 C 0 km/h
931 08-07-2010 18:09:02 34.7 C 7.78 g/m*3 34.7 C 0 km/h
932 08-07-2010 18:21:02 34 C 7.5 g/m*3 34 C 0 km/h
933 08-07-2010 18:33:02 34.2 C 7.58 g/m*3 34.2 C 0 km/h
934 08-07-2010 18:45:02 34.4 C 7.66 g/m*3 34.4 C 0 km/h
935 08-07-2010 18:57:02 34.6 C 7.74 g/m*3 34.6 C 0 km/h
936 08-07-2010 19:09:02 34.5 C 7.7 g/m*3 34.5 C 0 km/h
937 08-07-2010 19:21:02 34.4 C 7.66 g/m*3 34.4 C 0 km/h
938 08-07-2010 19:33:02 34.1 C 7.54 g/m*3 34.1 C 0 km/h
939 08-07-2010 19:45:02 33.9 C 7.46 g/m*3 33.9 C 0 km/h
940 08-07-2010 19:57:03 33.8 C 7.43 g/m*3 33.8 C 0 km/h
941 08-07-2010 20:09:01 33.7 C 7.39 g/m*3 33.7 C 0 km/h
942 08-07-2010 20:21:01 33.3 C 7.23 g/m*3 33.3 C 0 km/h
943 08-07-2010 20:33:02 33 C 7.12 g/m*3 33 C 0 km/h
944 08-07-2010 20:45:02 32.7 C 7.01 g/m*3 32.7 C 0 km/h
945 08-07-2010 20:57:02 32.3 C 7.2 g/m*3 32.3 C 0 km/h
946 08-07-2010 21:09:02 31.4 C 7.52 g/m*3 31.4 C 0 km/h
947 08-07-2010 21:21:02 30.4 C 8.37 g/m*3 30.4 C 0 km/h
948 08-07-2010 21:33:02 29.9 C 8.45 g/m*3 29.9 C 0 km/h
949 08-07-2010 21:45:02 29.3 C 8.47 g/m*3 29.3 C 0 km/h
950 08-07-2010 21:57:02 28.9 C 8.57 g/m*3 28.9 C 0 km/h
Sensor: Nr:Datum:Temp:Abs-Feuchte:Windchill:Wind:
Aussen-T/F 951 08-07-2010 22:09:03 28.4 C 8.06 g/m*3 28.4 C 0 km/h
952 08-07-2010 22:21:02 28.3 C 8.29 g/m*3 28.3 C 0 km/h
953 08-07-2010 22:33:02 28 C 8.16 g/m*3 28 C 0 km/h
954 08-07-2010 22:46:02 27.8 C 8.34 g/m*3 27.8 C 0 km/h
955 08-07-2010 22:58:02 27.6 C 8.25 g/m*3 27.6 C 0 km/h
956 08-07-2010 23:10:02 27.5 C 8.2 g/m*3 27.5 C 0 km/h
957 08-07-2010 23:22:02 27.2 C 8.33 g/m*3 27.2 C 0 km/h
958 08-07-2010 23:34:03 27 C 7.98 g/m*3 27 C 0 km/h
959 08-07-2010 23:46:03 27 C 7.98 g/m*3 27 C 0 km/h
960 08-07-2010 23:58:03 26.9 C 7.93 g/m*3 26.9 C 0 km/h
961 09-07-2010 00:10:03 26.8 C 7.89 g/m*3 26.8 C 0 km/h
962 09-07-2010 00:22:03 26.2 C 8.12 g/m*3 26.2 C 0 km/h
963 09-07-2010 00:34:03 25.5 C 8.29 g/m*3 25.5 C 0 km/h
964 09-07-2010 00:46:03 25.3 C 8.66 g/m*3 25.3 C 0 km/h
965 09-07-2010 00:58:03 24.5 C 8.95 g/m*3 24.5 C 0 km/h
966 09-07-2010 01:10:03 24.3 C 8.85 g/m*3 24.3 C 0 km/h
967 09-07-2010 01:22:03 24.1 C 8.75 g/m*3 24.1 C 0 km/h
968 09-07-2010 01:34:03 23.7 C 8.77 g/m*3 23.7 C 0 km/h
969 09-07-2010 01:46:03 23.5 C 8.88 g/m*3 23.5 C 0 km/h
970 09-07-2010 01:58:03 23.3 C 8.78 g/m*3 23.3 C 0 km/h
971 09-07-2010 02:10:03 23 C 8.84 g/m*3 23 C 0 km/h
972 09-07-2010 02:22:03 22.8 C 9.14 g/m*3 22.8 C 0 km/h
973 09-07-2010 02:34:03 22.4 C 9.14 g/m*3 22.4 C 0 km/h
974 09-07-2010 02:46:03 22 C 8.73 g/m*3 22 C 0 km/h
975 09-07-2010 02:58:03 21.8 C 8.83 g/m*3 21.8 C 0 km/h
Sensor: Nr:Datum:Temp:Abs-Feuchte:Windchill:Wind:
Aussen-T/F 976 09-07-2010 03:10:03 21.7 C 8.97 g/m*3 21.7 C 0 km/h
977 09-07-2010 03:22:03 21.4 C 9.37 g/m*3 21.4 C 0 km/h
978 09-07-2010 03:34:03 21.3 C 9.32 g/m*3 21.3 C 0 km/h
979 09-07-2010 03:46:04 21 C 9.16 g/m*3 21 C 0 km/h
980 09-07-2010 03:58:04 20.8 C 9.23 g/m*3 20.8 C 0 km/h
981 09-07-2010 04:10:04 20.5 C 9.43 g/m*3 20.5 C 0 km/h
982 09-07-2010 04:22:04 20.3 C 9.32 g/m*3 20.3 C 0 km/h
983 09-07-2010 04:34:04 20.2 C 9.44 g/m*3 20.2 C 0 km/h
984 09-07-2010 04:46:04 20 C 9.51 g/m*3 20 C 0 km/h
985 09-07-2010 04:58:04 19.8 C 9.57 g/m*3 19.8 C 0 km/h
986 09-07-2010 05:10:04 19.4 C 9.51 g/m*3 19.4 C 0 km/h
987 09-07-2010 05:22:04 19.3 C 9.45 g/m*3 19.3 C 0 km/h
988 09-07-2010 05:34:04 19.2 C 9.4 g/m*3 19.2 C 0 km/h
989 09-07-2010 05:46:04 19.1 C 9.51 g/m*3 19.1 C 0 km/h
990 09-07-2010 05:58:04 19.1 C 9.51 g/m*3 19.1 C 0 km/h
991 09-07-2010 06:10:04 19 C 9.78 g/m*3 19 C 0 km/h
992 09-07-2010 06:22:04 19.1 C 9.84 g/m*3 19.1 C 0 km/h
993 09-07-2010 06:34:04 18.9 C 10.04 g/m*3 18.9 C 0 km/h
994 09-07-2010 06:46:04 19.1 C 10 g/m*3 19.1 C 0 km/h
995 09-07-2010 06:58:04 19.2 C 10.22 g/m*3 19.2 C 0 km/h
996 09-07-2010 07:10:02 19.3 C 10.12 g/m*3 19.3 C 0 km/h
997 09-07-2010 07:22:02 19.4 C 10.18 g/m*3 19.4 C 0 km/h
998 09-07-2010 07:34:02 19.9 C 10.31 g/m*3 19.9 C 0 km/h
999 09-07-2010 07:46:02 20.3 C 9.85 g/m*3 20.3 C 0 km/h
1000 09-07-2010 07:58:02 20.6 C 10.02 g/m*3 20.6 C 0 km/h
Sensor: Nr:Datum:Temp:Abs-Feuchte:Windchill:Wind:
Aussen-T/F 1001 09-07-2010 08:10:01 20.8 C 9.96 g/m*3 20.8 C 0 km/h
1002 09-07-2010 08:22:01 21.3 C 10.07 g/m*3 21.3 C 0 km/h
1003 09-07-2010 08:34:02 21.5 C 9.99 g/m*3 21.5 C 0 km/h
1004 09-07-2010 08:46:02 21.8 C 9.98 g/m*3 21.8 C 0 km/h
1005 09-07-2010 08:58:02 22.1 C 9.76 g/m*3 22.1 C 0 km/h
1006 09-07-2010 09:10:02 22.6 C 10.04 g/m*3 22.6 C 0 km/h
1007 09-07-2010 09:22:02 23.3 C 10.04 g/m*3 23.3 C 0 km/h
1008 09-07-2010 09:34:02 24.1 C 10.06 g/m*3 24.1 C 0 km/h
1009 09-07-2010 09:46:02 25 C 10.13 g/m*3 25 C 0 km/h
1010 09-07-2010 09:58:02 25.8 C 10.35 g/m*3 25.8 C 0 km/h
1011 09-07-2010 10:10:02 26.5 C 10.26 g/m*3 26.5 C 0 km/h
1012 09-07-2010 10:22:02 27.3 C 10.2 g/m*3 27.3 C 0 km/h
1013 09-07-2010 10:34:02 27.8 C 10.49 g/m*3 27.8 C 0 km/h
1014 09-07-2010 10:46:01 28.8 C 10.23 g/m*3 28.8 C 0 km/h
1015 09-07-2010 10:58:01 29.3 C 10.22 g/m*3 29.3 C 0 km/h
1016 09-07-2010 11:10:02 30 C 10.01 g/m*3 30 C 0 km/h
1017 09-07-2010 11:22:01 30.2 C 10.42 g/m*3 30.2 C 0 km/h
1018 09-07-2010 11:34:01 30.8 C 9.5 g/m*3 30.8 C 0 km/h
1019 09-07-2010 11:46:01 31.3 C 8.46 g/m*3 31.3 C 0 km/h
1020 09-07-2010 11:58:01 31.8 C 7.35 g/m*3 31.8 C 0 km/h
1021 09-07-2010 12:10:02 32.3 C 6.86 g/m*3 32.3 C 0 km/h
1022 09-07-2010 12:22:01 32.7 C 7.01 g/m*3 32.7 C 0 km/h
1023 09-07-2010 12:34:01 33.2 C 7.2 g/m*3 33.2 C 0 km/h
1024 09-07-2010 12:46:01 33.6 C 7.35 g/m*3 33.6 C 0 km/h
1025 09-07-2010 12:58:01 33.9 C 7.46 g/m*3 33.9 C 0 km/h
Sensor: Nr:Datum:Temp:Abs-Feuchte:Windchill:Wind:
Aussen-T/F 1026 09-07-2010 13:10:02 34.2 C 7.58 g/m*3 34.2 C 0 km/h
1027 09-07-2010 13:22:02 34.2 C 7.58 g/m*3 34.2 C 0 km/h
1028 09-07-2010 13:34:01 34.6 C 7.74 g/m*3 34.6 C 0 km/h
1029 09-07-2010 13:46:01 35 C 7.91 g/m*3 35 C 0 km/h
1030 09-07-2010 13:58:01 34.8 C 7.82 g/m*3 34.8 C 0 km/h
1031 09-07-2010 14:10:02 33.9 C 7.46 g/m*3 33.9 C 0 km/h
1032 09-07-2010 14:22:02 33.5 C 7.31 g/m*3 33.5 C 0 km/h
1033 09-07-2010 14:34:01 33.1 C 7.16 g/m*3 33.1 C 0 km/h
1034 09-07-2010 14:46:01 33 C 7.12 g/m*3 33 C 0 km/h
1035 09-07-2010 14:58:01 32.8 C 7.04 g/m*3 32.8 C 0 km/h
1036 09-07-2010 15:10:02 33.2 C 7.2 g/m*3 33.2 C 0 km/h
1037 09-07-2010 15:22:02 33.2 C 7.2 g/m*3 33.2 C 0 km/h
1038 09-07-2010 15:34:01 33.8 C 7.43 g/m*3 33.8 C 0 km/h
1039 09-07-2010 15:46:02 33.9 C 7.46 g/m*3 33.9 C 0 km/h
1040 09-07-2010 15:58:02 33.3 C 7.23 g/m*3 33.3 C 0 km/h
1041 09-07-2010 16:10:01 33.2 C 7.2 g/m*3 33.2 C 0 km/h
1042 09-07-2010 16:22:02 32.9 C 7.08 g/m*3 32.9 C 0 km/h
1043 09-07-2010 16:34:01 32.1 C 7.13 g/m*3 32.1 C 0 km/h
1044 09-07-2010 16:46:03 31.8 C 8.35 g/m*3 31.8 C 0 km/h
1045 09-07-2010 16:58:03 31.4 C 8.83 g/m*3 31.4 C 0 km/h
1046 09-07-2010 17:10:02 31.2 C 8.73 g/m*3 31.2 C 0 km/h
1047 09-07-2010 17:22:02 31.8 C 8.35 g/m*3 31.8 C 0 km/h
1048 09-07-2010 17:34:02 32.8 C 7.04 g/m*3 32.8 C 0 km/h
1049 09-07-2010 17:46:02 32.7 C 7.36 g/m*3 32.7 C 0 km/h
1050 09-07-2010 17:58:02 33.1 C 7.16 g/m*3 33.1 C 0 km/h
Sensor: Nr:Datum:Temp:Abs-Feuchte:Windchill:Wind:
Aussen-T/F 1051 09-07-2010 18:10:02 33.2 C 7.2 g/m*3 33.2 C 0 km/h
1052 09-07-2010 18:22:02 33.4 C 7.27 g/m*3 33.4 C 0 km/h
1053 09-07-2010 18:34:02 33.1 C 7.16 g/m*3 33.1 C 0 km/h
1054 09-07-2010 18:46:02 33.6 C 7.35 g/m*3 33.6 C 0 km/h
1055 09-07-2010 18:58:02 33.8 C 7.43 g/m*3 33.8 C 0 km/h
1056 09-07-2010 19:10:03 33.6 C 7.35 g/m*3 33.6 C 0 km/h
1057 09-07-2010 19:22:03 33.5 C 7.31 g/m*3 33.5 C 0 km/h
1058 09-07-2010 19:34:03 33.5 C 7.31 g/m*3 33.5 C 0 km/h
1059 09-07-2010 19:46:01 33.5 C 7.31 g/m*3 33.5 C 0 km/h
1060 09-07-2010 19:58:01 33.3 C 7.23 g/m*3 33.3 C 0 km/h
1061 09-07-2010 20:10:01 33.1 C 7.16 g/m*3 33.1 C 0 km/h
1062 09-07-2010 20:22:00 32.9 C 7.08 g/m*3 32.9 C 0 km/h
1063 09-07-2010 20:34:01 32.1 C 7.47 g/m*3 32.1 C 0 km/h
1064 09-07-2010 20:46:01 31.3 C 7.81 g/m*3 31.3 C 0 km/h
1065 09-07-2010 20:58:01 30.8 C 8.23 g/m*3 30.8 C 0 km/h
1066 09-07-2010 21:10:02 30.4 C 8.37 g/m*3 30.4 C 0 km/h
1067 09-07-2010 21:22:01 30.2 C 8.58 g/m*3 30.2 C 0 km/h
1068 09-07-2010 21:34:01 30 C 8.79 g/m*3 30 C 0 km/h
1069 09-07-2010 21:46:02 29.6 C 8.9 g/m*3 29.6 C 0 km/h
1070 09-07-2010 21:58:02 29.5 C 8.85 g/m*3 29.5 C 0 km/h
1071 09-07-2010 22:10:02 29.2 C 9 g/m*3 29.2 C 0 km/h
1072 09-07-2010 22:22:02 28.9 C 9.43 g/m*3 28.9 C 0 km/h
1073 09-07-2010 22:34:02 28.9 C 9.71 g/m*3 28.9 C 0 km/h
1074 09-07-2010 22:47:03 28.6 C 9.84 g/m*3 28.6 C 0 km/h
1075 09-07-2010 22:59:03 28.3 C 9.4 g/m*3 28.3 C 0 km/h
Sensor: Nr:Datum:Temp:Abs-Feuchte:Windchill:Wind:
Aussen-T/F 1076 09-07-2010 23:11:03 28 C 9.25 g/m*3 28 C 0 km/h
1077 09-07-2010 23:23:04 27.9 C 9.47 g/m*3 27.9 C 0 km/h
1078 09-07-2010 23:35:04 27.8 C 9.68 g/m*3 27.8 C 0 km/h
1079 09-07-2010 23:47:04 27.6 C 9.84 g/m*3 27.6 C 0 km/h
1080 09-07-2010 23:59:04 27.6 C 9.84 g/m*3 27.6 C 0 km/h
1081 10-07-2010 00:11:04 27 C 9.78 g/m*3 27 C 0 km/h
1082 10-07-2010 00:23:04 26.6 C 10.07 g/m*3 26.6 C 0 km/h
1083 10-07-2010 00:35:04 26.3 C 10.15 g/m*3 26.3 C 0 km/h
1084 10-07-2010 00:47:04 25.9 C 10.17 g/m*3 25.9 C 0 km/h
1085 10-07-2010 00:59:04 25.7 C 10.29 g/m*3 25.7 C 0 km/h
1086 10-07-2010 01:11:04 25.3 C 10.3 g/m*3 25.3 C 0 km/h
1087 10-07-2010 01:23:04 25.2 C 10.48 g/m*3 25.2 C 0 km/h
1088 10-07-2010 01:35:04 24.8 C 10.7 g/m*3 24.8 C 0 km/h
1089 10-07-2010 01:47:04 24.8 C 10.7 g/m*3 24.8 C 0 km/h
1090 10-07-2010 01:59:04 24.7 C 10.64 g/m*3 24.7 C 0 km/h
1091 10-07-2010 02:11:04 24.5 C 10.52 g/m*3 24.5 C 0 km/h
1092 10-07-2010 02:23:04 24.5 C 10.74 g/m*3 24.5 C 0 km/h
1093 10-07-2010 02:35:04 24.2 C 10.78 g/m*3 24.2 C 0 km/h
1094 10-07-2010 02:47:04 24.1 C 10.94 g/m*3 24.1 C 0 km/h
1095 10-07-2010 02:59:04 23.7 C 10.91 g/m*3 23.7 C 0 km/h
1096 10-07-2010 03:11:04 23.5 C 11.21 g/m*3 23.5 C 0 km/h
1097 10-07-2010 03:23:04 23.2 C 11.23 g/m*3 23.2 C 0 km/h
1098 10-07-2010 03:35:05 23.1 C 11.58 g/m*3 23.1 C 0 km/h
1099 10-07-2010 03:47:05 22.9 C 11.44 g/m*3 22.9 C 0 km/h
1100 10-07-2010 03:59:05 22.8 C 11.58 g/m*3 22.8 C 0 km/h
Sensor: Nr:Datum:Temp:Abs-Feuchte:Windchill:Wind:
Aussen-T/F 1101 10-07-2010 04:11:05 22.7 C 11.52 g/m*3 22.7 C 0 km/h
1102 10-07-2010 04:23:05 22.5 C 11.39 g/m*3 22.5 C 0 km/h
1103 10-07-2010 04:35:05 22.3 C 11.45 g/m*3 22.3 C 0 km/h
1104 10-07-2010 04:47:05 22.2 C 11.58 g/m*3 22.2 C 0 km/h
1105 10-07-2010 04:59:05 22 C 11.45 g/m*3 22 C 0 km/h
1106 10-07-2010 05:11:05 21.8 C 11.7 g/m*3 21.8 C 0 km/h
1107 10-07-2010 05:23:05 21.8 C 11.7 g/m*3 21.8 C 0 km/h
1108 10-07-2010 05:35:05 21.7 C 11.64 g/m*3 21.7 C 0 km/h
1109 10-07-2010 05:47:05 21.6 C 11.57 g/m*3 21.6 C 0 km/h
1110 10-07-2010 05:59:05 21.3 C 11.74 g/m*3 21.3 C 0 km/h
1111 10-07-2010 06:11:05 21.2 C 11.86 g/m*3 21.2 C 0 km/h
1112 10-07-2010 06:23:05 21.1 C 11.98 g/m*3 21.1 C 0 km/h
1113 10-07-2010 06:35:03 21.3 C 11.93 g/m*3 21.3 C 0 km/h
1114 10-07-2010 06:47:02 21.3 C 11.93 g/m*3 21.3 C 0 km/h
1115 10-07-2010 06:59:02 21.6 C 12.14 g/m*3 21.6 C 0 km/h
1116 10-07-2010 07:11:02 21.6 C 11.95 g/m*3 21.6 C 0 km/h
1117 10-07-2010 07:23:01 21.6 C 12.14 g/m*3 21.6 C 0 km/h
1118 10-07-2010 07:35:01 21.8 C 12.47 g/m*3 21.8 C 0 km/h
1119 10-07-2010 07:47:01 22.1 C 12.3 g/m*3 22.1 C 0 km/h
1120 10-07-2010 07:59:01 22.4 C 12.31 g/m*3 22.4 C 0 km/h
1121 10-07-2010 08:11:01 22.7 C 12.32 g/m*3 22.7 C 0 km/h
1122 10-07-2010 08:23:02 23 C 11.92 g/m*3 23 C 0 km/h
1123 10-07-2010 08:35:01 23.3 C 11.92 g/m*3 23.3 C 0 km/h
1124 10-07-2010 08:47:02 23.7 C 11.98 g/m*3 23.7 C 0 km/h
1125 10-07-2010 08:59:02 24.2 C 11.88 g/m*3 24.2 C 0 km/h
Sensor: Nr:Datum:Temp:Abs-Feuchte:Windchill:Wind:
Aussen-T/F 1126 10-07-2010 09:11:02 24.6 C 11.93 g/m*3 24.6 C 0 km/h
1127 10-07-2010 09:23:02 25.2 C 11.87 g/m*3 25.2 C 0 km/h
1128 10-07-2010 09:35:02 25.9 C 11.62 g/m*3 25.9 C 0 km/h
1129 10-07-2010 09:47:02 26.8 C 11.45 g/m*3 26.8 C 0 km/h
1130 10-07-2010 09:59:02 27.7 C 11.77 g/m*3 27.7 C 0 km/h
1131 10-07-2010 10:11:02 28.1 C 11.48 g/m*3 28.1 C 0 km/h
1132 10-07-2010 10:23:02 28.9 C 12 g/m*3 28.9 C 0 km/h
1133 10-07-2010 10:35:02 29.8 C 11.7 g/m*3 29.8 C 0 km/h
1134 10-07-2010 10:47:02 30 C 11.22 g/m*3 30 C 0 km/h
1135 10-07-2010 10:59:02 30.4 C 11.16 g/m*3 30.4 C 0 km/h
1136 10-07-2010 11:11:02 30.9 C 10.5 g/m*3 30.9 C 0 km/h
1137 10-07-2010 11:23:02 31.2 C 9.7 g/m*3 31.2 C 0 km/h
1138 10-07-2010 11:35:02 31.3 C 8.78 g/m*3 31.3 C 0 km/h
1139 10-07-2010 11:47:02 31.8 C 8.68 g/m*3 31.8 C 0 km/h
1140 10-07-2010 11:59:02 32.1 C 8.48 g/m*3 32.1 C 0 km/h
1141 10-07-2010 12:11:02 32.6 C 8.02 g/m*3 32.6 C 0 km/h
1142 10-07-2010 12:23:02 32.9 C 7.08 g/m*3 32.9 C 0 km/h
1143 10-07-2010 12:35:02 33.5 C 7.31 g/m*3 33.5 C 0 km/h
1144 10-07-2010 12:47:02 34 C 7.5 g/m*3 34 C 0 km/h
1145 10-07-2010 12:59:02 34.1 C 7.54 g/m*3 34.1 C 0 km/h
1146 10-07-2010 13:11:02 34.2 C 7.58 g/m*3 34.2 C 0 km/h
1147 10-07-2010 13:23:02 34.8 C 7.82 g/m*3 34.8 C 0 km/h
1148 10-07-2010 13:35:02 35.1 C 7.95 g/m*3 35.1 C 0 km/h
1149 10-07-2010 13:47:02 35.1 C 7.95 g/m*3 35.1 C 0 km/h
1150 10-07-2010 13:59:02 34.8 C 7.82 g/m*3 34.8 C 0 km/h
Sensor: Nr:Datum:Temp:Abs-Feuchte:Windchill:Wind:
Aussen-T/F 1151 10-07-2010 14:11:02 34.5 C 7.7 g/m*3 34.5 C 0 km/h
1152 10-07-2010 14:23:01 34.6 C 7.74 g/m*3 34.6 C 0 km/h
1153 10-07-2010 14:35:02 34.6 C 7.74 g/m*3 34.6 C 0 km/h
1154 10-07-2010 14:47:01 34.3 C 7.62 g/m*3 34.3 C 0 km/h
1155 10-07-2010 14:59:01 34.2 C 7.58 g/m*3 34.2 C 0 km/h
1156 10-07-2010 15:11:02 34.8 C 7.82 g/m*3 34.8 C 0 km/h
1157 10-07-2010 15:23:02 35.1 C 7.95 g/m*3 35.1 C 0 km/h
1158 10-07-2010 15:35:01 35.2 C 7.99 g/m*3 35.2 C 0 km/h
1159 10-07-2010 15:47:02 35.4 C 8.07 g/m*3 35.4 C 0 km/h
1160 10-07-2010 15:59:02 35.5 C 8.11 g/m*3 35.5 C 0 km/h
1161 10-07-2010 16:11:01 35.4 C 8.07 g/m*3 35.4 C 0 km/h
1162 10-07-2010 16:23:02 35.6 C 8.16 g/m*3 35.6 C 0 km/h
1163 10-07-2010 16:35:01 35.7 C 8.2 g/m*3 35.7 C 0 km/h
1164 10-07-2010 16:47:03 35.7 C 8.2 g/m*3 35.7 C 0 km/h
1165 10-07-2010 16:59:03 35.7 C 8.2 g/m*3 35.7 C 0 km/h
1166 10-07-2010 17:11:02 35.7 C 8.2 g/m*3 35.7 C 0 km/h
1167 10-07-2010 17:23:03 35.9 C 8.28 g/m*3 35.9 C 0 km/h
1168 10-07-2010 17:35:02 35.8 C 8.24 g/m*3 35.8 C 0 km/h
1169 10-07-2010 17:47:03 36 C 8.33 g/m*3 36 C 0 km/h
1170 10-07-2010 17:59:03 35.6 C 8.16 g/m*3 35.6 C 0 km/h
1171 10-07-2010 18:11:02 35.8 C 8.24 g/m*3 35.8 C 0 km/h
1172 10-07-2010 18:23:02 36 C 8.33 g/m*3 36 C 0 km/h
1173 10-07-2010 18:35:02 35.9 C 8.28 g/m*3 35.9 C 0 km/h
1174 10-07-2010 18:47:02 36 C 8.33 g/m*3 36 C 0 km/h
1175 10-07-2010 18:59:02 35.9 C 8.28 g/m*3 35.9 C 0 km/h
Sensor: Nr:Datum:Temp:Abs-Feuchte:Windchill:Wind:
Aussen-T/F 1176 10-07-2010 19:11:01 35.7 C 8.2 g/m*3 35.7 C 0 km/h
1177 10-07-2010 19:23:02 35.6 C 8.16 g/m*3 35.6 C 0 km/h
1178 10-07-2010 19:35:01 35.4 C 8.07 g/m*3 35.4 C 0 km/h
1179 10-07-2010 19:47:02 35.3 C 8.03 g/m*3 35.3 C 0 km/h
1180 10-07-2010 19:59:02 34.9 C 7.87 g/m*3 34.9 C 0 km/h
1181 10-07-2010 20:11:01 34.5 C 7.7 g/m*3 34.5 C 0 km/h
1182 10-07-2010 20:23:01 34 C 7.5 g/m*3 34 C 0 km/h
1183 10-07-2010 20:35:02 33.6 C 8.08 g/m*3 33.6 C 0 km/h
1184 10-07-2010 20:47:02 33.1 C 8.59 g/m*3 33.1 C 0 km/h
1185 10-07-2010 20:59:03 32.7 C 9.11 g/m*3 32.7 C 0 km/h
1186 10-07-2010 21:11:01 32.2 C 9.21 g/m*3 32.2 C 0 km/h
1187 10-07-2010 21:23:02 31.6 C 9.58 g/m*3 31.6 C 0 km/h
1188 10-07-2010 21:35:02 31.2 C 9.38 g/m*3 31.2 C 0 km/h
1189 10-07-2010 21:47:01 30.8 C 9.5 g/m*3 30.8 C 0 km/h
1190 10-07-2010 21:59:01 30.7 C 9.45 g/m*3 30.7 C 0 km/h
1191 10-07-2010 22:11:01 30.5 C 9.97 g/m*3 30.5 C 0 km/h
1192 10-07-2010 22:23:01 30.4 C 9.92 g/m*3 30.4 C 0 km/h
1193 10-07-2010 22:35:02 30.4 C 9.92 g/m*3 30.4 C 0 km/h
1194 10-07-2010 22:47:02 30.5 C 9.97 g/m*3 30.5 C 0 km/h
1195 10-07-2010 22:59:02 30.4 C 9.92 g/m*3 30.4 C 0 km/h
1196 10-07-2010 23:11:02 30.6 C 9.4 g/m*3 30.6 C 0 km/h
1197 10-07-2010 23:23:02 30.2 C 9.81 g/m*3 30.2 C 0 km/h
1198 10-07-2010 23:35:02 30.1 C 10.06 g/m*3 30.1 C 0 km/h
1199 10-07-2010 23:47:02 30.1 C 9.76 g/m*3 30.1 C 0 km/h
1200 10-07-2010 23:59:02 30 C 10.01 g/m*3 30 C 0 km/h
Sensor: Nr:Datum:Temp:Abs-Feuchte:Windchill:Wind:
Aussen-T/F 1201 11-07-2010 00:11:03 29.9 C 9.95 g/m*3 29.9 C 0 km/h
1202 11-07-2010 00:23:02 30 C 9.7 g/m*3 30 C 0 km/h
1203 11-07-2010 00:36:04 29.7 C 9.85 g/m*3 29.7 C 0 km/h
1204 11-07-2010 00:48:04 29.8 C 9.9 g/m*3 29.8 C 0 km/h
1205 11-07-2010 01:00:04 29.8 C 9.9 g/m*3 29.8 C 0 km/h
1206 11-07-2010 01:12:04 29.6 C 9.79 g/m*3 29.6 C 0 km/h
1207 11-07-2010 01:24:04 29.5 C 10.03 g/m*3 29.5 C 0 km/h
1208 11-07-2010 01:36:04 28.3 C 10.23 g/m*3 28.3 C 0 km/h
1209 11-07-2010 01:48:04 25.4 C 14.83 g/m*3 25.4 C 0 km/h
1210 11-07-2010 02:00:04 24 C 16.1 g/m*3 24 C 0 km/h
1211 11-07-2010 02:12:04 24.5 C 15.44 g/m*3 24.5 C 0 km/h
1212 11-07-2010 02:24:04 25 C 14.73 g/m*3 25 C 0 km/h
1213 11-07-2010 02:36:04 23.7 C 16.47 g/m*3 23.7 C 0 km/h
1214 11-07-2010 02:48:04 22.9 C 16.55 g/m*3 22.9 C 0 km/h
1215 11-07-2010 03:00:04 23.2 C 16.42 g/m*3 23.2 C 0 km/h
1216 11-07-2010 03:12:04 23.6 C 16.59 g/m*3 23.6 C 0 km/h
1217 11-07-2010 03:24:04 23.7 C 16.47 g/m*3 23.7 C 0 km/h
1218 11-07-2010 03:36:05 23.3 C 15.89 g/m*3 23.3 C 0 km/h
1219 11-07-2010 03:48:05 23.1 C 15.92 g/m*3 23.1 C 0 km/h
1220 11-07-2010 04:00:05 22.5 C 16.18 g/m*3 22.5 C 0 km/h
1221 11-07-2010 04:12:05 22.1 C 16.4 g/m*3 22.1 C 0 km/h
1222 11-07-2010 04:24:05 21.9 C 16.6 g/m*3 21.9 C 0 km/h
1223 11-07-2010 04:36:05 21.6 C 16.31 g/m*3 21.6 C 0 km/h
1224 11-07-2010 04:48:05 21.8 C 16.69 g/m*3 21.8 C 0 km/h
1225 11-07-2010 05:00:05 21.9 C 16.6 g/m*3 21.9 C 0 km/h
Sensor: Nr:Datum:Temp:Abs-Feuchte:Windchill:Wind:
Aussen-T/F 1226 11-07-2010 05:12:05 22 C 16.11 g/m*3 22 C 0 km/h
1227 11-07-2010 05:24:05 22.2 C 16.3 g/m*3 22.2 C 0 km/h
1228 11-07-2010 05:36:05 21.9 C 16.02 g/m*3 21.9 C 0 km/h
1229 11-07-2010 05:48:05 22 C 16.11 g/m*3 22 C 0 km/h
1230 11-07-2010 06:00:05 21.9 C 16.21 g/m*3 21.9 C 0 km/h
1231 11-07-2010 06:12:05 21.8 C 16.12 g/m*3 21.8 C 0 km/h
1232 11-07-2010 06:24:05 21.8 C 16.12 g/m*3 21.8 C 0 km/h
1233 11-07-2010 06:36:05 21.7 C 16.02 g/m*3 21.7 C 0 km/h
1234 11-07-2010 06:48:05 22 C 15.91 g/m*3 22 C 0 km/h
1235 11-07-2010 07:00:05 22.5 C 15.98 g/m*3 22.5 C 0 km/h
1236 11-07-2010 07:12:05 22.6 C 15.47 g/m*3 22.6 C 0 km/h
1237 11-07-2010 07:24:05 22.8 C 15.65 g/m*3 22.8 C 0 km/h
1238 11-07-2010 07:36:05 22.8 C 15.65 g/m*3 22.8 C 0 km/h
1239 11-07-2010 07:48:06 23.1 C 15.92 g/m*3 23.1 C 0 km/h
1240 11-07-2010 08:00:06 23.5 C 15.65 g/m*3 23.5 C 0 km/h
1241 11-07-2010 08:12:06 24 C 15.45 g/m*3 24 C 0 km/h
1242 11-07-2010 08:24:06 24.5 C 15.44 g/m*3 24.5 C 0 km/h
1243 11-07-2010 08:36:06 24.7 C 15.39 g/m*3 24.7 C 0 km/h
1244 11-07-2010 08:48:02 24.4 C 15.36 g/m*3 24.4 C 0 km/h
1245 11-07-2010 09:00:02 23.8 C 15.06 g/m*3 23.8 C 0 km/h
1246 11-07-2010 09:12:02 23.9 C 15.36 g/m*3 23.9 C 0 km/h
1247 11-07-2010 09:24:03 24.4 C 14.91 g/m*3 24.4 C 0 km/h
1248 11-07-2010 09:36:02 24.7 C 14.49 g/m*3 24.7 C 0 km/h
1249 11-07-2010 09:48:03 25.3 C 14.05 g/m*3 25.3 C 0 km/h
1250 11-07-2010 10:00:03 25.9 C 13.56 g/m*3 25.9 C 0 km/h
Sensor: Nr:Datum:Temp:Abs-Feuchte:Windchill:Wind:
Aussen-T/F 1251 11-07-2010 10:12:02 26.3 C 12.87 g/m*3 26.3 C 0 km/h
1252 11-07-2010 10:24:02 26.9 C 13.05 g/m*3 26.9 C 0 km/h
1253 11-07-2010 10:36:02 27.1 C 12.42 g/m*3 27.1 C 0 km/h
1254 11-07-2010 10:53:34 27.8 C 12.64 g/m*3 27.8 C 0 km/h
1255 11-07-2010 11:05:34 27.8 C 12.64 g/m*3 27.8 C 0 km/h
1256 11-07-2010 11:17:34 28 C 12.24 g/m*3 28 C 0 km/h
1257 11-07-2010 11:29:34 28.4 C 12.51 g/m*3 28.4 C 0 km/h
1258 11-07-2010 11:41:34 29.1 C 12.13 g/m*3 29.1 C 0 km/h
1259 11-07-2010 11:53:35 29.4 C 11.74 g/m*3 29.4 C 0 km/h
1260 11-07-2010 12:05:35 30.3 C 11.4 g/m*3 30.3 C 0 km/h
1261 11-07-2010 12:17:35 30.3 C 10.79 g/m*3 30.3 C 0 km/h
1262 11-07-2010 12:29:35 30.8 C 10.76 g/m*3 30.8 C 0 km/h
1263 11-07-2010 12:41:35 30.7 C 10.39 g/m*3 30.7 C 0 km/h
1264 11-07-2010 12:53:35 30.1 C 10.67 g/m*3 30.1 C 0 km/h
1265 11-07-2010 13:05:35 31.5 C 9.86 g/m*3 31.5 C 0 km/h
1266 11-07-2010 13:17:35 32.1 C 8.82 g/m*3 32.1 C 0 km/h
1267 11-07-2010 13:29:35 30.7 C 9.76 g/m*3 30.7 C 0 km/h
1268 11-07-2010 13:41:35 31.7 C 8.97 g/m*3 31.7 C 0 km/h
1269 11-07-2010 13:53:35 32.3 C 8.23 g/m*3 32.3 C 0 km/h
1270 11-07-2010 14:05:35 32.1 C 8.48 g/m*3 32.1 C 0 km/h
1271 11-07-2010 14:17:35 32.1 C 8.48 g/m*3 32.1 C 0 km/h
1272 11-07-2010 14:29:35 31.8 C 8.35 g/m*3 31.8 C 0 km/h
1273 11-07-2010 14:41:35 32 C 8.44 g/m*3 32 C 0 km/h
1274 11-07-2010 14:53:35 32.3 C 7.89 g/m*3 32.3 C 0 km/h
1275 11-07-2010 15:05:35 32.3 C 7.55 g/m*3 32.3 C 0 km/h
Sensor: Nr:Datum:Temp:Abs-Feuchte:Windchill:Wind:
Aussen-T/F 1276 11-07-2010 15:17:35 32.8 C 7.75 g/m*3 32.8 C 0 km/h
1277 11-07-2010 15:29:35 33 C 7.48 g/m*3 33 C 0 km/h
1278 11-07-2010 15:41:35 33 C 7.48 g/m*3 33 C 0 km/h
1279 11-07-2010 15:53:35 33.1 C 7.52 g/m*3 33.1 C 0 km/h
1280 11-07-2010 16:05:36 33.7 C 7.39 g/m*3 33.7 C 0 km/h
1281 11-07-2010 16:17:36 33.7 C 7.39 g/m*3 33.7 C 0 km/h
1282 11-07-2010 16:29:36 33.7 C 7.39 g/m*3 33.7 C 0 km/h
1283 11-07-2010 16:41:36 33.8 C 7.43 g/m*3 33.8 C 0 km/h
1284 11-07-2010 16:53:36 33.6 C 7.35 g/m*3 33.6 C 0 km/h
1285 11-07-2010 17:05:36 34 C 7.5 g/m*3 34 C 0 km/h
1286 11-07-2010 17:17:36 34 C 7.5 g/m*3 34 C 0 km/h
1287 11-07-2010 17:29:36 34.5 C 7.7 g/m*3 34.5 C 0 km/h
1288 11-07-2010 17:41:36 34.6 C 7.74 g/m*3 34.6 C 0 km/h
1289 11-07-2010 17:53:36 34.2 C 7.58 g/m*3 34.2 C 0 km/h
1290 11-07-2010 18:05:36 34.1 C 7.54 g/m*3 34.1 C 0 km/h
1291 11-07-2010 18:17:36 34.1 C 7.54 g/m*3 34.1 C 0 km/h
1292 11-07-2010 18:29:36 34 C 7.5 g/m*3 34 C 0 km/h
1293 11-07-2010 18:41:36 34.2 C 7.58 g/m*3 34.2 C 0 km/h
1294 11-07-2010 18:53:36 34.2 C 7.58 g/m*3 34.2 C 0 km/h
1295 11-07-2010 19:05:36 34.3 C 7.62 g/m*3 34.3 C 0 km/h
1296 11-07-2010 19:17:36 34.2 C 7.58 g/m*3 34.2 C 0 km/h
1297 11-07-2010 19:29:36 33.8 C 7.43 g/m*3 33.8 C 0 km/h
1298 11-07-2010 19:41:36 33.8 C 7.43 g/m*3 33.8 C 0 km/h
1299 11-07-2010 19:53:36 33.5 C 7.31 g/m*3 33.5 C 0 km/h
1300 11-07-2010 20:05:37 33.7 C 7.39 g/m*3 33.7 C 0 km/h
Sensor: Nr:Datum:Temp:Abs-Feuchte:Windchill:Wind:
Aussen-T/F 1301 11-07-2010 20:17:37 33.7 C 7.39 g/m*3 33.7 C 0 km/h
1302 11-07-2010 20:29:37 33.4 C 7.63 g/m*3 33.4 C 0 km/h
1303 11-07-2010 20:41:37 33.1 C 8.23 g/m*3 33.1 C 0 km/h
1304 11-07-2010 20:53:37 32.6 C 8.71 g/m*3 32.6 C 0 km/h
1305 11-07-2010 21:05:37 31.9 C 9.4 g/m*3 31.9 C 0 km/h
1306 11-07-2010 21:17:37 31.2 C 9.7 g/m*3 31.2 C 0 km/h
1307 11-07-2010 21:29:37 30.7 C 10.08 g/m*3 30.7 C 0 km/h
1308 11-07-2010 21:41:37 30.4 C 10.54 g/m*3 30.4 C 0 km/h
1309 11-07-2010 21:53:37 30.2 C 10.73 g/m*3 30.2 C 0 km/h
1310 11-07-2010 22:05:37 30.1 C 10.67 g/m*3 30.1 C 0 km/h
1311 11-07-2010 22:17:37 30 C 10.92 g/m*3 30 C 0 km/h
1312 11-07-2010 22:29:37 29.9 C 10.86 g/m*3 29.9 C 0 km/h
1313 11-07-2010 22:41:37 29.7 C 11.04 g/m*3 29.7 C 0 km/h
1314 11-07-2010 22:53:37 29.4 C 10.86 g/m*3 29.4 C 0 km/h
1315 11-07-2010 23:05:37 29.1 C 10.97 g/m*3 29.1 C 0 km/h
1316 11-07-2010 23:17:37 28.6 C 11.24 g/m*3 28.6 C 0 km/h
1317 11-07-2010 23:29:37 28.4 C 11.12 g/m*3 28.4 C 0 km/h
1318 11-07-2010 23:41:37 28.5 C 11.18 g/m*3 28.5 C 0 km/h
1319 11-07-2010 23:53:37 28.1 C 11.21 g/m*3 28.1 C 0 km/h
1320 12-07-2010 00:05:37 27.8 C 11.57 g/m*3 27.8 C 0 km/h
1321 12-07-2010 00:17:38 27.4 C 11.84 g/m*3 27.4 C 0 km/h
1322 12-07-2010 00:29:38 27.2 C 11.71 g/m*3 27.2 C 0 km/h
1323 12-07-2010 00:41:38 27 C 11.84 g/m*3 27 C 0 km/h
1324 12-07-2010 00:53:38 26.8 C 12.22 g/m*3 26.8 C 0 km/h
1325 12-07-2010 01:05:38 26.5 C 12.27 g/m*3 26.5 C 0 km/h
Sensor: Nr:Datum:Temp:Abs-Feuchte:Windchill:Wind:
Aussen-T/F 1326 12-07-2010 01:17:38 26.2 C 12.06 g/m*3 26.2 C 0 km/h
1327 12-07-2010 01:29:38 26 C 12.17 g/m*3 26 C 0 km/h
1328 12-07-2010 01:41:38 25.7 C 12.69 g/m*3 25.7 C 0 km/h
1329 12-07-2010 01:53:38 25.7 C 12.45 g/m*3 25.7 C 0 km/h
1330 12-07-2010 02:05:38 25.6 C 12.38 g/m*3 25.6 C 0 km/h
1331 12-07-2010 02:17:38 25.3 C 12.41 g/m*3 25.3 C 0 km/h
1332 12-07-2010 02:29:38 25.2 C 12.57 g/m*3 25.2 C 0 km/h
1333 12-07-2010 02:41:38 24.9 C 13.05 g/m*3 24.9 C 0 km/h
1334 12-07-2010 02:53:38 24.6 C 13.05 g/m*3 24.6 C 0 km/h
1335 12-07-2010 03:05:38 24.6 C 13.05 g/m*3 24.6 C 0 km/h
1336 12-07-2010 03:17:38 24.2 C 13.2 g/m*3 24.2 C 0 km/h
1337 12-07-2010 03:29:38 24 C 13.05 g/m*3 24 C 0 km/h
1338 12-07-2010 03:41:38 24.1 C 13.13 g/m*3 24.1 C 0 km/h
1339 12-07-2010 03:53:38 24 C 13.05 g/m*3 24 C 0 km/h
1340 12-07-2010 04:05:38 23.7 C 13.05 g/m*3 23.7 C 0 km/h
1341 12-07-2010 04:17:39 23.4 C 13.04 g/m*3 23.4 C 0 km/h
1342 12-07-2010 04:29:39 23.3 C 13.17 g/m*3 23.3 C 0 km/h
1343 12-07-2010 04:41:39 23.2 C 12.89 g/m*3 23.2 C 0 km/h
1344 12-07-2010 04:53:39 23 C 13.15 g/m*3 23 C 0 km/h
1345 12-07-2010 05:05:39 22.9 C 13.28 g/m*3 22.9 C 0 km/h
1346 12-07-2010 05:17:39 22.6 C 13.26 g/m*3 22.6 C 0 km/h
1347 12-07-2010 05:29:39 22.7 C 13.13 g/m*3 22.7 C 0 km/h
1348 12-07-2010 05:41:39 22.6 C 13.06 g/m*3 22.6 C 0 km/h
1349 12-07-2010 05:53:39 22.5 C 13.18 g/m*3 22.5 C 0 km/h
1350 12-07-2010 06:05:39 22.4 C 13.11 g/m*3 22.4 C 0 km/h
Sensor: Nr:Datum:Temp:Abs-Feuchte:Windchill:Wind:
Aussen-T/F 1351 12-07-2010 06:17:39 22.4 C 13.5 g/m*3 22.4 C 0 km/h
1352 12-07-2010 06:29:39 22.4 C 13.31 g/m*3 22.4 C 0 km/h
1353 12-07-2010 06:41:39 22.7 C 13.54 g/m*3 22.7 C 0 km/h
1354 12-07-2010 06:53:39 22.8 C 13.41 g/m*3 22.8 C 0 km/h
1355 12-07-2010 07:05:39 22.8 C 13.61 g/m*3 22.8 C 0 km/h
1356 12-07-2010 07:17:39 22.7 C 13.54 g/m*3 22.7 C 0 km/h
1357 12-07-2010 07:29:39 22.9 C 13.69 g/m*3 22.9 C 0 km/h
1358 12-07-2010 07:41:39 23 C 13.57 g/m*3 23 C 0 km/h
1359 12-07-2010 07:53:39 22.9 C 13.69 g/m*3 22.9 C 0 km/h
1360 12-07-2010 08:05:39 23.1 C 13.64 g/m*3 23.1 C 0 km/h
1361 12-07-2010 08:17:39 23.4 C 13.46 g/m*3 23.4 C 0 km/h
1362 12-07-2010 08:29:40 23.7 C 13.48 g/m*3 23.7 C 0 km/h
1363 12-07-2010 08:41:40 24.3 C 13.72 g/m*3 24.3 C 0 km/h
1364 12-07-2010 08:53:40 24.8 C 13.88 g/m*3 24.8 C 0 km/h
1365 12-07-2010 09:05:40 25.4 C 13.65 g/m*3 25.4 C 0 km/h
1366 12-07-2010 09:17:40 26.1 C 13.71 g/m*3 26.1 C 0 km/h
1367 12-07-2010 09:29:40 26.7 C 13.67 g/m*3 26.7 C 0 km/h
1368 12-07-2010 09:41:40 27.3 C 13.34 g/m*3 27.3 C 0 km/h
1369 12-07-2010 09:53:40 28.1 C 13.4 g/m*3 28.1 C 0 km/h
1370 12-07-2010 10:05:40 28.9 C 13.43 g/m*3 28.9 C 0 km/h
1371 12-07-2010 10:17:40 29.7 C 12.83 g/m*3 29.7 C 0 km/h
1372 12-07-2010 10:29:40 30 C 12.74 g/m*3 30 C 0 km/h
1373 12-07-2010 10:41:40 30.3 C 12.02 g/m*3 30.3 C 0 km/h
1374 12-07-2010 10:53:40 30.9 C 11.46 g/m*3 30.9 C 0 km/h
1375 12-07-2010 11:05:40 31.4 C 11.12 g/m*3 31.4 C 0 km/h
Sensor: Nr:Datum:Temp:Abs-Feuchte:Windchill:Wind:
Aussen-T/F 1376 12-07-2010 11:17:40 31.5 C 10.52 g/m*3 31.5 C 0 km/h
1377 12-07-2010 11:29:40 31.9 C 10.41 g/m*3 31.9 C 0 km/h
1378 12-07-2010 11:41:40 32 C 8.78 g/m*3 32 C 0 km/h
1379 12-07-2010 11:53:40 32.1 C 8.82 g/m*3 32.1 C 0 km/h
1380 12-07-2010 12:05:40 32.3 C 8.58 g/m*3 32.3 C 0 km/h
1381 12-07-2010 12:17:40 32.4 C 8.62 g/m*3 32.4 C 0 km/h
1382 12-07-2010 12:29:41 32.8 C 8.45 g/m*3 32.8 C 0 km/h
1383 12-07-2010 12:41:41 31.8 C 7.35 g/m*3 31.8 C 0 km/h
1384 12-07-2010 12:53:41 25.9 C 7.51 g/m*3 25.9 C 0 km/h
1385 12-07-2010 13:05:41 25.1 C 14.58 g/m*3 25.1 C 0 km/h
1386 12-07-2010 13:17:41 27.9 C 11.09 g/m*3 27.9 C 0 km/h
1387 12-07-2010 13:29:41 28.3 C 11.06 g/m*3 28.3 C 0 km/h
1388 12-07-2010 13:41:41 29.2 C 11.91 g/m*3 29.2 C 0 km/h
1389 12-07-2010 13:53:41 30.1 C 9.15 g/m*3 30.1 C 0 km/h
1390 12-07-2010 14:05:41 30.3 C 9.55 g/m*3 30.3 C 0 km/h
1391 12-07-2010 14:17:41 30.5 C 10.59 g/m*3 30.5 C 0 km/h
1392 12-07-2010 14:29:41 30.7 C 10.08 g/m*3 30.7 C 0 km/h
1393 12-07-2010 14:41:41 31 C 8.32 g/m*3 31 C 0 km/h
1394 12-07-2010 14:53:41 31 C 8.64 g/m*3 31 C 0 km/h
1395 12-07-2010 15:05:41 31.1 C 9.65 g/m*3 31.1 C 0 km/h
1396 12-07-2010 15:17:41 31.5 C 8.55 g/m*3 31.5 C 0 km/h
1397 12-07-2010 15:29:41 32 C 7.43 g/m*3 32 C 0 km/h
1398 12-07-2010 15:41:41 31.8 C 7.01 g/m*3 31.8 C 0 km/h
1399 12-07-2010 15:53:41 31.7 C 6.98 g/m*3 31.7 C 0 km/h
1400 12-07-2010 16:05:41 32.3 C 6.86 g/m*3 32.3 C 0 km/h
Sensor: Nr:Datum:Temp:Abs-Feuchte:Windchill:Wind:
Aussen-T/F 1401 12-07-2010 16:17:41 32 C 6.75 g/m*3 32 C 0 km/h
1402 12-07-2010 16:29:42 31.9 C 6.72 g/m*3 31.9 C 0 km/h
1403 12-07-2010 16:41:42 31.8 C 6.68 g/m*3 31.8 C 0 km/h
1404 12-07-2010 16:53:42 31.5 C 6.57 g/m*3 31.5 C 0 km/h
1405 12-07-2010 17:05:42 31.4 C 6.54 g/m*3 31.4 C 0 km/h
1406 12-07-2010 17:17:42 31.7 C 6.64 g/m*3 31.7 C 0 km/h
1407 12-07-2010 17:29:42 32 C 6.75 g/m*3 32 C 0 km/h
1408 12-07-2010 17:41:42 31.6 C 6.61 g/m*3 31.6 C 0 km/h
1409 12-07-2010 17:53:42 31 C 6.4 g/m*3 31 C 0 km/h
1410 12-07-2010 18:05:42 30.6 C 6.58 g/m*3 30.6 C 0 km/h
1411 12-07-2010 18:17:42 30.3 C 7.4 g/m*3 30.3 C 0 km/h
1412 12-07-2010 18:29:42 30 C 7.58 g/m*3 30 C 0 km/h
1413 12-07-2010 18:41:42 30 C 7.58 g/m*3 30 C 0 km/h
1414 12-07-2010 18:53:42 30 C 7.88 g/m*3 30 C 0 km/h
1415 12-07-2010 19:05:42 29.5 C 7.67 g/m*3 29.5 C 0 km/h
1416 12-07-2010 19:17:42 29 C 7.47 g/m*3 29 C 0 km/h
1417 12-07-2010 19:29:42 28.6 C 7.87 g/m*3 28.6 C 0 km/h
1418 12-07-2010 19:41:42 28.2 C 7.7 g/m*3 28.2 C 0 km/h
1419 12-07-2010 19:53:42 28.1 C 7.38 g/m*3 28.1 C 0 km/h
1420 12-07-2010 20:05:42 27.8 C 7.53 g/m*3 27.8 C 0 km/h
1421 12-07-2010 20:17:42 27.6 C 7.71 g/m*3 27.6 C 0 km/h
1422 12-07-2010 20:29:42 27 C 7.72 g/m*3 27 C 0 km/h
1423 12-07-2010 20:41:43 26.4 C 7.97 g/m*3 26.4 C 0 km/h
1424 12-07-2010 20:53:43 26 C 8.28 g/m*3 26 C 0 km/h
1425 12-07-2010 21:05:43 26 C 8.52 g/m*3 26 C 0 km/h
Sensor: Nr:Datum:Temp:Abs-Feuchte:Windchill:Wind:
Aussen-T/F 1426 12-07-2010 21:17:43 25.8 C 8.67 g/m*3 25.8 C 0 km/h
1427 12-07-2010 21:29:43 25.7 C 8.86 g/m*3 25.7 C 0 km/h
1428 12-07-2010 21:41:43 25.7 C 9.34 g/m*3 25.7 C 0 km/h
1429 12-07-2010 21:53:43 25.4 C 9.42 g/m*3 25.4 C 0 km/h
1430 12-07-2010 22:05:43 24.9 C 9.61 g/m*3 24.9 C 0 km/h
1431 12-07-2010 22:17:43 24.9 C 9.16 g/m*3 24.9 C 0 km/h
1432 12-07-2010 22:29:43 24.2 C 9.02 g/m*3 24.2 C 0 km/h
1433 12-07-2010 22:41:43 24.6 C 9.23 g/m*3 24.6 C 0 km/h
1434 12-07-2010 22:53:43 24.5 C 9.18 g/m*3 24.5 C 0 km/h
1435 12-07-2010 23:05:43 24.3 C 9.29 g/m*3 24.3 C 0 km/h
1436 12-07-2010 23:17:43 24 C 9.57 g/m*3 24 C 0 km/h
1437 12-07-2010 23:29:43 23.4 C 9.67 g/m*3 23.4 C 0 km/h
1438 12-07-2010 23:41:43 23 C 9.87 g/m*3 23 C 0 km/h
1439 12-07-2010 23:53:43 22.7 C 10.1 g/m*3 22.7 C 0 km/h
1440 13-07-2010 00:05:43 22.6 C 10.25 g/m*3 22.6 C 0 km/h
1441 13-07-2010 00:17:43 22.5 C 10.39 g/m*3 22.5 C 0 km/h
1442 13-07-2010 00:29:43 22.3 C 10.27 g/m*3 22.3 C 0 km/h
1443 13-07-2010 00:41:44 22.1 C 10.35 g/m*3 22.1 C 0 km/h
1444 13-07-2010 00:53:44 22 C 10.48 g/m*3 22 C 0 km/h
1445 13-07-2010 01:05:44 21.6 C 10.62 g/m*3 21.6 C 0 km/h
1446 13-07-2010 01:17:44 21.5 C 10.56 g/m*3 21.5 C 0 km/h
1447 13-07-2010 01:29:44 21.4 C 10.69 g/m*3 21.4 C 0 km/h
1448 13-07-2010 01:41:44 21.3 C 10.81 g/m*3 21.3 C 0 km/h
1449 13-07-2010 01:53:44 21.3 C 10.81 g/m*3 21.3 C 0 km/h
1450 13-07-2010 02:05:44 21 C 10.62 g/m*3 21 C 0 km/h
Sensor: Nr:Datum:Temp:Abs-Feuchte:Windchill:Wind:
Aussen-T/F 1451 13-07-2010 02:17:44 20.8 C 10.86 g/m*3 20.8 C 0 km/h
1452 13-07-2010 02:29:44 20.7 C 10.98 g/m*3 20.7 C 0 km/h
1453 13-07-2010 02:41:44 20.5 C 11.03 g/m*3 20.5 C 0 km/h
1454 13-07-2010 02:53:44 20.3 C 11.08 g/m*3 20.3 C 0 km/h
1455 13-07-2010 03:05:44 20.2 C 11.02 g/m*3 20.2 C 0 km/h
1456 13-07-2010 03:17:44 20 C 11.06 g/m*3 20 C 0 km/h
1457 13-07-2010 03:29:44 19.8 C 11.27 g/m*3 19.8 C 0 km/h
1458 13-07-2010 03:41:44 19.7 C 11.38 g/m*3 19.7 C 0 km/h
1459 13-07-2010 03:53:44 19.7 C 11.38 g/m*3 19.7 C 0 km/h
1460 13-07-2010 04:05:44 19.8 C 11.44 g/m*3 19.8 C 0 km/h
1461 13-07-2010 04:17:44 19.8 C 11.44 g/m*3 19.8 C 0 km/h
1462 13-07-2010 04:29:44 19.7 C 11.38 g/m*3 19.7 C 0 km/h
1463 13-07-2010 04:41:44 19.7 C 11.89 g/m*3 19.7 C 0 km/h
1464 13-07-2010 04:53:45 19.1 C 12.13 g/m*3 19.1 C 0 km/h
1465 13-07-2010 05:05:45 18.9 C 12.31 g/m*3 18.9 C 0 km/h
1466 13-07-2010 05:17:45 18.7 C 12.33 g/m*3 18.7 C 0 km/h
1467 13-07-2010 05:29:45 18.7 C 12.33 g/m*3 18.7 C 0 km/h
1468 13-07-2010 05:41:45 18.7 C 12.17 g/m*3 18.7 C 0 km/h
1469 13-07-2010 05:53:45 18.6 C 12.1 g/m*3 18.6 C 0 km/h
1470 13-07-2010 06:05:45 18.7 C 12.17 g/m*3 18.7 C 0 km/h
1471 13-07-2010 06:17:45 18.8 C 12.08 g/m*3 18.8 C 0 km/h
1472 13-07-2010 06:29:45 18.8 C 12.08 g/m*3 18.8 C 0 km/h
1473 13-07-2010 06:41:45 18.8 C 12.08 g/m*3 18.8 C 0 km/h
1474 13-07-2010 06:53:45 18.9 C 12.15 g/m*3 18.9 C 0 km/h
1475 13-07-2010 07:05:45 19.2 C 12.04 g/m*3 19.2 C 0 km/h
Sensor: Nr:Datum:Temp:Abs-Feuchte:Windchill:Wind:
Aussen-T/F 1476 13-07-2010 07:17:45 19.5 C 12.08 g/m*3 19.5 C 0 km/h
1477 13-07-2010 07:29:45 19.7 C 12.06 g/m*3 19.7 C 0 km/h
1478 13-07-2010 07:41:45 19.7 C 12.06 g/m*3 19.7 C 0 km/h
1479 13-07-2010 07:53:45 20 C 11.92 g/m*3 20 C 0 km/h
1480 13-07-2010 08:05:45 20.4 C 12.03 g/m*3 20.4 C 0 km/h
1481 13-07-2010 08:17:45 20.5 C 12.1 g/m*3 20.5 C 0 km/h
1482 13-07-2010 08:29:45 21 C 12.09 g/m*3 21 C 0 km/h
1483 13-07-2010 08:41:45 21.5 C 11.88 g/m*3 21.5 C 0 km/h
1484 13-07-2010 08:53:45 21.2 C 11.68 g/m*3 21.2 C 0 km/h
1485 13-07-2010 09:05:46 21.4 C 12 g/m*3 21.4 C 0 km/h
1486 13-07-2010 09:17:46 21.9 C 12.16 g/m*3 21.9 C 0 km/h
1487 13-07-2010 09:29:46 22.7 C 11.72 g/m*3 22.7 C 0 km/h
1488 13-07-2010 09:41:46 23.3 C 11.5 g/m*3 23.3 C 0 km/h
1489 13-07-2010 09:53:46 23.9 C 11.47 g/m*3 23.9 C 0 km/h
1490 13-07-2010 10:05:46 24.4 C 11.57 g/m*3 24.4 C 0 km/h
1491 13-07-2010 10:17:46 24.8 C 11.15 g/m*3 24.8 C 0 km/h
1492 13-07-2010 10:29:46 24.2 C 11 g/m*3 24.2 C 0 km/h
1493 13-07-2010 10:41:46 24.5 C 10.97 g/m*3 24.5 C 0 km/h
1494 13-07-2010 10:53:46 25.1 C 10.65 g/m*3 25.1 C 0 km/h
1495 13-07-2010 11:05:46 25.4 C 10.59 g/m*3 25.4 C 0 km/h
1496 13-07-2010 11:17:46 25.7 C 10.29 g/m*3 25.7 C 0 km/h
1497 13-07-2010 11:29:46 25.4 C 10.12 g/m*3 25.4 C 0 km/h
1498 13-07-2010 11:41:46 25.7 C 10.29 g/m*3 25.7 C 0 km/h
1499 13-07-2010 11:53:46 28.3 C 9.95 g/m*3 28.3 C 0 km/h
1500 13-07-2010 12:05:46 29.5 C 8.85 g/m*3 29.5 C 0 km/h
Sensor: Nr:Datum:Temp:Abs-Feuchte:Windchill:Wind:
Aussen-T/F 1501 13-07-2010 12:17:46 30 C 9.1 g/m*3 30 C 0 km/h
1502 13-07-2010 12:29:46 29.4 C 8.51 g/m*3 29.4 C 0 km/h
1503 13-07-2010 12:41:46 28.8 C 8.52 g/m*3 28.8 C 0 km/h
1504 13-07-2010 12:53:46 29.5 C 7.97 g/m*3 29.5 C 0 km/h
1505 13-07-2010 13:05:46 29.1 C 7.8 g/m*3 29.1 C 0 km/h
1506 13-07-2010 13:17:47 28.5 C 8.66 g/m*3 28.5 C 0 km/h
1507 13-07-2010 13:29:47 28.9 C 8 g/m*3 28.9 C 0 km/h
1508 13-07-2010 13:41:47 29.7 C 7.76 g/m*3 29.7 C 0 km/h
1509 13-07-2010 13:53:47 30.4 C 7.75 g/m*3 30.4 C 0 km/h
1510 13-07-2010 14:05:47 29.4 C 8.22 g/m*3 29.4 C 0 km/h
1511 13-07-2010 14:17:47 28.7 C 8.76 g/m*3 28.7 C 0 km/h
1512 13-07-2010 14:29:47 28.1 C 8.48 g/m*3 28.1 C 0 km/h
1513 13-07-2010 14:41:47 29 C 8.62 g/m*3 29 C 0 km/h
1514 13-07-2010 14:53:47 30 C 7.58 g/m*3 30 C 0 km/h
1515 13-07-2010 15:05:47 30.4 C 7.75 g/m*3 30.4 C 0 km/h
1516 13-07-2010 15:17:47 31.1 C 7.72 g/m*3 31.1 C 0 km/h
1517 13-07-2010 15:29:47 30.6 C 6.89 g/m*3 30.6 C 0 km/h
1518 13-07-2010 15:41:47 30.5 C 7.17 g/m*3 30.5 C 0 km/h
1519 13-07-2010 15:53:47 31 C 7.04 g/m*3 31 C 0 km/h
1520 13-07-2010 16:05:47 31.2 C 6.47 g/m*3 31.2 C 0 km/h
1521 13-07-2010 16:17:47 31 C 6.72 g/m*3 31 C 0 km/h
1522 13-07-2010 16:29:47 30.8 C 7.28 g/m*3 30.8 C 0 km/h
1523 13-07-2010 16:41:47 30.8 C 7.28 g/m*3 30.8 C 0 km/h
1524 13-07-2010 16:53:47 31.5 C 6.57 g/m*3 31.5 C 0 km/h
1525 13-07-2010 17:05:47 31.8 C 6.68 g/m*3 31.8 C 0 km/h
Sensor: Nr:Datum:Temp:Abs-Feuchte:Windchill:Wind:
Aussen-T/F 1526 13-07-2010 17:17:47 31.5 C 6.57 g/m*3 31.5 C 0 km/h
1527 13-07-2010 17:29:48 31.8 C 6.68 g/m*3 31.8 C 0 km/h
1528 13-07-2010 17:41:48 31.8 C 6.68 g/m*3 31.8 C 0 km/h
1529 13-07-2010 17:53:48 31.8 C 6.68 g/m*3 31.8 C 0 km/h
1530 13-07-2010 18:05:48 32.1 C 6.79 g/m*3 32.1 C 0 km/h
1531 13-07-2010 18:17:48 31.8 C 6.68 g/m*3 31.8 C 0 km/h
1532 13-07-2010 18:29:48 31.7 C 6.64 g/m*3 31.7 C 0 km/h
1533 13-07-2010 18:41:48 32.1 C 6.79 g/m*3 32.1 C 0 km/h
1534 13-07-2010 18:53:48 31.6 C 6.61 g/m*3 31.6 C 0 km/h
1535 13-07-2010 19:05:48 31.4 C 6.54 g/m*3 31.4 C 0 km/h
1536 13-07-2010 19:17:48 31.4 C 6.54 g/m*3 31.4 C 0 km/h
1537 13-07-2010 19:29:48 31.4 C 6.54 g/m*3 31.4 C 0 km/h
1538 13-07-2010 19:41:48 31.4 C 6.54 g/m*3 31.4 C 0 km/h
1539 13-07-2010 19:53:48 31.2 C 6.47 g/m*3 31.2 C 0 km/h
1540 13-07-2010 20:05:48 31.4 C 6.54 g/m*3 31.4 C 0 km/h
1541 13-07-2010 20:17:48 31.4 C 6.54 g/m*3 31.4 C 0 km/h
1542 13-07-2010 20:29:48 31.2 C 6.79 g/m*3 31.2 C 0 km/h
1543 13-07-2010 20:41:48 31 C 6.72 g/m*3 31 C 0 km/h
1544 13-07-2010 20:53:48 30.6 C 7.2 g/m*3 30.6 C 0 km/h
1545 13-07-2010 21:05:48 29.8 C 7.8 g/m*3 29.8 C 0 km/h
1546 13-07-2010 21:17:48 28.6 C 7.87 g/m*3 28.6 C 0 km/h
1547 13-07-2010 21:29:48 27.6 C 7.98 g/m*3 27.6 C 0 km/h
1548 13-07-2010 21:41:49 26.8 C 8.14 g/m*3 26.8 C 0 km/h
1549 13-07-2010 21:53:49 26.4 C 8.21 g/m*3 26.4 C 0 km/h
1550 13-07-2010 22:05:49 25.9 C 8.47 g/m*3 25.9 C 0 km/h
Sensor: Nr:Datum:Temp:Abs-Feuchte:Windchill:Wind:
Aussen-T/F 1551 13-07-2010 22:17:49 25.5 C 8.52 g/m*3 25.5 C 0 km/h
1552 13-07-2010 22:29:49 25.4 C 8.48 g/m*3 25.4 C 0 km/h
1553 13-07-2010 22:41:49 25.4 C 8.71 g/m*3 25.4 C 0 km/h
1554 13-07-2010 22:53:49 25.1 C 8.8 g/m*3 25.1 C 0 km/h
1555 13-07-2010 23:05:49 24.7 C 9.05 g/m*3 24.7 C 0 km/h
1556 13-07-2010 23:17:49 24.6 C 9 g/m*3 24.6 C 0 km/h
1557 13-07-2010 23:29:49 24.4 C 9.12 g/m*3 24.4 C 0 km/h
1558 13-07-2010 23:41:49 24.1 C 9.19 g/m*3 24.1 C 0 km/h
1559 13-07-2010 23:53:49 24.3 C 9.29 g/m*3 24.3 C 0 km/h
1560 14-07-2010 00:05:49 24.1 C 9.19 g/m*3 24.1 C 0 km/h
1561 14-07-2010 00:17:49 23.8 C 9.68 g/m*3 23.8 C 0 km/h
1562 14-07-2010 00:29:49 23.6 C 9.57 g/m*3 23.6 C 0 km/h
1563 14-07-2010 00:41:49 23.4 C 9.67 g/m*3 23.4 C 0 km/h
1564 14-07-2010 00:53:49 23.5 C 9.94 g/m*3 23.5 C 0 km/h
1565 14-07-2010 01:05:49 23.6 C 10 g/m*3 23.6 C 0 km/h
1566 14-07-2010 01:17:49 23.6 C 10 g/m*3 23.6 C 0 km/h
1567 14-07-2010 01:29:49 23.1 C 9.92 g/m*3 23.1 C 0 km/h
1568 14-07-2010 01:41:50 22.9 C 10.01 g/m*3 22.9 C 0 km/h
1569 14-07-2010 01:53:50 22.6 C 10.04 g/m*3 22.6 C 0 km/h
1570 14-07-2010 02:05:50 22.7 C 10.3 g/m*3 22.7 C 0 km/h
1571 14-07-2010 02:17:50 22.7 C 10.1 g/m*3 22.7 C 0 km/h
1572 14-07-2010 02:29:50 22.7 C 10.51 g/m*3 22.7 C 0 km/h
1573 14-07-2010 02:41:50 22.5 C 10.39 g/m*3 22.5 C 0 km/h
1574 14-07-2010 02:53:50 22.1 C 10.35 g/m*3 22.1 C 0 km/h
1575 14-07-2010 03:05:50 22 C 10.29 g/m*3 22 C 0 km/h
Sensor: Nr:Datum:Temp:Abs-Feuchte:Windchill:Wind:
Aussen-T/F 1576 14-07-2010 03:17:50 21.8 C 10.55 g/m*3 21.8 C 0 km/h
1577 14-07-2010 03:29:50 21.5 C 10.75 g/m*3 21.5 C 0 km/h
1578 14-07-2010 03:41:50 21.3 C 10.62 g/m*3 21.3 C 0 km/h
1579 14-07-2010 03:53:50 21.3 C 10.81 g/m*3 21.3 C 0 km/h
1580 14-07-2010 04:05:50 21.2 C 10.93 g/m*3 21.2 C 0 km/h
1581 14-07-2010 04:17:50 20.8 C 11.05 g/m*3 20.8 C 0 km/h
1582 14-07-2010 04:29:50 20.7 C 11.16 g/m*3 20.7 C 0 km/h
1583 14-07-2010 04:41:50 20.5 C 11.03 g/m*3 20.5 C 0 km/h
1584 14-07-2010 04:53:50 20.4 C 10.97 g/m*3 20.4 C 0 km/h
1585 14-07-2010 05:05:50 20.2 C 11.02 g/m*3 20.2 C 0 km/h
1586 14-07-2010 05:17:50 20.1 C 11.13 g/m*3 20.1 C 0 km/h
1587 14-07-2010 05:29:50 20.1 C 11.13 g/m*3 20.1 C 0 km/h
1588 14-07-2010 05:41:50 20.1 C 11.13 g/m*3 20.1 C 0 km/h
1589 14-07-2010 05:53:51 20 C 11.23 g/m*3 20 C 0 km/h
1590 14-07-2010 06:05:51 20 C 11.06 g/m*3 20 C 0 km/h
1591 14-07-2010 06:17:51 20.3 C 11.43 g/m*3 20.3 C 0 km/h
1592 14-07-2010 06:29:51 20.3 C 11.26 g/m*3 20.3 C 0 km/h
1593 14-07-2010 06:41:51 20.5 C 11.39 g/m*3 20.5 C 0 km/h
1594 14-07-2010 06:53:51 20.4 C 11.32 g/m*3 20.4 C 0 km/h
1595 14-07-2010 07:05:51 20.3 C 11.43 g/m*3 20.3 C 0 km/h
1596 14-07-2010 07:17:51 20.3 C 11.43 g/m*3 20.3 C 0 km/h
1597 14-07-2010 07:29:51 20.4 C 11.68 g/m*3 20.4 C 0 km/h
1598 14-07-2010 07:41:51 20.7 C 11.7 g/m*3 20.7 C 0 km/h
1599 14-07-2010 07:53:51 21.2 C 11.68 g/m*3 21.2 C 0 km/h
1600 14-07-2010 08:05:51 21.5 C 11.69 g/m*3 21.5 C 0 km/h
Sensor: Nr:Datum:Temp:Abs-Feuchte:Windchill:Wind:
Aussen-T/F 1601 14-07-2010 08:17:51 21.5 C 11.69 g/m*3 21.5 C 0 km/h
1602 14-07-2010 08:29:51 21.7 C 11.83 g/m*3 21.7 C 0 km/h
1603 14-07-2010 08:41:51 22 C 11.65 g/m*3 22 C 0 km/h
1604 14-07-2010 08:53:51 22.4 C 11.92 g/m*3 22.4 C 0 km/h
1605 14-07-2010 09:05:51 22.9 C 12.06 g/m*3 22.9 C 0 km/h
1606 14-07-2010 09:17:51 24 C 12.18 g/m*3 24 C 0 km/h
1607 14-07-2010 09:29:51 25.2 C 11.64 g/m*3 25.2 C 0 km/h
1608 14-07-2010 09:41:51 25.3 C 11.71 g/m*3 25.3 C 0 km/h
1609 14-07-2010 09:53:52 25.9 C 11.86 g/m*3 25.9 C 0 km/h
1610 14-07-2010 10:05:52 26.5 C 11.51 g/m*3 26.5 C 0 km/h
1611 14-07-2010 10:17:52 27.1 C 10.61 g/m*3 27.1 C 0 km/h
1612 14-07-2010 10:29:52 27.8 C 10.22 g/m*3 27.8 C 0 km/h
1613 14-07-2010 10:41:52 28.7 C 10.17 g/m*3 28.7 C 0 km/h
1614 14-07-2010 10:53:52 29.3 C 9.63 g/m*3 29.3 C 0 km/h
1615 14-07-2010 11:05:52 30 C 9.4 g/m*3 30 C 0 km/h
1616 14-07-2010 11:17:52 30.3 C 9.25 g/m*3 30.3 C 0 km/h
1617 14-07-2010 11:29:52 30.4 C 9.3 g/m*3 30.4 C 0 km/h
1618 14-07-2010 11:41:52 30.5 C 9.03 g/m*3 30.5 C 0 km/h
1619 14-07-2010 11:53:52 30.8 C 9.18 g/m*3 30.8 C 0 km/h
1620 14-07-2010 12:05:52 31.2 C 8.41 g/m*3 31.2 C 0 km/h
1621 14-07-2010 12:17:52 31.5 C 8.22 g/m*3 31.5 C 0 km/h
1622 14-07-2010 12:29:52 31.3 C 8.13 g/m*3 31.3 C 0 km/h
1623 14-07-2010 12:41:52 31.5 C 7.89 g/m*3 31.5 C 0 km/h
1624 14-07-2010 12:53:52 31.7 C 8.31 g/m*3 31.7 C 0 km/h
1625 14-07-2010 13:05:52 31.7 C 7.64 g/m*3 31.7 C 0 km/h
Sensor: Nr:Datum:Temp:Abs-Feuchte:Windchill:Wind:
Aussen-T/F 1626 14-07-2010 13:17:52 32.3 C 7.2 g/m*3 32.3 C 0 km/h
1627 14-07-2010 13:29:52 33.5 C 7.31 g/m*3 33.5 C 0 km/h
1628 14-07-2010 13:41:52 32.6 C 7.32 g/m*3 32.6 C 0 km/h
1629 14-07-2010 13:53:52 32 C 7.43 g/m*3 32 C 0 km/h
1630 14-07-2010 14:05:53 32.5 C 6.93 g/m*3 32.5 C 0 km/h
1631 14-07-2010 14:17:53 33.3 C 7.23 g/m*3 33.3 C 0 km/h
1632 14-07-2010 14:29:53 32.8 C 7.04 g/m*3 32.8 C 0 km/h
1633 14-07-2010 14:41:53 32.8 C 7.04 g/m*3 32.8 C 0 km/h
1634 14-07-2010 14:53:53 33.3 C 7.23 g/m*3 33.3 C 0 km/h
1635 14-07-2010 15:05:53 33 C 7.12 g/m*3 33 C 0 km/h
1636 14-07-2010 15:17:53 32.9 C 7.08 g/m*3 32.9 C 0 km/h
1637 14-07-2010 15:29:53 33.1 C 7.16 g/m*3 33.1 C 0 km/h
1638 14-07-2010 15:41:53 33.5 C 7.31 g/m*3 33.5 C 0 km/h
1639 14-07-2010 15:53:53 33.8 C 7.43 g/m*3 33.8 C 0 km/h
1640 14-07-2010 16:05:53 33.9 C 7.46 g/m*3 33.9 C 0 km/h
1641 14-07-2010 16:17:53 34.1 C 7.54 g/m*3 34.1 C 0 km/h
1642 14-07-2010 16:29:53 34.6 C 7.74 g/m*3 34.6 C 0 km/h
1643 14-07-2010 16:41:53 34.6 C 7.74 g/m*3 34.6 C 0 km/h
1644 14-07-2010 16:53:53 34.8 C 7.82 g/m*3 34.8 C 0 km/h
1645 14-07-2010 17:05:53 34.8 C 7.82 g/m*3 34.8 C 0 km/h
1646 14-07-2010 17:17:53 34.6 C 7.74 g/m*3 34.6 C 0 km/h
1647 14-07-2010 17:29:53 34.6 C 7.74 g/m*3 34.6 C 0 km/h
1648 14-07-2010 17:41:53 34.1 C 7.54 g/m*3 34.1 C 0 km/h
1649 14-07-2010 17:53:53 34.4 C 7.66 g/m*3 34.4 C 0 km/h
1650 14-07-2010 18:05:54 34.4 C 7.66 g/m*3 34.4 C 0 km/h
Sensor: Nr:Datum:Temp:Abs-Feuchte:Windchill:Wind:
Aussen-T/F 1651 14-07-2010 18:17:54 34.8 C 7.82 g/m*3 34.8 C 0 km/h
1652 14-07-2010 18:29:54 35 C 7.91 g/m*3 35 C 0 km/h
1653 14-07-2010 18:41:54 34.8 C 7.82 g/m*3 34.8 C 0 km/h
1654 14-07-2010 18:53:54 34.3 C 7.62 g/m*3 34.3 C 0 km/h
1655 14-07-2010 19:05:54 33.5 C 7.31 g/m*3 33.5 C 0 km/h
1656 14-07-2010 19:17:54 27.6 C 9.31 g/m*3 27.6 C 0 km/h
1657 14-07-2010 19:29:54 24.1 C 14 g/m*3 24.1 C 0 km/h
1658 14-07-2010 19:41:54 22.2 C 15.51 g/m*3 22.2 C 0 km/h
1659 14-07-2010 19:53:54 21.8 C 16.12 g/m*3 21.8 C 0 km/h
1660 14-07-2010 20:05:54 21.8 C 16.12 g/m*3 21.8 C 0 km/h
1661 14-07-2010 20:17:54 22.5 C 17.18 g/m*3 22.5 C 0 km/h
1662 14-07-2010 20:29:54 22.6 C 16.87 g/m*3 22.6 C 0 km/h
1663 14-07-2010 20:41:54 22.5 C 16.38 g/m*3 22.5 C 0 km/h
1664 14-07-2010 20:53:54 22.3 C 15.99 g/m*3 22.3 C 0 km/h
1665 14-07-2010 21:05:54 22 C 15.53 g/m*3 22 C 0 km/h
1666 14-07-2010 21:17:54 22 C 15.53 g/m*3 22 C 0 km/h
1667 14-07-2010 21:29:54 21.8 C 15.35 g/m*3 21.8 C 0 km/h
1668 14-07-2010 21:41:54 21.4 C 15.19 g/m*3 21.4 C 0 km/h
1669 14-07-2010 21:53:54 21.5 C 15.46 g/m*3 21.5 C 0 km/h
1670 14-07-2010 22:05:54 21.6 C 15.36 g/m*3 21.6 C 0 km/h
1671 14-07-2010 22:17:55 21.6 C 14.98 g/m*3 21.6 C 0 km/h
1672 14-07-2010 22:29:55 21.4 C 14.44 g/m*3 21.4 C 0 km/h
1673 14-07-2010 22:41:55 21.5 C 14.33 g/m*3 21.5 C 0 km/h
1674 14-07-2010 22:53:55 21.4 C 14.25 g/m*3 21.4 C 0 km/h
1675 14-07-2010 23:05:55 21.5 C 14.14 g/m*3 21.5 C 0 km/h
Sensor: Nr:Datum:Temp:Abs-Feuchte:Windchill:Wind:
Aussen-T/F 1676 14-07-2010 23:17:55 21.4 C 14.06 g/m*3 21.4 C 0 km/h
1677 14-07-2010 23:29:55 21.4 C 14.06 g/m*3 21.4 C 0 km/h
1678 14-07-2010 23:41:55 21.2 C 13.9 g/m*3 21.2 C 0 km/h
1679 14-07-2010 23:53:55 20.9 C 13.84 g/m*3 20.9 C 0 km/h
1680 15-07-2010 00:05:55 21 C 13.92 g/m*3 21 C 0 km/h
1681 15-07-2010 00:17:55 21 C 13.56 g/m*3 21 C 0 km/h
1682 15-07-2010 00:29:55 21.2 C 13.53 g/m*3 21.2 C 0 km/h
1683 15-07-2010 00:41:55 21.1 C 13.45 g/m*3 21.1 C 0 km/h
1684 15-07-2010 00:53:55 20.9 C 12.75 g/m*3 20.9 C 0 km/h
1685 15-07-2010 01:05:55 20.6 C 12.35 g/m*3 20.6 C 0 km/h
1686 15-07-2010 01:17:55 20.2 C 11.89 g/m*3 20.2 C 0 km/h
1687 15-07-2010 01:29:55 20.1 C 11.65 g/m*3 20.1 C 0 km/h
1688 15-07-2010 01:41:55 20 C 11.41 g/m*3 20 C 0 km/h
1689 15-07-2010 01:53:55 19.9 C 11.51 g/m*3 19.9 C 0 km/h
1690 15-07-2010 02:05:55 19.7 C 11.55 g/m*3 19.7 C 0 km/h
1691 15-07-2010 02:17:55 19.7 C 11.55 g/m*3 19.7 C 0 km/h
1692 15-07-2010 02:29:56 19.5 C 11.58 g/m*3 19.5 C 0 km/h
1693 15-07-2010 02:41:56 19.5 C 11.75 g/m*3 19.5 C 0 km/h
1694 15-07-2010 02:53:56 19.5 C 11.75 g/m*3 19.5 C 0 km/h
1695 15-07-2010 03:05:56 19.4 C 11.35 g/m*3 19.4 C 0 km/h
1696 15-07-2010 03:17:56 19.3 C 10.95 g/m*3 19.3 C 0 km/h
1697 15-07-2010 03:29:56 19.3 C 10.95 g/m*3 19.3 C 0 km/h
1698 15-07-2010 03:41:56 19.3 C 10.95 g/m*3 19.3 C 0 km/h
1699 15-07-2010 03:53:56 19.3 C 11.11 g/m*3 19.3 C 0 km/h
1700 15-07-2010 04:05:56 19.2 C 11.05 g/m*3 19.2 C 0 km/h
Sensor: Nr:Datum:Temp:Abs-Feuchte:Windchill:Wind:
Aussen-T/F 1701 15-07-2010 04:17:56 19.1 C 10.98 g/m*3 19.1 C 0 km/h
1702 15-07-2010 04:29:56 19 C 10.92 g/m*3 19 C 0 km/h
1703 15-07-2010 04:41:56 18.8 C 11.11 g/m*3 18.8 C 0 km/h
1704 15-07-2010 04:53:56 18.6 C 11.14 g/m*3 18.6 C 0 km/h
1705 15-07-2010 05:05:56 18.6 C 11.14 g/m*3 18.6 C 0 km/h
1706 15-07-2010 05:17:56 18.6 C 11.14 g/m*3 18.6 C 0 km/h
1707 15-07-2010 05:29:56 18.7 C 11.21 g/m*3 18.7 C 0 km/h
1708 15-07-2010 05:41:56 18.9 C 11.34 g/m*3 18.9 C 0 km/h
1709 15-07-2010 05:53:56 19 C 11.08 g/m*3 19 C 0 km/h
1710 15-07-2010 06:05:56 19 C 11.08 g/m*3 19 C 0 km/h
1711 15-07-2010 06:17:56 19 C 10.76 g/m*3 19 C 0 km/h
1712 15-07-2010 06:29:56 18.9 C 11.02 g/m*3 18.9 C 0 km/h
1713 15-07-2010 06:41:56 18.8 C 11.11 g/m*3 18.8 C 0 km/h
1714 15-07-2010 06:53:57 18.8 C 10.95 g/m*3 18.8 C 0 km/h
1715 15-07-2010 07:05:57 19.4 C 11.01 g/m*3 19.4 C 0 km/h
1716 15-07-2010 07:17:57 18.7 C 11.53 g/m*3 18.7 C 0 km/h
1717 15-07-2010 07:29:57 18.4 C 12.11 g/m*3 18.4 C 0 km/h
1718 15-07-2010 07:41:57 18.1 C 12.36 g/m*3 18.1 C 0 km/h
1719 15-07-2010 07:53:57 17.9 C 12.37 g/m*3 17.9 C 0 km/h
1720 15-07-2010 08:05:57 18.2 C 12.28 g/m*3 18.2 C 0 km/h
1721 15-07-2010 08:17:57 18.4 C 12.11 g/m*3 18.4 C 0 km/h
1722 15-07-2010 08:29:57 18.3 C 11.57 g/m*3 18.3 C 0 km/h
1723 15-07-2010 08:41:57 18.5 C 11.23 g/m*3 18.5 C 0 km/h
1724 15-07-2010 08:53:57 18.7 C 11.21 g/m*3 18.7 C 0 km/h
1725 15-07-2010 09:05:57 19 C 10.27 g/m*3 19 C 0 km/h
Sensor: Nr:Datum:Temp:Abs-Feuchte:Windchill:Wind:
Aussen-T/F 1726 15-07-2010 09:17:57 19.2 C 9.4 g/m*3 19.2 C 0 km/h
1727 15-07-2010 09:29:57 19.5 C 8.89 g/m*3 19.5 C 0 km/h
1728 15-07-2010 09:41:57 19.9 C 8.42 g/m*3 19.9 C 0 km/h
1729 15-07-2010 09:53:57 20.3 C 8.27 g/m*3 20.3 C 0 km/h
1730 15-07-2010 10:05:57 20.5 C 7.65 g/m*3 20.5 C 0 km/h
1731 15-07-2010 10:17:57 20.9 C 7.83 g/m*3 20.9 C 0 km/h
1732 15-07-2010 10:29:57 21.3 C 7.64 g/m*3 21.3 C 0 km/h
1733 15-07-2010 10:41:57 21.6 C 7.59 g/m*3 21.6 C 0 km/h
1734 15-07-2010 10:53:57 21.8 C 7.1 g/m*3 21.8 C 0 km/h
1735 15-07-2010 11:05:57 21.9 C 6.95 g/m*3 21.9 C 0 km/h
1736 15-07-2010 11:17:57 21.9 C 6.95 g/m*3 21.9 C 0 km/h
1737 15-07-2010 11:29:58 22.5 C 6.99 g/m*3 22.5 C 0 km/h
1738 15-07-2010 11:41:58 22.8 C 6.71 g/m*3 22.8 C 0 km/h
1739 15-07-2010 11:53:58 22.5 C 6.19 g/m*3 22.5 C 0 km/h
1740 15-07-2010 12:05:58 23.7 C 6.2 g/m*3 23.7 C 0 km/h
1741 15-07-2010 12:17:58 24.4 C 5.56 g/m*3 24.4 C 0 km/h
1742 15-07-2010 12:29:58 24.7 C 5.88 g/m*3 24.7 C 0 km/h
1743 15-07-2010 12:41:58 24.7 C 5.88 g/m*3 24.7 C 0 km/h
1744 15-07-2010 12:53:58 24.6 C 5.63 g/m*3 24.6 C 0 km/h
1745 15-07-2010 13:05:58 25.2 C 5.12 g/m*3 25.2 C 0 km/h
1746 15-07-2010 13:17:58 26.1 C 5.14 g/m*3 26.1 C 0 km/h
1747 15-07-2010 13:29:58 26.4 C 5.23 g/m*3 26.4 C 0 km/h
1748 15-07-2010 13:41:58 26.3 C 4.95 g/m*3 26.3 C 0 km/h
1749 15-07-2010 13:53:58 26.7 C 5.06 g/m*3 26.7 C 0 km/h
1750 15-07-2010 14:05:58 26.2 C 4.92 g/m*3 26.2 C 0 km/h
Sensor: Nr:Datum:Temp:Abs-Feuchte:Windchill:Wind:
Aussen-T/F 1751 15-07-2010 14:17:58 25.6 C 4.76 g/m*3 25.6 C 0 km/h
1752 15-07-2010 14:29:58 26.3 C 4.95 g/m*3 26.3 C 0 km/h
1753 15-07-2010 14:41:58 26.6 C 5.03 g/m*3 26.6 C 0 km/h
1754 15-07-2010 14:53:58 26.4 C 4.98 g/m*3 26.4 C 0 km/h
1755 15-07-2010 15:05:58 26.4 C 4.98 g/m*3 26.4 C 0 km/h
1756 15-07-2010 15:17:58 27.7 C 5.35 g/m*3 27.7 C 0 km/h
1757 15-07-2010 15:29:58 26 C 4.87 g/m*3 26 C 0 km/h
1758 15-07-2010 15:41:59 27.2 C 5.2 g/m*3 27.2 C 0 km/h
1759 15-07-2010 15:53:59 27.2 C 5.2 g/m*3 27.2 C 0 km/h
1760 15-07-2010 16:05:59 27.6 C 5.32 g/m*3 27.6 C 0 km/h
1761 15-07-2010 16:17:59 27.5 C 5.29 g/m*3 27.5 C 0 km/h
1762 15-07-2010 16:29:59 27.9 C 5.41 g/m*3 27.9 C 0 km/h
1763 15-07-2010 16:41:59 27.9 C 5.41 g/m*3 27.9 C 0 km/h
1764 15-07-2010 16:53:59 28.2 C 5.5 g/m*3 28.2 C 0 km/h
1765 15-07-2010 17:05:59 28.6 C 5.62 g/m*3 28.6 C 0 km/h
1766 15-07-2010 17:17:59 27.9 C 5.41 g/m*3 27.9 C 0 km/h
1767 15-07-2010 17:29:59 28.3 C 5.53 g/m*3 28.3 C 0 km/h
1768 15-07-2010 17:41:59 28.8 C 5.68 g/m*3 28.8 C 0 km/h
1769 15-07-2010 17:53:59 28.7 C 5.65 g/m*3 28.7 C 0 km/h
1770 15-07-2010 18:05:59 28.5 C 5.59 g/m*3 28.5 C 0 km/h
1771 15-07-2010 18:17:59 29.1 C 5.78 g/m*3 29.1 C 0 km/h
1772 15-07-2010 18:29:59 27.9 C 5.41 g/m*3 27.9 C 0 km/h
1773 15-07-2010 18:41:59 26.5 C 5.01 g/m*3 26.5 C 0 km/h
1774 15-07-2010 18:52:59 27.9 C 5.41 g/m*3 27.9 C 0 km/h
1775 15-07-2010 19:04:59 27.7 C 5.35 g/m*3 27.7 C 0 km/h
Sensor: Nr:Datum:Temp:Abs-Feuchte:Windchill:Wind:
Aussen-T/F 1776 15-07-2010 19:16:59 27.3 C 5.23 g/m*3 27.3 C 0 km/h
1777 15-07-2010 19:28:59 28.1 C 5.47 g/m*3 28.1 C 0 km/h
1778 15-07-2010 19:40:59 26.4 C 4.98 g/m*3 26.4 C 0 km/h
1779 15-07-2010 19:53:00 26.8 C 5.09 g/m*3 26.8 C 0 km/h
1780 15-07-2010 20:05:00 26.9 C 5.12 g/m*3 26.9 C 0 km/h
1781 15-07-2010 20:17:00 26.8 C 5.09 g/m*3 26.8 C 0 km/h
1782 15-07-2010 20:29:00 26.5 C 5.01 g/m*3 26.5 C 0 km/h
1783 15-07-2010 20:41:00 26.4 C 5.23 g/m*3 26.4 C 0 km/h
1784 15-07-2010 20:53:00 26.4 C 5.73 g/m*3 26.4 C 0 km/h
1785 15-07-2010 21:05:00 25.4 C 5.89 g/m*3 25.4 C 0 km/h
1786 15-07-2010 21:17:00 24.5 C 6.04 g/m*3 24.5 C 0 km/h
1787 15-07-2010 21:29:00 23.5 C 5.92 g/m*3 23.5 C 0 km/h
1788 15-07-2010 21:41:00 22.8 C 6.3 g/m*3 22.8 C 0 km/h
1789 15-07-2010 21:53:00 22.5 C 6.19 g/m*3 22.5 C 0 km/h
1790 15-07-2010 22:05:00 22 C 6.02 g/m*3 22 C 0 km/h
1791 15-07-2010 22:17:00 21.8 C 6.33 g/m*3 21.8 C 0 km/h
1792 15-07-2010 22:29:00 21.5 C 6.41 g/m*3 21.5 C 0 km/h
1793 15-07-2010 22:41:00 21.1 C 6.45 g/m*3 21.1 C 0 km/h
1794 15-07-2010 22:53:00 20.9 C 6.74 g/m*3 20.9 C 0 km/h
1795 15-07-2010 23:05:00 20.5 C 6.58 g/m*3 20.5 C 0 km/h
1796 15-07-2010 23:17:00 20.2 C 6.82 g/m*3 20.2 C 0 km/h
1797 15-07-2010 23:29:00 19.9 C 6.87 g/m*3 19.9 C 0 km/h
1798 15-07-2010 23:41:00 19.7 C 6.79 g/m*3 19.7 C 0 km/h
1799 15-07-2010 23:53:00 19.3 C 6.8 g/m*3 19.3 C 0 km/h
1800 16-07-2010 00:05:01 19.1 C 6.72 g/m*3 19.1 C 0 km/h
Sensor: Nr:Datum:Temp:Abs-Feuchte:Windchill:Wind:
Aussen-T/F 1801 16-07-2010 00:17:01 18.8 C 6.93 g/m*3 18.8 C 0 km/h
1802 16-07-2010 00:29:01 18.6 C 6.84 g/m*3 18.6 C 0 km/h
1803 16-07-2010 00:41:01 18.3 C 7.04 g/m*3 18.3 C 0 km/h
1804 16-07-2010 00:53:01 18.2 C 6.99 g/m*3 18.2 C 0 km/h
1805 16-07-2010 01:05:01 18.1 C 7.11 g/m*3 18.1 C 0 km/h
1806 16-07-2010 01:17:01 17.9 C 7.18 g/m*3 17.9 C 0 km/h
1807 16-07-2010 01:29:01 17.7 C 7.24 g/m*3 17.7 C 0 km/h
1808 16-07-2010 01:41:01 17.6 C 7.5 g/m*3 17.6 C 0 km/h
1809 16-07-2010 01:53:01 17.5 C 7.45 g/m*3 17.5 C 0 km/h
1810 16-07-2010 02:05:01 17.1 C 7.57 g/m*3 17.1 C 0 km/h
1811 16-07-2010 02:17:01 16.9 C 7.77 g/m*3 16.9 C 0 km/h
1812 16-07-2010 02:29:01 16.8 C 8.01 g/m*3 16.8 C 0 km/h
1813 16-07-2010 02:41:01 16.5 C 8 g/m*3 16.5 C 0 km/h
1814 16-07-2010 02:53:01 16.4 C 8.1 g/m*3 16.4 C 0 km/h
1815 16-07-2010 03:05:01 16.3 C 8.05 g/m*3 16.3 C 0 km/h
1816 16-07-2010 03:17:01 16.1 C 8.09 g/m*3 16.1 C 0 km/h
1817 16-07-2010 03:29:01 16 C 8.17 g/m*3 16 C 0 km/h
1818 16-07-2010 03:41:01 15.8 C 8.21 g/m*3 15.8 C 0 km/h
1819 16-07-2010 03:53:01 15.6 C 7.98 g/m*3 15.6 C 0 km/h
1820 16-07-2010 04:05:01 15.5 C 8.06 g/m*3 15.5 C 0 km/h
1821 16-07-2010 04:17:01 15.4 C 8.15 g/m*3 15.4 C 0 km/h
1822 16-07-2010 04:29:02 15.2 C 8.31 g/m*3 15.2 C 0 km/h
1823 16-07-2010 04:41:02 15 C 8.08 g/m*3 15 C 0 km/h
1824 16-07-2010 04:53:02 15 C 8.21 g/m*3 15 C 0 km/h
1825 16-07-2010 05:05:02 14.8 C 8.36 g/m*3 14.8 C 0 km/h
Sensor: Nr:Datum:Temp:Abs-Feuchte:Windchill:Wind:
Aussen-T/F 1826 16-07-2010 05:17:02 14.7 C 8.31 g/m*3 14.7 C 0 km/h
1827 16-07-2010 05:29:02 14.6 C 8.13 g/m*3 14.6 C 0 km/h
1828 16-07-2010 05:41:02 14.6 C 8.26 g/m*3 14.6 C 0 km/h
1829 16-07-2010 05:53:02 14.5 C 8.46 g/m*3 14.5 C 0 km/h
1830 16-07-2010 06:05:02 14.4 C 8.41 g/m*3 14.4 C 0 km/h
1831 16-07-2010 06:17:02 14.3 C 8.48 g/m*3 14.3 C 0 km/h
1832 16-07-2010 06:29:02 14.4 C 8.65 g/m*3 14.4 C 0 km/h
1833 16-07-2010 06:41:02 14.5 C 8.71 g/m*3 14.5 C 0 km/h
1834 16-07-2010 06:53:02 14.7 C 8.81 g/m*3 14.7 C 0 km/h
1835 16-07-2010 07:05:02 14.8 C 8.87 g/m*3 14.8 C 0 km/h
1836 16-07-2010 07:17:02 14.9 C 8.92 g/m*3 14.9 C 0 km/h
1837 16-07-2010 07:29:02 15.2 C 8.83 g/m*3 15.2 C 0 km/h
1838 16-07-2010 07:41:02 15.3 C 8.88 g/m*3 15.3 C 0 km/h
1839 16-07-2010 07:53:02 15.6 C 8.91 g/m*3 15.6 C 0 km/h
1840 16-07-2010 08:05:02 15.9 C 8.94 g/m*3 15.9 C 0 km/h
1841 16-07-2010 08:17:02 16.2 C 8.83 g/m*3 16.2 C 0 km/h
1842 16-07-2010 08:29:02 16.6 C 9.04 g/m*3 16.6 C 0 km/h
1843 16-07-2010 08:41:03 17 C 8.97 g/m*3 17 C 0 km/h
1844 16-07-2010 08:53:03 17.4 C 9.19 g/m*3 17.4 C 0 km/h
1845 16-07-2010 09:05:03 18.1 C 9.27 g/m*3 18.1 C 0 km/h
1846 16-07-2010 09:17:03 19 C 9.45 g/m*3 19 C 0 km/h
1847 16-07-2010 09:29:03 19.6 C 9.45 g/m*3 19.6 C 0 km/h
1848 16-07-2010 09:41:03 20.4 C 9.2 g/m*3 20.4 C 0 km/h
1849 16-07-2010 09:53:03 21.3 C 9.32 g/m*3 21.3 C 0 km/h
1850 16-07-2010 10:05:03 22.1 C 9.17 g/m*3 22.1 C 0 km/h
Sensor: Nr:Datum:Temp:Abs-Feuchte:Windchill:Wind:
Aussen-T/F 1851 16-07-2010 10:17:03 23 C 9.25 g/m*3 23 C 0 km/h
1852 16-07-2010 10:29:03 23.8 C 9.25 g/m*3 23.8 C 0 km/h
1853 16-07-2010 10:41:03 24.2 C 8.14 g/m*3 24.2 C 0 km/h
1854 16-07-2010 10:53:03 24.9 C 7.55 g/m*3 24.9 C 0 km/h
1855 16-07-2010 11:05:03 25.6 C 7.14 g/m*3 25.6 C 0 km/h
1856 16-07-2010 11:17:03 26 C 5.11 g/m*3 26 C 0 km/h
1857 16-07-2010 11:29:03 26.3 C 5.69 g/m*3 26.3 C 0 km/h
1858 16-07-2010 11:41:03 26.5 C 5.51 g/m*3 26.5 C 0 km/h
1859 16-07-2010 11:53:03 26.9 C 5.63 g/m*3 26.9 C 0 km/h
1860 16-07-2010 12:05:03 27.3 C 5.49 g/m*3 27.3 C 0 km/h
1861 16-07-2010 12:17:03 27.9 C 5.41 g/m*3 27.9 C 0 km/h
1862 16-07-2010 12:29:03 28.6 C 5.62 g/m*3 28.6 C 0 km/h
1863 16-07-2010 12:41:03 29.2 C 5.81 g/m*3 29.2 C 0 km/h
1864 16-07-2010 12:53:04 29.7 C 5.97 g/m*3 29.7 C 0 km/h
1865 16-07-2010 13:05:04 30 C 6.06 g/m*3 30 C 0 km/h
1866 16-07-2010 13:17:04 30.6 C 6.26 g/m*3 30.6 C 0 km/h
1867 16-07-2010 13:29:04 30.5 C 6.23 g/m*3 30.5 C 0 km/h
1868 16-07-2010 13:41:04 31.4 C 6.54 g/m*3 31.4 C 0 km/h
1869 16-07-2010 13:53:04 30.9 C 6.37 g/m*3 30.9 C 0 km/h
1870 16-07-2010 14:05:04 31.1 C 6.43 g/m*3 31.1 C 0 km/h
1871 16-07-2010 14:17:04 30.7 C 6.3 g/m*3 30.7 C 0 km/h
1872 16-07-2010 14:29:04 31.1 C 6.43 g/m*3 31.1 C 0 km/h
1873 16-07-2010 14:41:04 31.2 C 6.47 g/m*3 31.2 C 0 km/h
1874 16-07-2010 14:53:04 31.2 C 6.47 g/m*3 31.2 C 0 km/h
1875 16-07-2010 15:05:04 31.5 C 6.57 g/m*3 31.5 C 0 km/h
Sensor: Nr:Datum:Temp:Abs-Feuchte:Windchill:Wind:
Aussen-T/F 1876 16-07-2010 15:17:04 31.5 C 6.57 g/m*3 31.5 C 0 km/h
1877 16-07-2010 15:29:04 31.9 C 6.72 g/m*3 31.9 C 0 km/h
1878 16-07-2010 15:41:04 32.1 C 6.79 g/m*3 32.1 C 0 km/h
1879 16-07-2010 15:53:04 32.3 C 6.86 g/m*3 32.3 C 0 km/h
1880 16-07-2010 16:05:04 32.4 C 6.9 g/m*3 32.4 C 0 km/h
1881 16-07-2010 16:17:04 32.3 C 6.86 g/m*3 32.3 C 0 km/h
1882 16-07-2010 16:29:04 32.6 C 6.97 g/m*3 32.6 C 0 km/h
1883 16-07-2010 16:41:04 32.4 C 6.9 g/m*3 32.4 C 0 km/h
1884 16-07-2010 16:53:05 32.5 C 6.93 g/m*3 32.5 C 0 km/h
1885 16-07-2010 17:05:05 32.5 C 6.93 g/m*3 32.5 C 0 km/h
1886 16-07-2010 17:17:05 32.5 C 6.93 g/m*3 32.5 C 0 km/h
1887 16-07-2010 17:29:05 32.5 C 6.93 g/m*3 32.5 C 0 km/h
1888 16-07-2010 17:41:05 32.8 C 7.04 g/m*3 32.8 C 0 km/h
1889 16-07-2010 17:53:05 32.5 C 6.93 g/m*3 32.5 C 0 km/h
1890 16-07-2010 18:05:05 32.8 C 7.04 g/m*3 32.8 C 0 km/h
1891 16-07-2010 18:17:05 32.7 C 7.01 g/m*3 32.7 C 0 km/h
1892 16-07-2010 18:29:05 32.7 C 7.01 g/m*3 32.7 C 0 km/h
1893 16-07-2010 18:41:05 32.7 C 7.01 g/m*3 32.7 C 0 km/h
1894 16-07-2010 18:53:05 32.7 C 7.01 g/m*3 32.7 C 0 km/h
1895 16-07-2010 19:05:05 32 C 6.75 g/m*3 32 C 0 km/h
1896 16-07-2010 19:17:05 31.7 C 6.64 g/m*3 31.7 C 0 km/h
1897 16-07-2010 19:29:05 31.3 C 6.5 g/m*3 31.3 C 0 km/h
1898 16-07-2010 19:41:05 30.8 C 6.33 g/m*3 30.8 C 0 km/h
1899 16-07-2010 19:53:05 30.4 C 6.51 g/m*3 30.4 C 0 km/h
1900 16-07-2010 20:05:05 30 C 6.67 g/m*3 30 C 0 km/h
Sensor: Nr:Datum:Temp:Abs-Feuchte:Windchill:Wind:
Aussen-T/F 1901 16-07-2010 20:17:05 29.6 C 7.42 g/m*3 29.6 C 0 km/h
1902 16-07-2010 20:29:05 29.1 C 7.22 g/m*3 29.1 C 0 km/h
1903 16-07-2010 20:41:05 29.2 C 7.26 g/m*3 29.2 C 0 km/h
1904 16-07-2010 20:53:05 29.1 C 7.51 g/m*3 29.1 C 0 km/h
1905 16-07-2010 21:05:06 28.9 C 7.43 g/m*3 28.9 C 0 km/h
1906 16-07-2010 21:17:06 28.8 C 7.39 g/m*3 28.8 C 0 km/h
1907 16-07-2010 21:29:06 28.4 C 7.51 g/m*3 28.4 C 0 km/h
1908 16-07-2010 21:41:06 28 C 7.34 g/m*3 28 C 0 km/h
1909 16-07-2010 21:53:06 27.4 C 7.63 g/m*3 27.4 C 0 km/h
1910 16-07-2010 22:05:06 27.2 C 7.81 g/m*3 27.2 C 0 km/h
1911 16-07-2010 22:17:06 26.8 C 7.64 g/m*3 26.8 C 0 km/h
1912 16-07-2010 22:29:01 26.3 C 7.43 g/m*3 26.3 C 0 km/h
1913 16-07-2010 22:41:01 25.8 C 7.7 g/m*3 25.8 C 0 km/h
1914 16-07-2010 22:53:01 25.8 C 7.94 g/m*3 25.8 C 0 km/h
1915 16-07-2010 23:05:01 25.9 C 8.23 g/m*3 25.9 C 0 km/h
1916 16-07-2010 23:17:02 25.8 C 8.43 g/m*3 25.8 C 0 km/h
1917 16-07-2010 23:29:02 25.6 C 8.33 g/m*3 25.6 C 0 km/h
1918 16-07-2010 23:41:01 25.5 C 8.52 g/m*3 25.5 C 0 km/h
1919 16-07-2010 23:53:03 25 C 8.75 g/m*3 25 C 0 km/h
1920 17-07-2010 00:06:04 24.5 C 8.28 g/m*3 24.5 C 0 km/h
1921 17-07-2010 00:18:04 23.8 C 8.6 g/m*3 23.8 C 0 km/h
1922 17-07-2010 00:30:04 23.5 C 8.88 g/m*3 23.5 C 0 km/h
1923 17-07-2010 00:42:04 22.5 C 10.19 g/m*3 22.5 C 0 km/h
1924 17-07-2010 00:54:04 22.2 C 9.42 g/m*3 22.2 C 0 km/h
1925 17-07-2010 01:06:04 22.3 C 9.87 g/m*3 22.3 C 0 km/h
Sensor: Nr:Datum:Temp:Abs-Feuchte:Windchill:Wind:
Aussen-T/F 1926 17-07-2010 01:18:04 21.4 C 11.25 g/m*3 21.4 C 0 km/h
1927 17-07-2010 01:30:04 19.9 C 11.68 g/m*3 19.9 C 0 km/h
1928 17-07-2010 01:42:04 19.8 C 11.44 g/m*3 19.8 C 0 km/h
1929 17-07-2010 01:54:04 20.1 C 11.47 g/m*3 20.1 C 0 km/h
1930 17-07-2010 02:06:04 20.3 C 11.43 g/m*3 20.3 C 0 km/h
1931 17-07-2010 02:18:04 20.3 C 11.08 g/m*3 20.3 C 0 km/h
1932 17-07-2010 02:30:04 20.1 C 10.95 g/m*3 20.1 C 0 km/h
1933 17-07-2010 02:42:04 20.1 C 10.95 g/m*3 20.1 C 0 km/h
1934 17-07-2010 02:54:04 20.1 C 11.13 g/m*3 20.1 C 0 km/h
1935 17-07-2010 03:06:04 20.1 C 11.3 g/m*3 20.1 C 0 km/h
1936 17-07-2010 03:18:04 19.8 C 11.96 g/m*3 19.8 C 0 km/h
1937 17-07-2010 03:30:04 19.7 C 11.89 g/m*3 19.7 C 0 km/h
1938 17-07-2010 03:42:04 20 C 11.92 g/m*3 20 C 0 km/h
1939 17-07-2010 03:54:04 19.8 C 12.3 g/m*3 19.8 C 0 km/h
1940 17-07-2010 04:06:05 19.7 C 11.89 g/m*3 19.7 C 0 km/h
1941 17-07-2010 04:18:05 19.9 C 11.85 g/m*3 19.9 C 0 km/h
1942 17-07-2010 04:30:05 19.2 C 12.37 g/m*3 19.2 C 0 km/h
1943 17-07-2010 04:42:05 18.7 C 13.13 g/m*3 18.7 C 0 km/h
1944 17-07-2010 04:54:05 18.3 C 13.13 g/m*3 18.3 C 0 km/h
1945 17-07-2010 05:06:05 18.4 C 13.37 g/m*3 18.4 C 0 km/h
1946 17-07-2010 05:18:05 18.3 C 13.45 g/m*3 18.3 C 0 km/h
1947 17-07-2010 05:30:05 18.1 C 13.29 g/m*3 18.1 C 0 km/h
1948 17-07-2010 05:42:05 17.9 C 13.44 g/m*3 17.9 C 0 km/h
1949 17-07-2010 05:54:05 17.7 C 13.28 g/m*3 17.7 C 0 km/h
1950 17-07-2010 06:06:05 17.6 C 13.2 g/m*3 17.6 C 0 km/h
Sensor: Nr:Datum:Temp:Abs-Feuchte:Windchill:Wind:
Aussen-T/F 1951 17-07-2010 06:18:05 17.5 C 13.12 g/m*3 17.5 C 0 km/h
1952 17-07-2010 06:30:05 17.7 C 13.43 g/m*3 17.7 C 0 km/h
1953 17-07-2010 06:42:05 17.8 C 13.51 g/m*3 17.8 C 0 km/h
1954 17-07-2010 06:54:05 17.8 C 13.66 g/m*3 17.8 C 0 km/h
1955 17-07-2010 07:06:05 17.8 C 13.66 g/m*3 17.8 C 0 km/h
1956 17-07-2010 07:18:05 17.8 C 13.66 g/m*3 17.8 C 0 km/h
1957 17-07-2010 07:30:05 17.9 C 13.59 g/m*3 17.9 C 0 km/h
1958 17-07-2010 07:42:05 18 C 13.36 g/m*3 18 C 0 km/h
1959 17-07-2010 07:54:05 17.9 C 13.44 g/m*3 17.9 C 0 km/h
1960 17-07-2010 08:06:04 17.8 C 13.36 g/m*3 17.8 C 0 km/h
1961 17-07-2010 08:18:04 17.7 C 13.43 g/m*3 17.7 C 0 km/h
1962 17-07-2010 08:30:04 17.5 C 13.27 g/m*3 17.5 C 0 km/h
1963 17-07-2010 08:42:03 17.5 C 13.27 g/m*3 17.5 C 0 km/h
1964 17-07-2010 08:54:01 17.7 C 13.58 g/m*3 17.7 C 0 km/h
1965 17-07-2010 09:06:02 17.8 C 13.66 g/m*3 17.8 C 0 km/h
1966 17-07-2010 09:18:03 18.1 C 13.75 g/m*3 18.1 C 0 km/h
1967 17-07-2010 09:30:03 18.8 C 13.85 g/m*3 18.8 C 0 km/h
1968 17-07-2010 09:42:02 18.9 C 13.28 g/m*3 18.9 C 0 km/h
1969 17-07-2010 09:54:02 19.1 C 12.95 g/m*3 19.1 C 0 km/h
1970 17-07-2010 10:06:01 19 C 12.71 g/m*3 19 C 0 km/h
1971 17-07-2010 10:18:02 19.2 C 12.53 g/m*3 19.2 C 0 km/h
1972 17-07-2010 10:30:03 19.7 C 12.74 g/m*3 19.7 C 0 km/h
1973 17-07-2010 10:42:01 20 C 12.44 g/m*3 20 C 0 km/h
1974 17-07-2010 10:54:02 20.1 C 12.34 g/m*3 20.1 C 0 km/h
1975 17-07-2010 11:06:01 21 C 12.46 g/m*3 21 C 0 km/h
Sensor: Nr:Datum:Temp:Abs-Feuchte:Windchill:Wind:
Aussen-T/F 1976 17-07-2010 11:18:02 21.2 C 11.86 g/m*3 21.2 C 0 km/h
1977 17-07-2010 11:30:02 21.8 C 11.13 g/m*3 21.8 C 0 km/h
1978 17-07-2010 11:42:02 23.3 C 11.08 g/m*3 23.3 C 0 km/h
1979 17-07-2010 11:54:02 23.7 C 10.69 g/m*3 23.7 C 0 km/h
1980 17-07-2010 12:06:01 23.7 C 10.27 g/m*3 23.7 C 0 km/h
1981 17-07-2010 12:18:02 23.7 C 9.84 g/m*3 23.7 C 0 km/h
1982 17-07-2010 12:30:02 24.6 C 8.55 g/m*3 24.6 C 0 km/h
1983 17-07-2010 12:42:02 25.3 C 8.66 g/m*3 25.3 C 0 km/h
1984 17-07-2010 12:54:01 26 C 7.79 g/m*3 26 C 0 km/h
1985 17-07-2010 13:06:02 26.5 C 8.01 g/m*3 26.5 C 0 km/h
1986 17-07-2010 13:18:01 25 C 7.37 g/m*3 25 C 0 km/h
1987 17-07-2010 13:30:01 26.3 C 7.67 g/m*3 26.3 C 0 km/h
1988 17-07-2010 13:42:02 25.7 C 7.66 g/m*3 25.7 C 0 km/h
1989 17-07-2010 13:54:02 26.6 C 7.05 g/m*3 26.6 C 0 km/h
1990 17-07-2010 14:06:02 26 C 7.55 g/m*3 26 C 0 km/h
1991 17-07-2010 14:18:02 25.9 C 7.51 g/m*3 25.9 C 0 km/h
1992 17-07-2010 14:30:02 26.3 C 7.43 g/m*3 26.3 C 0 km/h
1993 17-07-2010 14:42:02 26 C 6.82 g/m*3 26 C 0 km/h
1994 17-07-2010 14:54:01 26.5 C 7.01 g/m*3 26.5 C 0 km/h
1995 17-07-2010 15:06:02 27 C 6.69 g/m*3 27 C 0 km/h
1996 17-07-2010 15:18:01 27.5 C 6.35 g/m*3 27.5 C 0 km/h
1997 17-07-2010 15:30:01 27.3 C 6.54 g/m*3 27.3 C 0 km/h
1998 17-07-2010 15:42:02 27.5 C 6.61 g/m*3 27.5 C 0 km/h
1999 17-07-2010 15:54:01 26.6 C 6.29 g/m*3 26.6 C 0 km/h
2000 17-07-2010 16:06:02 27.3 C 6.54 g/m*3 27.3 C 0 km/h
Sensor: Nr:Datum:Temp:Abs-Feuchte:Windchill:Wind:
Aussen-T/F 2001 17-07-2010 16:18:02 26.4 C 6.22 g/m*3 26.4 C 0 km/h
2002 17-07-2010 16:30:02 26 C 5.84 g/m*3 26 C 0 km/h
2003 17-07-2010 16:42:02 26.9 C 5.89 g/m*3 26.9 C 0 km/h
2004 17-07-2010 16:54:02 27 C 5.92 g/m*3 27 C 0 km/h
2005 17-07-2010 17:06:02 26.6 C 6.29 g/m*3 26.6 C 0 km/h
2006 17-07-2010 17:18:03 25.7 C 7.42 g/m*3 25.7 C 0 km/h
2007 17-07-2010 17:30:03 26 C 7.79 g/m*3 26 C 0 km/h
2008 17-07-2010 17:42:02 26.1 C 7.59 g/m*3 26.1 C 0 km/h
2009 17-07-2010 17:54:02 24.6 C 7.88 g/m*3 24.6 C 0 km/h
2010 17-07-2010 18:06:01 24.2 C 7.7 g/m*3 24.2 C 0 km/h
2011 17-07-2010 18:18:02 23.7 C 7.7 g/m*3 23.7 C 0 km/h
2012 17-07-2010 18:30:02 24 C 7.61 g/m*3 24 C 0 km/h
2013 17-07-2010 18:42:01 24.1 C 7.44 g/m*3 24.1 C 0 km/h
2014 17-07-2010 18:54:02 24 C 7.4 g/m*3 24 C 0 km/h
2015 17-07-2010 19:06:02 24.6 C 7.43 g/m*3 24.6 C 0 km/h
2016 17-07-2010 19:18:02 24.6 C 7.2 g/m*3 24.6 C 0 km/h
2017 17-07-2010 19:30:03 24.2 C 7.26 g/m*3 24.2 C 0 km/h
2018 17-07-2010 19:42:02 23.8 C 7.1 g/m*3 23.8 C 0 km/h
2019 17-07-2010 19:54:02 23.6 C 6.59 g/m*3 23.6 C 0 km/h
2020 17-07-2010 20:06:02 23.7 C 6.84 g/m*3 23.7 C 0 km/h
2021 17-07-2010 20:18:02 24.7 C 6.11 g/m*3 24.7 C 0 km/h
2022 17-07-2010 20:30:02 25.4 C 5.41 g/m*3 25.4 C 0 km/h
2023 17-07-2010 20:42:03 24.7 C 5.21 g/m*3 24.7 C 0 km/h
2024 17-07-2010 20:54:02 23.8 C 5.38 g/m*3 23.8 C 0 km/h
2025 17-07-2010 21:06:01 22.9 C 5.72 g/m*3 22.9 C 0 km/h
Sensor: Nr:Datum:Temp:Abs-Feuchte:Windchill:Wind:
Aussen-T/F 2026 17-07-2010 21:18:02 22.4 C 5.96 g/m*3 22.4 C 0 km/h
2027 17-07-2010 21:30:02 22.1 C 6.44 g/m*3 22.1 C 0 km/h
2028 17-07-2010 21:42:02 22 C 6.21 g/m*3 22 C 0 km/h
2029 17-07-2010 21:54:01 21.9 C 6.37 g/m*3 21.9 C 0 km/h
2030 17-07-2010 22:06:02 21.6 C 6.26 g/m*3 21.6 C 0 km/h
2031 17-07-2010 22:18:01 21.7 C 6.49 g/m*3 21.7 C 0 km/h
2032 17-07-2010 22:30:01 21.6 C 6.26 g/m*3 21.6 C 0 km/h
2033 17-07-2010 22:42:02 21.3 C 6.15 g/m*3 21.3 C 0 km/h
2034 17-07-2010 22:54:02 21 C 6.23 g/m*3 21 C 0 km/h
2035 17-07-2010 23:06:02 20.4 C 6.19 g/m*3 20.4 C 0 km/h
2036 17-07-2010 23:18:02 20.3 C 6.16 g/m*3 20.3 C 0 km/h
2037 17-07-2010 23:30:02 20.2 C 6.12 g/m*3 20.2 C 0 km/h
2038 17-07-2010 23:42:02 19.9 C 6.01 g/m*3 19.9 C 0 km/h
2039 17-07-2010 23:54:01 19.8 C 6.15 g/m*3 19.8 C 0 km/h
2040 18-07-2010 00:06:02 19.3 C 5.97 g/m*3 19.3 C 0 km/h
2041 18-07-2010 00:18:02 19 C 5.87 g/m*3 19 C 0 km/h
2042 18-07-2010 00:30:02 18.6 C 6.21 g/m*3 18.6 C 0 km/h
2043 18-07-2010 00:42:01 18.3 C 6.1 g/m*3 18.3 C 0 km/h
2044 18-07-2010 00:54:02 18 C 6.14 g/m*3 18 C 0 km/h
2045 18-07-2010 01:06:01 17.7 C 6.19 g/m*3 17.7 C 0 km/h
2046 18-07-2010 01:18:02 17.4 C 6.22 g/m*3 17.4 C 0 km/h
2047 18-07-2010 01:30:02 17.2 C 6.3 g/m*3 17.2 C 0 km/h
2048 18-07-2010 01:42:01 16.8 C 6.43 g/m*3 16.8 C 0 km/h
2049 18-07-2010 01:54:03 16.7 C 6.54 g/m*3 16.7 C 0 km/h
2050 18-07-2010 02:06:02 16.5 C 6.6 g/m*3 16.5 C 0 km/h
Sensor: Nr:Datum:Temp:Abs-Feuchte:Windchill:Wind:
Aussen-T/F 2051 18-07-2010 02:18:02 16.3 C 6.38 g/m*3 16.3 C 0 km/h
2052 18-07-2010 02:30:02 16 C 6.95 g/m*3 16 C 0 km/h
2053 18-07-2010 02:42:02 15.6 C 7.18 g/m*3 15.6 C 0 km/h
2054 18-07-2010 02:55:04 15.4 C 7.23 g/m*3 15.4 C 0 km/h
2055 18-07-2010 03:07:04 15.2 C 7.14 g/m*3 15.2 C 0 km/h
2056 18-07-2010 03:19:04 15 C 6.92 g/m*3 15 C 0 km/h
2057 18-07-2010 03:31:02 14.8 C 7.22 g/m*3 14.8 C 0 km/h
2058 18-07-2010 03:43:02 14.6 C 7.26 g/m*3 14.6 C 0 km/h
2059 18-07-2010 03:55:02 14.4 C 7.17 g/m*3 14.4 C 0 km/h
2060 18-07-2010 04:07:02 14.1 C 7.28 g/m*3 14.1 C 0 km/h
2061 18-07-2010 04:19:01 14.1 C 7.52 g/m*3 14.1 C 0 km/h
2062 18-07-2010 04:31:02 14 C 7.48 g/m*3 14 C 0 km/h
2063 18-07-2010 04:43:02 13.7 C 7.46 g/m*3 13.7 C 0 km/h
2064 18-07-2010 04:55:02 13.6 C 7.65 g/m*3 13.6 C 0 km/h
2065 18-07-2010 05:07:02 13.4 C 7.9 g/m*3 13.4 C 0 km/h
2066 18-07-2010 05:19:01 13.1 C 7.76 g/m*3 13.1 C 0 km/h
2067 18-07-2010 05:31:02 13 C 7.71 g/m*3 13 C 0 km/h
2068 18-07-2010 05:43:02 12.8 C 7.84 g/m*3 12.8 C 0 km/h
2069 18-07-2010 05:55:02 12.7 C 7.9 g/m*3 12.7 C 0 km/h
2070 18-07-2010 06:07:02 12.6 C 8.08 g/m*3 12.6 C 0 km/h
2071 18-07-2010 06:19:02 12.5 C 8.03 g/m*3 12.5 C 0 km/h
2072 18-07-2010 06:31:02 12.5 C 8.03 g/m*3 12.5 C 0 km/h
2073 18-07-2010 06:43:02 12.6 C 8.19 g/m*3 12.6 C 0 km/h
2074 18-07-2010 06:55:02 12.6 C 8.19 g/m*3 12.6 C 0 km/h
2075 18-07-2010 07:07:02 12.7 C 8.13 g/m*3 12.7 C 0 km/h
Sensor: Nr:Datum:Temp:Abs-Feuchte:Windchill:Wind:
Aussen-T/F 2076 18-07-2010 07:19:02 12.8 C 8.06 g/m*3 12.8 C 0 km/h
2077 18-07-2010 07:31:01 12.9 C 8 g/m*3 12.9 C 0 km/h
2078 18-07-2010 07:43:01 13.1 C 7.99 g/m*3 13.1 C 0 km/h
2079 18-07-2010 07:55:02 13.3 C 8.09 g/m*3 13.3 C 0 km/h
2080 18-07-2010 08:07:01 13.8 C 8.22 g/m*3 13.8 C 0 km/h
2081 18-07-2010 08:19:01 14.1 C 8.01 g/m*3 14.1 C 0 km/h
2082 18-07-2010 08:31:01 14.4 C 8.16 g/m*3 14.4 C 0 km/h
2083 18-07-2010 08:43:01 15 C 7.44 g/m*3 15 C 0 km/h
2084 18-07-2010 08:55:02 15.4 C 7.62 g/m*3 15.4 C 0 km/h
2085 18-07-2010 09:07:01 15.9 C 7.58 g/m*3 15.9 C 0 km/h
2086 18-07-2010 09:19:02 16.5 C 7.58 g/m*3 16.5 C 0 km/h
2087 18-07-2010 09:31:02 17.1 C 7.57 g/m*3 17.1 C 0 km/h
2088 18-07-2010 09:43:02 17.8 C 7.89 g/m*3 17.8 C 0 km/h
2089 18-07-2010 09:55:02 18.5 C 7.75 g/m*3 18.5 C 0 km/h
2090 18-07-2010 10:07:02 19 C 7.5 g/m*3 19 C 0 km/h
2091 18-07-2010 10:19:02 19.7 C 7.47 g/m*3 19.7 C 0 km/h
2092 18-07-2010 10:31:02 20.1 C 7.3 g/m*3 20.1 C 0 km/h
2093 18-07-2010 10:43:02 20.8 C 7.24 g/m*3 20.8 C 0 km/h
2094 18-07-2010 10:55:02 21.3 C 5.78 g/m*3 21.3 C 0 km/h
2095 18-07-2010 11:07:01 20.8 C 5.61 g/m*3 20.8 C 0 km/h
2096 18-07-2010 11:19:02 21.6 C 5.69 g/m*3 21.6 C 0 km/h
2097 18-07-2010 11:31:02 21.7 C 5.72 g/m*3 21.7 C 0 km/h
2098 18-07-2010 11:43:02 22.7 C 6.06 g/m*3 22.7 C 0 km/h
2099 18-07-2010 11:55:02 23.8 C 5.59 g/m*3 23.8 C 0 km/h
2100 18-07-2010 12:07:01 24.3 C 5.53 g/m*3 24.3 C 0 km/h
Sensor: Nr:Datum:Temp:Abs-Feuchte:Windchill:Wind:
Aussen-T/F 2101 18-07-2010 12:19:02 25.3 C 4.68 g/m*3 25.3 C 0 km/h
2102 18-07-2010 12:31:02 25.3 C 4.68 g/m*3 25.3 C 0 km/h
2103 18-07-2010 12:43:02 26.1 C 4.9 g/m*3 26.1 C 0 km/h
2104 18-07-2010 12:55:02 24.8 C 4.55 g/m*3 24.8 C 0 km/h
2105 18-07-2010 13:07:03 25.8 C 4.82 g/m*3 25.8 C 0 km/h
2106 18-07-2010 13:19:02 27.6 C 5.32 g/m*3 27.6 C 0 km/h
2107 18-07-2010 13:31:02 28.3 C 5.53 g/m*3 28.3 C 0 km/h
2108 18-07-2010 13:43:03 28 C 5.44 g/m*3 28 C 0 km/h
2109 18-07-2010 13:55:01 28.4 C 5.56 g/m*3 28.4 C 0 km/h
2110 18-07-2010 14:07:02 27.7 C 5.35 g/m*3 27.7 C 0 km/h
2111 18-07-2010 14:19:01 27.1 C 5.18 g/m*3 27.1 C 0 km/h
2112 18-07-2010 14:31:01 27.9 C 5.41 g/m*3 27.9 C 0 km/h
2113 18-07-2010 14:43:01 26.7 C 5.06 g/m*3 26.7 C 0 km/h
2114 18-07-2010 14:55:01 27.3 C 5.23 g/m*3 27.3 C 0 km/h
2115 18-07-2010 15:07:02 28.1 C 5.47 g/m*3 28.1 C 0 km/h
2116 18-07-2010 15:19:01 29.4 C 5.87 g/m*3 29.4 C 0 km/h
2117 18-07-2010 15:31:01 30 C 6.06 g/m*3 30 C 0 km/h
2118 18-07-2010 15:43:01 30.1 C 6.1 g/m*3 30.1 C 0 km/h
2119 18-07-2010 15:55:01 30.3 C 6.16 g/m*3 30.3 C 0 km/h
2120 18-07-2010 16:07:01 30.6 C 6.26 g/m*3 30.6 C 0 km/h
2121 18-07-2010 16:19:02 30.7 C 6.3 g/m*3 30.7 C 0 km/h
2122 18-07-2010 16:31:01 31 C 6.4 g/m*3 31 C 0 km/h
2123 18-07-2010 16:43:01 30.8 C 6.33 g/m*3 30.8 C 0 km/h
2124 18-07-2010 16:55:01 30.7 C 6.3 g/m*3 30.7 C 0 km/h
2125 18-07-2010 17:07:01 30.9 C 6.37 g/m*3 30.9 C 0 km/h
Sensor: Nr:Datum:Temp:Abs-Feuchte:Windchill:Wind:
Aussen-T/F 2126 18-07-2010 17:19:02 30.4 C 6.2 g/m*3 30.4 C 0 km/h
2127 18-07-2010 17:31:01 31.4 C 6.54 g/m*3 31.4 C 0 km/h
2128 18-07-2010 17:43:01 31.8 C 6.68 g/m*3 31.8 C 0 km/h
2129 18-07-2010 17:55:02 31.8 C 6.68 g/m*3 31.8 C 0 km/h
2130 18-07-2010 18:07:02 31.3 C 6.5 g/m*3 31.3 C 0 km/h
2131 18-07-2010 18:19:02 31.3 C 6.5 g/m*3 31.3 C 0 km/h
2132 18-07-2010 18:31:02 31.1 C 6.43 g/m*3 31.1 C 0 km/h
2133 18-07-2010 18:43:02 31.1 C 6.43 g/m*3 31.1 C 0 km/h
2134 18-07-2010 18:55:02 31.5 C 6.57 g/m*3 31.5 C 0 km/h
2135 18-07-2010 19:07:01 31.2 C 6.47 g/m*3 31.2 C 0 km/h
2136 18-07-2010 19:19:02 30.7 C 6.3 g/m*3 30.7 C 0 km/h
2137 18-07-2010 19:31:02 30 C 6.06 g/m*3 30 C 0 km/h
2138 18-07-2010 19:43:02 30.1 C 6.1 g/m*3 30.1 C 0 km/h
2139 18-07-2010 19:55:01 30.4 C 6.2 g/m*3 30.4 C 0 km/h
2140 18-07-2010 20:07:01 30.2 C 6.13 g/m*3 30.2 C 0 km/h
2141 18-07-2010 20:19:01 29.8 C 6 g/m*3 29.8 C 0 km/h
2142 18-07-2010 20:31:02 29.1 C 5.78 g/m*3 29.1 C 0 km/h
2143 18-07-2010 20:43:02 28.8 C 5.68 g/m*3 28.8 C 0 km/h
2144 18-07-2010 20:55:02 27.6 C 5.32 g/m*3 27.6 C 0 km/h
2145 18-07-2010 21:07:02 25.9 C 5.08 g/m*3 25.9 C 0 km/h
2146 18-07-2010 21:19:02 24.8 C 5.24 g/m*3 24.8 C 0 km/h
2147 18-07-2010 21:31:02 23.9 C 5.41 g/m*3 23.9 C 0 km/h
2148 18-07-2010 21:43:02 23.3 C 5.44 g/m*3 23.3 C 0 km/h
2149 18-07-2010 21:55:02 22.7 C 5.66 g/m*3 22.7 C 0 km/h
2150 18-07-2010 22:08:02 22.2 C 5.89 g/m*3 22.2 C 0 km/h
Sensor: Nr:Datum:Temp:Abs-Feuchte:Windchill:Wind:
Aussen-T/F 2151 18-07-2010 22:20:02 21.9 C 5.79 g/m*3 21.9 C 0 km/h
2152 18-07-2010 22:32:02 21.8 C 5.95 g/m*3 21.8 C 0 km/h
2153 18-07-2010 22:44:02 21.5 C 5.85 g/m*3 21.5 C 0 km/h
2154 18-07-2010 22:56:02 21.2 C 6.12 g/m*3 21.2 C 0 km/h
2155 18-07-2010 23:08:02 21 C 6.05 g/m*3 21 C 0 km/h
2156 18-07-2010 23:20:02 20.6 C 6.26 g/m*3 20.6 C 0 km/h
2157 18-07-2010 23:32:02 20.3 C 6.16 g/m*3 20.3 C 0 km/h
2158 18-07-2010 23:44:02 20.1 C 6.43 g/m*3 20.1 C 0 km/h
2159 18-07-2010 23:56:02 19.7 C 6.45 g/m*3 19.7 C 0 km/h
2160 19-07-2010 00:08:02 19.5 C 6.38 g/m*3 19.5 C 0 km/h
2161 19-07-2010 00:20:02 19.2 C 6.27 g/m*3 19.2 C 0 km/h
2162 19-07-2010 00:32:02 18.8 C 6.28 g/m*3 18.8 C 0 km/h
2163 19-07-2010 00:44:03 18.6 C 6.37 g/m*3 18.6 C 0 km/h
2164 19-07-2010 00:56:03 18.5 C 6.49 g/m*3 18.5 C 0 km/h
2165 19-07-2010 01:08:03 18.2 C 6.53 g/m*3 18.2 C 0 km/h
2166 19-07-2010 01:20:03 17.9 C 6.57 g/m*3 17.9 C 0 km/h
2167 19-07-2010 01:32:03 17.7 C 6.64 g/m*3 17.7 C 0 km/h
2168 19-07-2010 01:44:03 17.5 C 6.71 g/m*3 17.5 C 0 km/h
2169 19-07-2010 01:56:03 17.1 C 6.84 g/m*3 17.1 C 0 km/h
2170 19-07-2010 02:08:03 16.8 C 6.86 g/m*3 16.8 C 0 km/h
2171 19-07-2010 02:20:03 16.7 C 7.11 g/m*3 16.7 C 0 km/h
2172 19-07-2010 02:32:03 16.5 C 6.88 g/m*3 16.5 C 0 km/h
2173 19-07-2010 02:44:04 16.3 C 6.66 g/m*3 16.3 C 0 km/h
2174 19-07-2010 02:56:04 16 C 6.81 g/m*3 16 C 0 km/h
2175 19-07-2010 03:08:04 15.8 C 7 g/m*3 15.8 C 0 km/h
Sensor: Nr:Datum:Temp:Abs-Feuchte:Windchill:Wind:
Aussen-T/F 2176 19-07-2010 03:20:04 15.7 C 6.96 g/m*3 15.7 C 0 km/h
2177 19-07-2010 03:32:04 15.5 C 7.14 g/m*3 15.5 C 0 km/h
2178 19-07-2010 03:44:04 15.3 C 7.31 g/m*3 15.3 C 0 km/h
2179 19-07-2010 03:56:04 15.1 C 7.1 g/m*3 15.1 C 0 km/h
2180 19-07-2010 04:08:04 14.9 C 7.14 g/m*3 14.9 C 0 km/h
2181 19-07-2010 04:20:04 14.7 C 7.18 g/m*3 14.7 C 0 km/h
2182 19-07-2010 04:32:04 14.6 C 7.38 g/m*3 14.6 C 0 km/h
2183 19-07-2010 04:44:04 14.7 C 7.43 g/m*3 14.7 C 0 km/h
2184 19-07-2010 04:56:04 14.2 C 7.45 g/m*3 14.2 C 0 km/h
2185 19-07-2010 05:08:04 14.1 C 7.28 g/m*3 14.1 C 0 km/h
2186 19-07-2010 05:20:04 13.9 C 7.55 g/m*3 13.9 C 0 km/h
2187 19-07-2010 05:32:04 13.8 C 7.63 g/m*3 13.8 C 0 km/h
2188 19-07-2010 05:44:04 13.6 C 7.53 g/m*3 13.6 C 0 km/h
2189 19-07-2010 05:56:04 13.6 C 7.53 g/m*3 13.6 C 0 km/h
2190 19-07-2010 06:08:04 13.6 C 7.53 g/m*3 13.6 C 0 km/h
2191 19-07-2010 06:20:04 13.5 C 7.6 g/m*3 13.5 C 0 km/h
2192 19-07-2010 06:32:04 13.7 C 7.93 g/m*3 13.7 C 0 km/h
2193 19-07-2010 06:44:05 13.5 C 8.07 g/m*3 13.5 C 0 km/h
2194 19-07-2010 06:56:02 13.6 C 8.24 g/m*3 13.6 C 0 km/h
2195 19-07-2010 07:08:02 13.7 C 8.29 g/m*3 13.7 C 0 km/h
2196 19-07-2010 07:20:02 13.8 C 8.22 g/m*3 13.8 C 0 km/h
2197 19-07-2010 07:32:01 14 C 8.2 g/m*3 14 C 0 km/h
2198 19-07-2010 07:44:01 14.2 C 8.18 g/m*3 14.2 C 0 km/h
2199 19-07-2010 07:56:02 14.4 C 8.16 g/m*3 14.4 C 0 km/h
2200 19-07-2010 08:08:01 14.5 C 8.21 g/m*3 14.5 C 0 km/h
Sensor: Nr:Datum:Temp:Abs-Feuchte:Windchill:Wind:
Aussen-T/F 2201 19-07-2010 08:20:02 14.8 C 8.23 g/m*3 14.8 C 0 km/h
2202 19-07-2010 08:32:02 15.2 C 8.18 g/m*3 15.2 C 0 km/h
2203 19-07-2010 08:44:02 15.7 C 8.3 g/m*3 15.7 C 0 km/h
2204 19-07-2010 08:56:02 16.3 C 8.46 g/m*3 16.3 C 0 km/h
2205 19-07-2010 09:08:02 16.9 C 8.63 g/m*3 16.9 C 0 km/h
2206 19-07-2010 09:20:02 17.7 C 8.6 g/m*3 17.7 C 0 km/h
2207 19-07-2010 09:32:02 18.4 C 8.49 g/m*3 18.4 C 0 km/h
2208 19-07-2010 09:44:02 19.4 C 8.51 g/m*3 19.4 C 0 km/h
2209 19-07-2010 09:56:02 20.2 C 8.39 g/m*3 20.2 C 0 km/h
2210 19-07-2010 10:08:02 20.8 C 8.33 g/m*3 20.8 C 0 km/h
2211 19-07-2010 10:20:01 21.7 C 8.39 g/m*3 21.7 C 0 km/h
2212 19-07-2010 10:32:02 22.6 C 8.24 g/m*3 22.6 C 0 km/h
2213 19-07-2010 10:44:03 23.3 C 7.74 g/m*3 23.3 C 0 km/h
2214 19-07-2010 10:56:02 23.9 C 7.14 g/m*3 23.9 C 0 km/h
2215 19-07-2010 11:08:02 24.7 C 7.02 g/m*3 24.7 C 0 km/h
2216 19-07-2010 11:20:02 25.2 C 6.98 g/m*3 25.2 C 0 km/h
2217 19-07-2010 11:32:02 25.9 C 6.29 g/m*3 25.9 C 0 km/h
2218 19-07-2010 11:44:02 26.5 C 6.51 g/m*3 26.5 C 0 km/h
2219 19-07-2010 11:56:02 26.6 C 5.79 g/m*3 26.6 C 0 km/h
2220 19-07-2010 12:08:02 27.1 C 5.69 g/m*3 27.1 C 0 km/h
2221 19-07-2010 12:20:02 28.2 C 5.5 g/m*3 28.2 C 0 km/h
2222 19-07-2010 12:32:02 28.9 C 5.71 g/m*3 28.9 C 0 km/h
2223 19-07-2010 12:44:02 29.7 C 5.97 g/m*3 29.7 C 0 km/h
2224 19-07-2010 12:56:02 30.2 C 6.13 g/m*3 30.2 C 0 km/h
2225 19-07-2010 13:08:02 30.4 C 6.2 g/m*3 30.4 C 0 km/h
Sensor: Nr:Datum:Temp:Abs-Feuchte:Windchill:Wind:
Aussen-T/F 2226 19-07-2010 13:20:03 31.2 C 6.47 g/m*3 31.2 C 0 km/h
2227 19-07-2010 13:32:02 31.6 C 6.61 g/m*3 31.6 C 0 km/h
2228 19-07-2010 13:44:02 31.5 C 6.57 g/m*3 31.5 C 0 km/h
2229 19-07-2010 13:56:03 31.3 C 6.5 g/m*3 31.3 C 0 km/h
2230 19-07-2010 14:08:02 30.9 C 6.37 g/m*3 30.9 C 0 km/h
2231 19-07-2010 14:20:03 30.8 C 6.33 g/m*3 30.8 C 0 km/h
2232 19-07-2010 14:32:02 31 C 6.4 g/m*3 31 C 0 km/h
2233 19-07-2010 14:44:02 30.6 C 6.26 g/m*3 30.6 C 0 km/h
2234 19-07-2010 14:56:02 30.9 C 6.37 g/m*3 30.9 C 0 km/h
2235 19-07-2010 15:08:02 30.6 C 6.26 g/m*3 30.6 C 0 km/h
2236 19-07-2010 15:20:02 31.4 C 6.54 g/m*3 31.4 C 0 km/h
2237 19-07-2010 15:32:02 31.9 C 6.72 g/m*3 31.9 C 0 km/h
2238 19-07-2010 15:44:02 32.2 C 6.82 g/m*3 32.2 C 0 km/h
2239 19-07-2010 15:56:02 32.4 C 6.9 g/m*3 32.4 C 0 km/h
2240 19-07-2010 16:08:02 32.5 C 6.93 g/m*3 32.5 C 0 km/h
2241 19-07-2010 16:20:02 32.8 C 7.04 g/m*3 32.8 C 0 km/h
2242 19-07-2010 16:32:02 32.9 C 7.08 g/m*3 32.9 C 0 km/h
2243 19-07-2010 16:44:02 32.8 C 7.04 g/m*3 32.8 C 0 km/h
2244 19-07-2010 16:56:02 33.1 C 7.16 g/m*3 33.1 C 0 km/h
2245 19-07-2010 17:08:01 33.3 C 7.23 g/m*3 33.3 C 0 km/h
2246 19-07-2010 17:20:01 33.6 C 7.35 g/m*3 33.6 C 0 km/h
2247 19-07-2010 17:32:02 33.5 C 7.31 g/m*3 33.5 C 0 km/h
2248 19-07-2010 17:44:02 33.7 C 7.39 g/m*3 33.7 C 0 km/h
2249 19-07-2010 17:56:02 33.8 C 7.43 g/m*3 33.8 C 0 km/h
2250 19-07-2010 18:08:02 33.7 C 7.39 g/m*3 33.7 C 0 km/h
Sensor: Nr:Datum:Temp:Abs-Feuchte:Windchill:Wind:
Aussen-T/F 2251 19-07-2010 18:20:02 33.5 C 7.31 g/m*3 33.5 C 0 km/h
2252 19-07-2010 18:32:02 33.6 C 7.35 g/m*3 33.6 C 0 km/h
2253 19-07-2010 18:44:03 33.5 C 7.31 g/m*3 33.5 C 0 km/h
2254 19-07-2010 18:56:01 33.2 C 7.2 g/m*3 33.2 C 0 km/h
2255 19-07-2010 19:08:02 33.3 C 7.23 g/m*3 33.3 C 0 km/h
2256 19-07-2010 19:20:01 33 C 7.12 g/m*3 33 C 0 km/h
2257 19-07-2010 19:32:01 32.8 C 7.04 g/m*3 32.8 C 0 km/h
2258 19-07-2010 19:44:02 32.7 C 7.01 g/m*3 32.7 C 0 km/h
2259 19-07-2010 19:56:02 32.4 C 6.9 g/m*3 32.4 C 0 km/h
2260 19-07-2010 20:08:02 32 C 6.75 g/m*3 32 C 0 km/h
2261 19-07-2010 20:20:02 31.9 C 6.72 g/m*3 31.9 C 0 km/h
2262 19-07-2010 20:32:01 31.5 C 6.57 g/m*3 31.5 C 0 km/h
2263 19-07-2010 20:44:01 31.1 C 6.43 g/m*3 31.1 C 0 km/h
2264 19-07-2010 20:56:01 30.4 C 6.2 g/m*3 30.4 C 0 km/h
2265 19-07-2010 21:08:02 29.1 C 6.06 g/m*3 29.1 C 0 km/h
2266 19-07-2010 21:20:02 27.8 C 6.46 g/m*3 27.8 C 0 km/h
2267 19-07-2010 21:32:02 26.3 C 6.93 g/m*3 26.3 C 0 km/h
2268 19-07-2010 21:44:02 25.6 C 7.14 g/m*3 25.6 C 0 km/h
2269 19-07-2010 21:56:01 25.4 C 7.06 g/m*3 25.4 C 0 km/h
2270 19-07-2010 22:08:01 24.6 C 6.98 g/m*3 24.6 C 0 km/h
2271 19-07-2010 22:20:02 24.4 C 7.12 g/m*3 24.4 C 0 km/h
2272 19-07-2010 22:32:02 24 C 6.96 g/m*3 24 C 0 km/h
2273 19-07-2010 22:44:02 23.9 C 7.14 g/m*3 23.9 C 0 km/h
2274 19-07-2010 22:56:02 23.7 C 7.06 g/m*3 23.7 C 0 km/h
2275 19-07-2010 23:08:01 23.5 C 7.19 g/m*3 23.5 C 0 km/h
Sensor: Nr:Datum:Temp:Abs-Feuchte:Windchill:Wind:
Aussen-T/F 2276 19-07-2010 23:20:02 23.1 C 7.03 g/m*3 23.1 C 0 km/h
2277 19-07-2010 23:32:02 22.7 C 7.27 g/m*3 22.7 C 0 km/h
2278 19-07-2010 23:44:02 22.7 C 7.48 g/m*3 22.7 C 0 km/h
2279 19-07-2010 23:56:03 22.5 C 7.59 g/m*3 22.5 C 0 km/h
2280 20-07-2010 00:08:02 22.3 C 7.7 g/m*3 22.3 C 0 km/h
2281 20-07-2010 00:20:03 22 C 7.76 g/m*3 22 C 0 km/h
2282 20-07-2010 00:32:02 21.7 C 7.82 g/m*3 21.7 C 0 km/h
2283 20-07-2010 00:44:02 21.5 C 7.92 g/m*3 21.5 C 0 km/h
2284 20-07-2010 00:56:01 21.2 C 7.97 g/m*3 21.2 C 0 km/h
2285 20-07-2010 01:08:01 20.9 C 8.2 g/m*3 20.9 C 0 km/h
2286 20-07-2010 01:20:02 20.7 C 8.1 g/m*3 20.7 C 0 km/h
2287 20-07-2010 01:32:01 20.4 C 8.14 g/m*3 20.4 C 0 km/h
2288 20-07-2010 01:44:01 20.2 C 7.87 g/m*3 20.2 C 0 km/h
2289 20-07-2010 01:56:01 19.9 C 8.08 g/m*3 19.9 C 0 km/h
2290 20-07-2010 02:08:02 19.7 C 8.15 g/m*3 19.7 C 0 km/h
2291 20-07-2010 02:20:02 19.6 C 8.1 g/m*3 19.6 C 0 km/h
2292 20-07-2010 02:32:01 19.4 C 8.18 g/m*3 19.4 C 0 km/h
2293 20-07-2010 02:44:01 19.1 C 8.36 g/m*3 19.1 C 0 km/h
2294 20-07-2010 02:56:02 18.8 C 8.37 g/m*3 18.8 C 0 km/h
2295 20-07-2010 03:08:02 18.5 C 8.23 g/m*3 18.5 C 0 km/h
2296 20-07-2010 03:20:01 18.4 C 8.34 g/m*3 18.4 C 0 km/h
2297 20-07-2010 03:32:01 18.1 C 8.19 g/m*3 18.1 C 0 km/h
2298 20-07-2010 03:44:01 18.1 C 8.34 g/m*3 18.1 C 0 km/h
2299 20-07-2010 03:56:01 17.9 C 8.7 g/m*3 17.9 C 0 km/h
2300 20-07-2010 04:08:01 17.7 C 8.45 g/m*3 17.7 C 0 km/h
Sensor: Nr:Datum:Temp:Abs-Feuchte:Windchill:Wind:
Aussen-T/F 2301 20-07-2010 04:20:01 17.4 C 8.45 g/m*3 17.4 C 0 km/h
2302 20-07-2010 04:32:01 17.3 C 8.54 g/m*3 17.3 C 0 km/h
2303 20-07-2010 04:44:01 17 C 8.39 g/m*3 17 C 0 km/h
2304 20-07-2010 04:56:01 16.8 C 8.58 g/m*3 16.8 C 0 km/h
2305 20-07-2010 05:08:01 16.7 C 8.53 g/m*3 16.7 C 0 km/h
2306 20-07-2010 05:20:02 16.6 C 8.62 g/m*3 16.6 C 0 km/h
2307 20-07-2010 05:32:01 16.4 C 8.51 g/m*3 16.4 C 0 km/h
2308 20-07-2010 05:44:01 16.4 C 8.65 g/m*3 16.4 C 0 km/h
2309 20-07-2010 05:56:02 16.3 C 8.6 g/m*3 16.3 C 0 km/h
2310 20-07-2010 06:08:01 16.1 C 8.77 g/m*3 16.1 C 0 km/h
2311 20-07-2010 06:20:02 16 C 8.86 g/m*3 16 C 0 km/h
2312 20-07-2010 06:32:01 16.1 C 9.05 g/m*3 16.1 C 0 km/h
2313 20-07-2010 06:44:01 16.1 C 9.05 g/m*3 16.1 C 0 km/h
2314 20-07-2010 06:56:02 16.2 C 9.1 g/m*3 16.2 C 0 km/h
2315 20-07-2010 07:08:01 16.4 C 9.21 g/m*3 16.4 C 0 km/h
2316 20-07-2010 07:20:01 16.5 C 9.27 g/m*3 16.5 C 0 km/h
2317 20-07-2010 07:32:01 16.8 C 9.29 g/m*3 16.8 C 0 km/h
2318 20-07-2010 07:44:01 17.1 C 9.32 g/m*3 17.1 C 0 km/h
2319 20-07-2010 07:56:02 17.1 C 9.17 g/m*3 17.1 C 0 km/h
2320 20-07-2010 08:08:01 17.3 C 9.13 g/m*3 17.3 C 0 km/h
2321 20-07-2010 08:20:01 17.6 C 9.15 g/m*3 17.6 C 0 km/h
2322 20-07-2010 08:32:02 17.9 C 9.16 g/m*3 17.9 C 0 km/h
2323 20-07-2010 08:44:02 18.5 C 9.33 g/m*3 18.5 C 0 km/h
2324 20-07-2010 08:56:01 18.9 C 9.4 g/m*3 18.9 C 0 km/h
2325 20-07-2010 09:08:02 19.6 C 9.45 g/m*3 19.6 C 0 km/h
Sensor: Nr:Datum:Temp:Abs-Feuchte:Windchill:Wind:
Aussen-T/F 2326 20-07-2010 09:20:01 20.3 C 9.32 g/m*3 20.3 C 0 km/h
2327 20-07-2010 09:32:02 20.9 C 9.29 g/m*3 20.9 C 0 km/h
2328 20-07-2010 09:44:02 21.7 C 8.97 g/m*3 21.7 C 0 km/h
2329 20-07-2010 09:56:01 22.3 C 8.89 g/m*3 22.3 C 0 km/h
2330 20-07-2010 10:08:02 23.2 C 8.73 g/m*3 23.2 C 0 km/h
2331 20-07-2010 10:20:01 24.1 C 8.53 g/m*3 24.1 C 0 km/h
2332 20-07-2010 10:32:01 24.8 C 8.19 g/m*3 24.8 C 0 km/h
2333 20-07-2010 10:44:01 25.6 C 8.09 g/m*3 25.6 C 0 km/h
2334 20-07-2010 10:56:01 26.3 C 7.67 g/m*3 26.3 C 0 km/h
2335 20-07-2010 11:08:02 26.9 C 6.91 g/m*3 26.9 C 0 km/h
2336 20-07-2010 11:20:01 27.4 C 6.84 g/m*3 27.4 C 0 km/h
2337 20-07-2010 11:32:01 27.9 C 6.76 g/m*3 27.9 C 0 km/h
2338 20-07-2010 11:44:01 28.2 C 6.6 g/m*3 28.2 C 0 km/h
2339 20-07-2010 11:56:01 28.3 C 6.63 g/m*3 28.3 C 0 km/h
2340 20-07-2010 12:08:01 29 C 6.03 g/m*3 29 C 0 km/h
2341 20-07-2010 12:20:02 30 C 6.37 g/m*3 30 C 0 km/h
2342 20-07-2010 12:32:01 30.7 C 6.3 g/m*3 30.7 C 0 km/h
2343 20-07-2010 12:44:01 31 C 6.4 g/m*3 31 C 0 km/h
2344 20-07-2010 12:56:01 31.4 C 6.54 g/m*3 31.4 C 0 km/h
2345 20-07-2010 13:08:01 31.7 C 6.64 g/m*3 31.7 C 0 km/h
2346 20-07-2010 13:20:02 32.1 C 6.79 g/m*3 32.1 C 0 km/h
2347 20-07-2010 13:32:01 32.5 C 6.93 g/m*3 32.5 C 0 km/h
2348 20-07-2010 13:44:01 32.5 C 6.93 g/m*3 32.5 C 0 km/h
2349 20-07-2010 13:56:02 32.3 C 6.86 g/m*3 32.3 C 0 km/h
2350 20-07-2010 14:08:01 31.8 C 6.68 g/m*3 31.8 C 0 km/h
Sensor: Nr:Datum:Temp:Abs-Feuchte:Windchill:Wind:
Aussen-T/F 2351 20-07-2010 14:20:02 31.8 C 6.68 g/m*3 31.8 C 0 km/h
2352 20-07-2010 14:32:01 31.5 C 6.57 g/m*3 31.5 C 0 km/h
2353 20-07-2010 14:44:01 31.8 C 6.68 g/m*3 31.8 C 0 km/h
2354 20-07-2010 14:56:02 32 C 6.75 g/m*3 32 C 0 km/h
2355 20-07-2010 15:08:01 32 C 6.75 g/m*3 32 C 0 km/h
2356 20-07-2010 15:20:01 32.1 C 6.79 g/m*3 32.1 C 0 km/h
2357 20-07-2010 15:32:02 32.3 C 6.86 g/m*3 32.3 C 0 km/h
2358 20-07-2010 15:44:02 32.8 C 7.04 g/m*3 32.8 C 0 km/h
2359 20-07-2010 15:56:01 32.5 C 6.93 g/m*3 32.5 C 0 km/h
2360 20-07-2010 16:08:02 32.7 C 7.01 g/m*3 32.7 C 0 km/h
2361 20-07-2010 16:20:01 33.1 C 7.16 g/m*3 33.1 C 0 km/h
2362 20-07-2010 16:32:02 33 C 7.12 g/m*3 33 C 0 km/h
2363 20-07-2010 16:44:02 33 C 7.12 g/m*3 33 C 0 km/h
2364 20-07-2010 16:56:01 33.5 C 7.31 g/m*3 33.5 C 0 km/h
2365 20-07-2010 17:08:02 33.3 C 7.23 g/m*3 33.3 C 0 km/h
2366 20-07-2010 17:20:01 33.3 C 7.23 g/m*3 33.3 C 0 km/h
2367 20-07-2010 17:32:01 33.2 C 7.2 g/m*3 33.2 C 0 km/h
2368 20-07-2010 17:44:02 33.4 C 7.27 g/m*3 33.4 C 0 km/h
2369 20-07-2010 17:56:01 33.1 C 7.16 g/m*3 33.1 C 0 km/h
2370 20-07-2010 18:08:02 33.3 C 7.23 g/m*3 33.3 C 0 km/h
2371 20-07-2010 18:20:02 33.3 C 7.23 g/m*3 33.3 C 0 km/h
2372 20-07-2010 18:32:01 32.7 C 7.01 g/m*3 32.7 C 0 km/h
2373 20-07-2010 18:44:01 32.7 C 7.01 g/m*3 32.7 C 0 km/h
2374 20-07-2010 18:56:01 32.6 C 6.97 g/m*3 32.6 C 0 km/h
2375 20-07-2010 19:08:02 32.3 C 6.86 g/m*3 32.3 C 0 km/h
Sensor: Nr:Datum:Temp:Abs-Feuchte:Windchill:Wind:
Aussen-T/F 2376 20-07-2010 19:20:01 31.7 C 6.64 g/m*3 31.7 C 0 km/h
2377 20-07-2010 19:32:02 31.9 C 6.72 g/m*3 31.9 C 0 km/h
2378 20-07-2010 19:44:02 32.1 C 6.79 g/m*3 32.1 C 0 km/h
2379 20-07-2010 19:56:01 32.1 C 6.79 g/m*3 32.1 C 0 km/h
2380 20-07-2010 20:08:02 32 C 6.75 g/m*3 32 C 0 km/h
2381 20-07-2010 20:20:01 31.5 C 6.57 g/m*3 31.5 C 0 km/h
2382 20-07-2010 20:32:01 30.8 C 6.33 g/m*3 30.8 C 0 km/h
2383 20-07-2010 20:44:01 30 C 6.06 g/m*3 30 C 0 km/h
2384 20-07-2010 20:56:01 29.3 C 6.13 g/m*3 29.3 C 0 km/h
2385 20-07-2010 21:08:02 28.1 C 6.56 g/m*3 28.1 C 0 km/h
2386 20-07-2010 21:20:01 26.9 C 6.65 g/m*3 26.9 C 0 km/h
2387 20-07-2010 21:32:01 26.4 C 6.47 g/m*3 26.4 C 0 km/h
2388 20-07-2010 21:44:02 25.7 C 6.22 g/m*3 25.7 C 0 km/h
2389 20-07-2010 21:56:01 25.3 C 6.09 g/m*3 25.3 C 0 km/h
2390 20-07-2010 22:09:02 24.5 C 6.27 g/m*3 24.5 C 0 km/h
2391 20-07-2010 22:21:02 24.5 C 6.71 g/m*3 24.5 C 0 km/h
2392 20-07-2010 22:33:02 24.5 C 6.71 g/m*3 24.5 C 0 km/h
2393 20-07-2010 22:45:02 24.4 C 6.68 g/m*3 24.4 C 0 km/h
2394 20-07-2010 22:57:02 24.1 C 6.56 g/m*3 24.1 C 0 km/h
2395 20-07-2010 23:09:02 23.8 C 6.67 g/m*3 23.8 C 0 km/h
2396 20-07-2010 23:21:02 23.7 C 6.84 g/m*3 23.7 C 0 km/h
2397 20-07-2010 23:33:02 23.5 C 6.98 g/m*3 23.5 C 0 km/h
2398 20-07-2010 23:45:02 23.4 C 6.94 g/m*3 23.4 C 0 km/h
2399 20-07-2010 23:57:02 23 C 7.19 g/m*3 23 C 0 km/h
2400 21-07-2010 00:09:02 22.5 C 7.39 g/m*3 22.5 C 0 km/h
Sensor: Nr:Datum:Temp:Abs-Feuchte:Windchill:Wind:
Aussen-T/F 2401 21-07-2010 00:21:02 22.3 C 7.5 g/m*3 22.3 C 0 km/h
2402 21-07-2010 00:33:02 21.9 C 7.72 g/m*3 21.9 C 0 km/h
2403 21-07-2010 00:45:02 21.7 C 7.63 g/m*3 21.7 C 0 km/h
2404 21-07-2010 00:57:02 21.5 C 7.73 g/m*3 21.5 C 0 km/h
2405 21-07-2010 01:09:03 21.3 C 7.83 g/m*3 21.3 C 0 km/h
2406 21-07-2010 01:21:03 21.1 C 7.92 g/m*3 21.1 C 0 km/h
2407 21-07-2010 01:33:03 20.9 C 8.01 g/m*3 20.9 C 0 km/h
2408 21-07-2010 01:45:03 20.6 C 8.05 g/m*3 20.6 C 0 km/h
2409 21-07-2010 01:57:03 20.4 C 8.31 g/m*3 20.4 C 0 km/h
2410 21-07-2010 02:09:03 20 C 8.12 g/m*3 20 C 0 km/h
2411 21-07-2010 02:21:03 20 C 8.3 g/m*3 20 C 0 km/h
2412 21-07-2010 02:33:03 19.7 C 8.49 g/m*3 19.7 C 0 km/h
2413 21-07-2010 02:45:03 19.4 C 8.34 g/m*3 19.4 C 0 km/h
2414 21-07-2010 02:57:03 19.3 C 8.29 g/m*3 19.3 C 0 km/h
2415 21-07-2010 03:09:03 19.2 C 8.41 g/m*3 19.2 C 0 km/h
2416 21-07-2010 03:21:03 19 C 8.31 g/m*3 19 C 0 km/h
2417 21-07-2010 03:33:03 18.7 C 8.33 g/m*3 18.7 C 0 km/h
2418 21-07-2010 03:45:03 18.6 C 8.44 g/m*3 18.6 C 0 km/h
2419 21-07-2010 03:57:03 18.4 C 8.49 g/m*3 18.4 C 0 km/h
2420 21-07-2010 04:09:03 18.4 C 8.49 g/m*3 18.4 C 0 km/h
2421 21-07-2010 04:21:03 18.3 C 8.44 g/m*3 18.3 C 0 km/h
2422 21-07-2010 04:33:03 18.1 C 8.65 g/m*3 18.1 C 0 km/h
2423 21-07-2010 04:45:03 17.9 C 8.7 g/m*3 17.9 C 0 km/h
2424 21-07-2010 04:57:03 17.7 C 8.6 g/m*3 17.7 C 0 km/h
2425 21-07-2010 05:09:03 17.6 C 8.55 g/m*3 17.6 C 0 km/h
Sensor: Nr:Datum:Temp:Abs-Feuchte:Windchill:Wind:
Aussen-T/F 2426 21-07-2010 05:21:04 17.4 C 8.6 g/m*3 17.4 C 0 km/h
2427 21-07-2010 05:33:04 17.4 C 8.74 g/m*3 17.4 C 0 km/h
2428 21-07-2010 05:45:04 17.2 C 8.93 g/m*3 17.2 C 0 km/h
2429 21-07-2010 05:57:04 17.3 C 8.99 g/m*3 17.3 C 0 km/h
2430 21-07-2010 06:09:04 17.1 C 8.88 g/m*3 17.1 C 0 km/h
2431 21-07-2010 06:21:04 17 C 8.68 g/m*3 17 C 0 km/h
2432 21-07-2010 06:33:04 17.1 C 8.88 g/m*3 17.1 C 0 km/h
2433 21-07-2010 06:45:04 17.2 C 8.93 g/m*3 17.2 C 0 km/h
2434 21-07-2010 06:57:04 17.4 C 9.19 g/m*3 17.4 C 0 km/h
2435 21-07-2010 07:09:02 17.4 C 9.19 g/m*3 17.4 C 0 km/h
2436 21-07-2010 07:21:01 17.6 C 9.45 g/m*3 17.6 C 0 km/h
2437 21-07-2010 07:33:02 17.7 C 9.35 g/m*3 17.7 C 0 km/h
2438 21-07-2010 07:45:02 18 C 9.22 g/m*3 18 C 0 km/h
2439 21-07-2010 07:57:02 18.3 C 9.38 g/m*3 18.3 C 0 km/h
2440 21-07-2010 08:09:02 18.5 C 9.18 g/m*3 18.5 C 0 km/h
2441 21-07-2010 08:21:01 18.8 C 9.18 g/m*3 18.8 C 0 km/h
2442 21-07-2010 08:33:02 19.2 C 9.07 g/m*3 19.2 C 0 km/h
2443 21-07-2010 08:45:01 19.4 C 9.01 g/m*3 19.4 C 0 km/h
2444 21-07-2010 08:57:01 20.1 C 8.87 g/m*3 20.1 C 0 km/h
2445 21-07-2010 09:09:02 20.6 C 9.31 g/m*3 20.6 C 0 km/h
2446 21-07-2010 09:21:02 21.4 C 9.37 g/m*3 21.4 C 0 km/h
2447 21-07-2010 09:33:02 22.4 C 9.53 g/m*3 22.4 C 0 km/h
2448 21-07-2010 09:45:01 23.3 C 9.41 g/m*3 23.3 C 0 km/h
2449 21-07-2010 09:57:01 23.9 C 9.3 g/m*3 23.9 C 0 km/h
2450 21-07-2010 10:09:02 24.7 C 9.28 g/m*3 24.7 C 0 km/h
Sensor: Nr:Datum:Temp:Abs-Feuchte:Windchill:Wind:
Aussen-T/F 2451 21-07-2010 10:21:02 25.7 C 9.1 g/m*3 25.7 C 0 km/h
2452 21-07-2010 10:33:01 26.6 C 8.56 g/m*3 26.6 C 0 km/h
2453 21-07-2010 10:45:02 27.3 C 8.11 g/m*3 27.3 C 0 km/h
2454 21-07-2010 10:57:02 28.4 C 7.78 g/m*3 28.4 C 0 km/h
2455 21-07-2010 11:09:01 28.9 C 7.43 g/m*3 28.9 C 0 km/h
2456 21-07-2010 11:21:02 29.3 C 7.3 g/m*3 29.3 C 0 km/h
2457 21-07-2010 11:33:01 29.7 C 7.46 g/m*3 29.7 C 0 km/h
2458 21-07-2010 11:45:02 30 C 7.58 g/m*3 30 C 0 km/h
2459 21-07-2010 11:57:02 30.4 C 7.13 g/m*3 30.4 C 0 km/h
2460 21-07-2010 12:09:02 30.7 C 6.61 g/m*3 30.7 C 0 km/h
2461 21-07-2010 12:21:02 31.2 C 6.47 g/m*3 31.2 C 0 km/h
2462 21-07-2010 12:33:02 31.6 C 6.61 g/m*3 31.6 C 0 km/h
2463 21-07-2010 12:45:02 31.6 C 6.61 g/m*3 31.6 C 0 km/h
2464 21-07-2010 12:57:02 31.7 C 6.64 g/m*3 31.7 C 0 km/h
2465 21-07-2010 13:09:01 32.1 C 6.79 g/m*3 32.1 C 0 km/h
2466 21-07-2010 13:21:02 32.5 C 6.93 g/m*3 32.5 C 0 km/h
2467 21-07-2010 13:33:02 32.6 C 6.97 g/m*3 32.6 C 0 km/h
2468 21-07-2010 13:45:02 32.6 C 6.97 g/m*3 32.6 C 0 km/h
2469 21-07-2010 13:57:02 32.8 C 7.04 g/m*3 32.8 C 0 km/h
2470 21-07-2010 14:09:02 32.6 C 6.97 g/m*3 32.6 C 0 km/h
2471 21-07-2010 14:21:02 32.4 C 6.9 g/m*3 32.4 C 0 km/h
2472 21-07-2010 14:33:02 32.5 C 6.93 g/m*3 32.5 C 0 km/h
2473 21-07-2010 14:45:01 32.6 C 6.97 g/m*3 32.6 C 0 km/h
2474 21-07-2010 14:57:01 32.8 C 7.04 g/m*3 32.8 C 0 km/h
2475 21-07-2010 15:09:02 32.6 C 6.97 g/m*3 32.6 C 0 km/h
Sensor: Nr:Datum:Temp:Abs-Feuchte:Windchill:Wind:
Aussen-T/F 2476 21-07-2010 15:21:01 32.6 C 6.97 g/m*3 32.6 C 0 km/h
2477 21-07-2010 15:33:01 32.4 C 6.9 g/m*3 32.4 C 0 km/h
2478 21-07-2010 15:45:01 32.8 C 7.04 g/m*3 32.8 C 0 km/h
2479 21-07-2010 15:57:01 32.4 C 6.9 g/m*3 32.4 C 0 km/h
2480 21-07-2010 16:09:02 32.3 C 6.86 g/m*3 32.3 C 0 km/h
2481 21-07-2010 16:21:01 32.3 C 6.86 g/m*3 32.3 C 0 km/h
2482 21-07-2010 16:33:02 32.3 C 6.86 g/m*3 32.3 C 0 km/h
2483 21-07-2010 16:45:02 32.8 C 7.04 g/m*3 32.8 C 0 km/h
2484 21-07-2010 16:57:02 32.5 C 6.93 g/m*3 32.5 C 0 km/h
2485 21-07-2010 17:09:02 32.1 C 6.79 g/m*3 32.1 C 0 km/h
2486 21-07-2010 17:21:02 31.9 C 6.72 g/m*3 31.9 C 0 km/h
2487 21-07-2010 17:33:02 31.7 C 6.64 g/m*3 31.7 C 0 km/h
2488 21-07-2010 17:45:02 31.1 C 6.76 g/m*3 31.1 C 0 km/h
2489 21-07-2010 17:57:02 30.7 C 6.93 g/m*3 30.7 C 0 km/h
2490 21-07-2010 18:09:02 30.4 C 7.13 g/m*3 30.4 C 0 km/h
2491 21-07-2010 18:21:02 30.3 C 7.4 g/m*3 30.3 C 0 km/h
2492 21-07-2010 18:33:02 30.3 C 7.4 g/m*3 30.3 C 0 km/h
2493 21-07-2010 18:45:02 30 C 7.28 g/m*3 30 C 0 km/h
2494 21-07-2010 18:57:02 29.6 C 7.42 g/m*3 29.6 C 0 km/h
2495 21-07-2010 19:09:02 29.5 C 7.67 g/m*3 29.5 C 0 km/h
2496 21-07-2010 19:21:02 29.4 C 7.63 g/m*3 29.4 C 0 km/h
2497 21-07-2010 19:33:02 28.9 C 7.71 g/m*3 28.9 C 0 km/h
2498 21-07-2010 19:45:01 28.5 C 7.83 g/m*3 28.5 C 0 km/h
2499 21-07-2010 19:57:01 27.3 C 9.16 g/m*3 27.3 C 0 km/h
2500 21-07-2010 20:09:02 23.7 C 11.55 g/m*3 23.7 C 0 km/h
Sensor: Nr:Datum:Temp:Abs-Feuchte:Windchill:Wind:
Aussen-T/F 2501 21-07-2010 20:21:01 23.4 C 12.41 g/m*3 23.4 C 0 km/h
2502 21-07-2010 20:33:01 23.7 C 12.62 g/m*3 23.7 C 0 km/h
2503 21-07-2010 20:45:01 23.9 C 12.33 g/m*3 23.9 C 0 km/h
2504 21-07-2010 20:57:01 23.2 C 11.85 g/m*3 23.2 C 0 km/h
2505 21-07-2010 21:09:01 23.3 C 11.71 g/m*3 23.3 C 0 km/h
2506 21-07-2010 21:21:02 23.1 C 11.78 g/m*3 23.1 C 0 km/h
2507 21-07-2010 21:33:01 22.6 C 12.05 g/m*3 22.6 C 0 km/h
2508 21-07-2010 21:45:01 23 C 11.92 g/m*3 23 C 0 km/h
2509 21-07-2010 21:57:01 23.1 C 11.78 g/m*3 23.1 C 0 km/h
2510 21-07-2010 22:10:03 23.3 C 11.92 g/m*3 23.3 C 0 km/h
2511 21-07-2010 22:22:03 23 C 11.51 g/m*3 23 C 0 km/h
2512 21-07-2010 22:34:03 22.9 C 11.85 g/m*3 22.9 C 0 km/h
2513 21-07-2010 22:46:03 22.9 C 11.85 g/m*3 22.9 C 0 km/h
2514 21-07-2010 22:58:03 22.9 C 11.65 g/m*3 22.9 C 0 km/h
2515 21-07-2010 23:10:03 23 C 11.51 g/m*3 23 C 0 km/h
2516 21-07-2010 23:22:03 23 C 11.3 g/m*3 23 C 0 km/h
2517 21-07-2010 23:34:03 22.9 C 11.44 g/m*3 22.9 C 0 km/h
2518 21-07-2010 23:46:03 22.7 C 11.52 g/m*3 22.7 C 0 km/h
2519 21-07-2010 23:58:03 22.8 C 11.58 g/m*3 22.8 C 0 km/h
2520 22-07-2010 00:10:03 22.7 C 11.52 g/m*3 22.7 C 0 km/h
2521 22-07-2010 00:22:03 22.6 C 11.65 g/m*3 22.6 C 0 km/h
2522 22-07-2010 00:34:03 22.5 C 11.58 g/m*3 22.5 C 0 km/h
2523 22-07-2010 00:46:04 22.5 C 11.58 g/m*3 22.5 C 0 km/h
2524 22-07-2010 00:58:04 22.5 C 11.58 g/m*3 22.5 C 0 km/h
2525 22-07-2010 01:10:04 22.4 C 11.72 g/m*3 22.4 C 0 km/h
Sensor: Nr:Datum:Temp:Abs-Feuchte:Windchill:Wind:
Aussen-T/F 2526 22-07-2010 01:22:04 22.4 C 11.72 g/m*3 22.4 C 0 km/h
2527 22-07-2010 01:34:04 22.3 C 11.65 g/m*3 22.3 C 0 km/h
2528 22-07-2010 01:46:04 22 C 11.45 g/m*3 22 C 0 km/h
2529 22-07-2010 01:58:04 21.7 C 11.64 g/m*3 21.7 C 0 km/h
2530 22-07-2010 02:10:04 21.5 C 11.69 g/m*3 21.5 C 0 km/h
2531 22-07-2010 02:22:04 21.3 C 11.56 g/m*3 21.3 C 0 km/h
2532 22-07-2010 02:34:04 21.2 C 11.49 g/m*3 21.2 C 0 km/h
2533 22-07-2010 02:46:04 21.2 C 11.49 g/m*3 21.2 C 0 km/h
2534 22-07-2010 02:58:04 21.2 C 11.3 g/m*3 21.2 C 0 km/h
2535 22-07-2010 03:10:04 21.1 C 11.42 g/m*3 21.1 C 0 km/h
2536 22-07-2010 03:22:04 21.1 C 11.42 g/m*3 21.1 C 0 km/h
2537 22-07-2010 03:34:04 20.9 C 11.29 g/m*3 20.9 C 0 km/h
2538 22-07-2010 03:46:04 20.8 C 11.05 g/m*3 20.8 C 0 km/h
2539 22-07-2010 03:58:04 20.7 C 10.62 g/m*3 20.7 C 0 km/h
2540 22-07-2010 04:10:04 20.7 C 10.62 g/m*3 20.7 C 0 km/h
2541 22-07-2010 04:22:04 20.8 C 10.5 g/m*3 20.8 C 0 km/h
2542 22-07-2010 04:34:04 20.5 C 10.5 g/m*3 20.5 C 0 km/h
2543 22-07-2010 04:46:04 20.3 C 10.2 g/m*3 20.3 C 0 km/h
2544 22-07-2010 04:58:05 20.2 C 9.97 g/m*3 20.2 C 0 km/h
2545 22-07-2010 05:10:05 20.1 C 9.73 g/m*3 20.1 C 0 km/h
2546 22-07-2010 05:22:05 20.1 C 9.73 g/m*3 20.1 C 0 km/h
2547 22-07-2010 05:34:05 20 C 9.68 g/m*3 20 C 0 km/h
2548 22-07-2010 05:46:05 19.9 C 9.79 g/m*3 19.9 C 0 km/h
2549 22-07-2010 05:58:05 19.4 C 10.18 g/m*3 19.4 C 0 km/h
2550 22-07-2010 06:10:05 19.4 C 10.01 g/m*3 19.4 C 0 km/h
Sensor: Nr:Datum:Temp:Abs-Feuchte:Windchill:Wind:
Aussen-T/F 2551 22-07-2010 06:22:05 19.1 C 10.33 g/m*3 19.1 C 0 km/h
2552 22-07-2010 06:34:05 18.6 C 11.14 g/m*3 18.6 C 0 km/h
2553 22-07-2010 06:46:01 18.5 C 11.39 g/m*3 18.5 C 0 km/h
2554 22-07-2010 06:58:01 19 C 11.73 g/m*3 19 C 0 km/h
2555 22-07-2010 07:10:02 19 C 11.57 g/m*3 19 C 0 km/h
2556 22-07-2010 07:22:01 18.8 C 11.76 g/m*3 18.8 C 0 km/h
2557 22-07-2010 07:34:01 18.9 C 11.66 g/m*3 18.9 C 0 km/h
2558 22-07-2010 07:46:01 19.5 C 11.58 g/m*3 19.5 C 0 km/h
2559 22-07-2010 07:58:01 20 C 11.06 g/m*3 20 C 0 km/h
2560 22-07-2010 08:10:02 20.3 C 11.08 g/m*3 20.3 C 0 km/h
2561 22-07-2010 08:22:02 20.7 C 11.16 g/m*3 20.7 C 0 km/h
2562 22-07-2010 08:34:01 21 C 10.81 g/m*3 21 C 0 km/h
2563 22-07-2010 08:46:02 21.4 C 10.87 g/m*3 21.4 C 0 km/h
2564 22-07-2010 08:58:02 21.8 C 10.74 g/m*3 21.8 C 0 km/h
2565 22-07-2010 09:10:01 21.6 C 10.62 g/m*3 21.6 C 0 km/h
2566 22-07-2010 09:22:02 21.5 C 10.56 g/m*3 21.5 C 0 km/h
2567 22-07-2010 09:34:01 22.2 C 10.21 g/m*3 22.2 C 0 km/h
2568 22-07-2010 09:46:02 22.4 C 10.13 g/m*3 22.4 C 0 km/h
2569 22-07-2010 09:58:02 22.6 C 10.04 g/m*3 22.6 C 0 km/h
2570 22-07-2010 10:10:02 22.3 C 10.07 g/m*3 22.3 C 0 km/h
2571 22-07-2010 10:22:02 22.2 C 10.21 g/m*3 22.2 C 0 km/h
2572 22-07-2010 10:34:02 22.1 C 10.15 g/m*3 22.1 C 0 km/h
2573 22-07-2010 10:46:02 20.9 C 11.11 g/m*3 20.9 C 0 km/h
2574 22-07-2010 10:58:03 20.4 C 11.68 g/m*3 20.4 C 0 km/h
2575 22-07-2010 11:10:01 20.4 C 11.85 g/m*3 20.4 C 0 km/h
Sensor: Nr:Datum:Temp:Abs-Feuchte:Windchill:Wind:
Aussen-T/F 2576 22-07-2010 11:22:02 21.4 C 12.19 g/m*3 21.4 C 0 km/h
2577 22-07-2010 11:34:02 22 C 11.84 g/m*3 22 C 0 km/h
2578 22-07-2010 11:46:02 22.4 C 11.72 g/m*3 22.4 C 0 km/h
2579 22-07-2010 11:58:02 22.7 C 11.52 g/m*3 22.7 C 0 km/h
2580 22-07-2010 12:10:02 22.9 C 11.24 g/m*3 22.9 C 0 km/h
2581 22-07-2010 12:22:02 22.4 C 11.32 g/m*3 22.4 C 0 km/h
2582 22-07-2010 12:34:02 22.5 C 11.58 g/m*3 22.5 C 0 km/h
2583 22-07-2010 12:46:01 22.4 C 11.32 g/m*3 22.4 C 0 km/h
2584 22-07-2010 12:58:01 21.7 C 11.83 g/m*3 21.7 C 0 km/h
2585 22-07-2010 13:10:02 21.5 C 12.63 g/m*3 21.5 C 0 km/h
2586 22-07-2010 13:22:01 21 C 12.09 g/m*3 21 C 0 km/h
2587 22-07-2010 13:34:01 20.1 C 12.69 g/m*3 20.1 C 0 km/h
2588 22-07-2010 13:46:01 20.4 C 13.44 g/m*3 20.4 C 0 km/h
2589 22-07-2010 13:58:01 21.5 C 13.01 g/m*3 21.5 C 0 km/h
2590 22-07-2010 14:10:02 21.4 C 12.56 g/m*3 21.4 C 0 km/h
2591 22-07-2010 14:22:01 21.3 C 12.68 g/m*3 21.3 C 0 km/h
2592 22-07-2010 14:34:01 21.8 C 12.28 g/m*3 21.8 C 0 km/h
2593 22-07-2010 14:46:01 20.9 C 12.38 g/m*3 20.9 C 0 km/h
2594 22-07-2010 14:58:01 20.9 C 12.75 g/m*3 20.9 C 0 km/h
2595 22-07-2010 15:10:02 20.8 C 12.86 g/m*3 20.8 C 0 km/h
2596 22-07-2010 15:22:01 20.4 C 12.91 g/m*3 20.4 C 0 km/h
2597 22-07-2010 15:34:01 21.2 C 13.34 g/m*3 21.2 C 0 km/h
2598 22-07-2010 15:46:01 22 C 13 g/m*3 22 C 0 km/h
2599 22-07-2010 15:58:01 22.5 C 12.38 g/m*3 22.5 C 0 km/h
2600 22-07-2010 16:10:01 23.3 C 11.71 g/m*3 23.3 C 0 km/h
Sensor: Nr:Datum:Temp:Abs-Feuchte:Windchill:Wind:
Aussen-T/F 2601 22-07-2010 16:22:02 23.4 C 11.57 g/m*3 23.4 C 0 km/h
2602 22-07-2010 16:34:01 23.2 C 11.43 g/m*3 23.2 C 0 km/h
2603 22-07-2010 16:46:03 23.3 C 11.29 g/m*3 23.3 C 0 km/h
2604 22-07-2010 16:58:03 22.8 C 11.79 g/m*3 22.8 C 0 km/h
2605 22-07-2010 17:10:02 21.7 C 12.97 g/m*3 21.7 C 0 km/h
2606 22-07-2010 17:22:02 21.9 C 13.7 g/m*3 21.9 C 0 km/h
2607 22-07-2010 17:34:02 21.8 C 13.43 g/m*3 21.8 C 0 km/h
2608 22-07-2010 17:46:02 22.1 C 13.27 g/m*3 22.1 C 0 km/h
2609 22-07-2010 17:58:03 22.7 C 13.13 g/m*3 22.7 C 0 km/h
2610 22-07-2010 18:10:02 22.5 C 12.78 g/m*3 22.5 C 0 km/h
2611 22-07-2010 18:22:02 23.1 C 12.2 g/m*3 23.1 C 0 km/h
2612 22-07-2010 18:34:01 23.1 C 11.78 g/m*3 23.1 C 0 km/h
2613 22-07-2010 18:46:02 23 C 11.92 g/m*3 23 C 0 km/h
2614 22-07-2010 18:58:02 23.3 C 11.71 g/m*3 23.3 C 0 km/h
2615 22-07-2010 19:10:02 23.1 C 11.58 g/m*3 23.1 C 0 km/h
2616 22-07-2010 19:22:01 22.8 C 11.99 g/m*3 22.8 C 0 km/h
2617 22-07-2010 19:34:01 22.7 C 11.92 g/m*3 22.7 C 0 km/h
2618 22-07-2010 19:46:02 22.5 C 11.98 g/m*3 22.5 C 0 km/h
2619 22-07-2010 19:58:02 22.3 C 12.05 g/m*3 22.3 C 0 km/h
2620 22-07-2010 20:10:01 22.1 C 11.91 g/m*3 22.1 C 0 km/h
2621 22-07-2010 20:22:01 22 C 12.03 g/m*3 22 C 0 km/h
2622 22-07-2010 20:34:00 21.9 C 12.16 g/m*3 21.9 C 0 km/h
2623 22-07-2010 20:46:02 21.7 C 12.02 g/m*3 21.7 C 0 km/h
2624 22-07-2010 20:58:02 21.6 C 11.95 g/m*3 21.6 C 0 km/h
2625 22-07-2010 21:10:02 21.4 C 12 g/m*3 21.4 C 0 km/h
Sensor: Nr:Datum:Temp:Abs-Feuchte:Windchill:Wind:
Aussen-T/F 2626 22-07-2010 21:22:02 21.2 C 11.86 g/m*3 21.2 C 0 km/h
2627 22-07-2010 21:34:03 21 C 11.91 g/m*3 21 C 0 km/h
2628 22-07-2010 21:46:02 20.9 C 11.84 g/m*3 20.9 C 0 km/h
2629 22-07-2010 21:58:02 20.8 C 11.95 g/m*3 20.8 C 0 km/h
2630 22-07-2010 22:10:02 20.7 C 11.88 g/m*3 20.7 C 0 km/h
2631 22-07-2010 22:22:02 20.6 C 11.81 g/m*3 20.6 C 0 km/h
2632 22-07-2010 22:34:02 20.4 C 11.68 g/m*3 20.4 C 0 km/h
2633 22-07-2010 22:46:02 20.4 C 11.85 g/m*3 20.4 C 0 km/h
2634 22-07-2010 22:58:02 20.3 C 11.78 g/m*3 20.3 C 0 km/h
2635 22-07-2010 23:10:02 20.2 C 11.71 g/m*3 20.2 C 0 km/h
2636 22-07-2010 23:22:03 20.3 C 11.78 g/m*3 20.3 C 0 km/h
2637 22-07-2010 23:34:03 20.2 C 11.89 g/m*3 20.2 C 0 km/h
2638 22-07-2010 23:46:02 20.1 C 11.82 g/m*3 20.1 C 0 km/h
2639 22-07-2010 23:58:02 20.2 C 11.89 g/m*3 20.2 C 0 km/h
2640 23-07-2010 00:10:02 20.2 C 11.89 g/m*3 20.2 C 0 km/h
2641 23-07-2010 00:22:02 20.1 C 11.99 g/m*3 20.1 C 0 km/h
2642 23-07-2010 00:34:02 20 C 12.1 g/m*3 20 C 0 km/h
2643 23-07-2010 00:46:02 20.1 C 12.17 g/m*3 20.1 C 0 km/h
2644 23-07-2010 00:58:02 20.1 C 12.17 g/m*3 20.1 C 0 km/h
2645 23-07-2010 01:10:03 20 C 12.1 g/m*3 20 C 0 km/h
2646 23-07-2010 01:22:02 20 C 12.27 g/m*3 20 C 0 km/h
2647 23-07-2010 01:34:02 20 C 12.27 g/m*3 20 C 0 km/h
2648 23-07-2010 01:46:01 20 C 12.44 g/m*3 20 C 0 km/h
2649 23-07-2010 01:58:01 20 C 12.44 g/m*3 20 C 0 km/h
2650 23-07-2010 02:10:02 19.8 C 12.3 g/m*3 19.8 C 0 km/h
Sensor: Nr:Datum:Temp:Abs-Feuchte:Windchill:Wind:
Aussen-T/F 2651 23-07-2010 02:22:01 19.7 C 12.4 g/m*3 19.7 C 0 km/h
2652 23-07-2010 02:34:01 19.4 C 12.68 g/m*3 19.4 C 0 km/h
2653 23-07-2010 02:47:03 19 C 12.39 g/m*3 19 C 0 km/h
2654 23-07-2010 02:59:03 18.2 C 11.35 g/m*3 18.2 C 0 km/h
2655 23-07-2010 03:11:03 16.9 C 11.51 g/m*3 16.9 C 0 km/h
2656 23-07-2010 03:23:03 16.4 C 11.58 g/m*3 16.4 C 0 km/h
2657 23-07-2010 03:35:01 16.2 C 11.72 g/m*3 16.2 C 0 km/h
2658 23-07-2010 03:47:01 16.2 C 11.72 g/m*3 16.2 C 0 km/h
2659 23-07-2010 03:59:01 16 C 11.58 g/m*3 16 C 0 km/h
2660 23-07-2010 04:11:02 15.9 C 11.65 g/m*3 15.9 C 0 km/h
2661 23-07-2010 04:23:02 16 C 11.72 g/m*3 16 C 0 km/h
2662 23-07-2010 04:35:01 16.1 C 11.79 g/m*3 16.1 C 0 km/h
2663 23-07-2010 04:47:02 16.1 C 11.65 g/m*3 16.1 C 0 km/h
2664 23-07-2010 04:59:02 16.1 C 11.65 g/m*3 16.1 C 0 km/h
2665 23-07-2010 05:11:01 16 C 11.58 g/m*3 16 C 0 km/h
2666 23-07-2010 05:23:01 15.9 C 11.51 g/m*3 15.9 C 0 km/h
2667 23-07-2010 05:35:01 15.9 C 11.51 g/m*3 15.9 C 0 km/h
2668 23-07-2010 05:47:02 15.9 C 11.51 g/m*3 15.9 C 0 km/h
2669 23-07-2010 05:59:02 15.8 C 11.44 g/m*3 15.8 C 0 km/h
2670 23-07-2010 06:11:01 15.6 C 11.3 g/m*3 15.6 C 0 km/h
2671 23-07-2010 06:23:01 15.6 C 11.3 g/m*3 15.6 C 0 km/h
2672 23-07-2010 06:35:02 15.7 C 11.51 g/m*3 15.7 C 0 km/h
2673 23-07-2010 06:47:02 16 C 11.58 g/m*3 16 C 0 km/h
2674 23-07-2010 06:59:02 16.4 C 12 g/m*3 16.4 C 0 km/h
2675 23-07-2010 07:11:02 16.7 C 12.08 g/m*3 16.7 C 0 km/h
Sensor: Nr:Datum:Temp:Abs-Feuchte:Windchill:Wind:
Aussen-T/F 2676 23-07-2010 07:23:01 17 C 12.15 g/m*3 17 C 0 km/h
2677 23-07-2010 07:35:00 17.4 C 12.45 g/m*3 17.4 C 0 km/h
2678 23-07-2010 07:47:01 17.5 C 12.37 g/m*3 17.5 C 0 km/h
2679 23-07-2010 07:59:01 17.7 C 12.22 g/m*3 17.7 C 0 km/h
2680 23-07-2010 08:11:01 17.8 C 12.14 g/m*3 17.8 C 0 km/h
2681 23-07-2010 08:23:01 18 C 12.13 g/m*3 18 C 0 km/h
2682 23-07-2010 08:35:00 18 C 11.98 g/m*3 18 C 0 km/h
2683 23-07-2010 08:47:03 18.1 C 12.05 g/m*3 18.1 C 0 km/h
2684 23-07-2010 08:59:03 18.2 C 12.12 g/m*3 18.2 C 0 km/h
2685 23-07-2010 09:11:02 18.4 C 12.27 g/m*3 18.4 C 0 km/h
2686 23-07-2010 09:23:03 18.6 C 12.26 g/m*3 18.6 C 0 km/h
2687 23-07-2010 09:35:02 18.9 C 12.15 g/m*3 18.9 C 0 km/h
2688 23-07-2010 09:47:02 19.5 C 11.41 g/m*3 19.5 C 0 km/h
2689 23-07-2010 09:59:02 20 C 10.89 g/m*3 20 C 0 km/h
2690 23-07-2010 10:11:02 20.4 C 10.44 g/m*3 20.4 C 0 km/h
2691 23-07-2010 10:23:02 20.9 C 10.56 g/m*3 20.9 C 0 km/h
2692 23-07-2010 10:35:03 21.5 C 10.75 g/m*3 21.5 C 0 km/h
2693 23-07-2010 10:47:02 22 C 10.29 g/m*3 22 C 0 km/h
2694 23-07-2010 10:59:02 22.2 C 10.21 g/m*3 22.2 C 0 km/h
2695 23-07-2010 11:11:03 23.2 C 10.19 g/m*3 23.2 C 0 km/h
2696 23-07-2010 11:23:02 23.7 C 10.05 g/m*3 23.7 C 0 km/h
2697 23-07-2010 11:35:02 24.4 C 9.57 g/m*3 24.4 C 0 km/h
2698 23-07-2010 11:47:01 24.6 C 9.45 g/m*3 24.6 C 0 km/h
2699 23-07-2010 11:59:01 24.8 C 9.1 g/m*3 24.8 C 0 km/h
2700 23-07-2010 12:11:02 25.9 C 9.2 g/m*3 25.9 C 0 km/h
Sensor: Nr:Datum:Temp:Abs-Feuchte:Windchill:Wind:
Aussen-T/F 2701 23-07-2010 12:23:01 26.4 C 7.97 g/m*3 26.4 C 0 km/h
2702 23-07-2010 12:35:01 27.2 C 7.81 g/m*3 27.2 C 0 km/h
2703 23-07-2010 12:47:01 26.9 C 7.68 g/m*3 26.9 C 0 km/h
2704 23-07-2010 12:59:01 25.9 C 7.75 g/m*3 25.9 C 0 km/h
2705 23-07-2010 13:11:01 26.4 C 7.22 g/m*3 26.4 C 0 km/h
2706 23-07-2010 13:23:02 28.2 C 6.87 g/m*3 28.2 C 0 km/h
2707 23-07-2010 13:35:01 28.7 C 6.22 g/m*3 28.7 C 0 km/h
2708 23-07-2010 13:47:02 28 C 5.98 g/m*3 28 C 0 km/h
2709 23-07-2010 13:59:02 27.8 C 6.72 g/m*3 27.8 C 0 km/h
2710 23-07-2010 14:11:02 28.8 C 6.82 g/m*3 28.8 C 0 km/h
2711 23-07-2010 14:23:02 28.6 C 6.74 g/m*3 28.6 C 0 km/h
2712 23-07-2010 14:35:02 29.5 C 6.49 g/m*3 29.5 C 0 km/h
2713 23-07-2010 14:47:03 29.7 C 6.56 g/m*3 29.7 C 0 km/h
2714 23-07-2010 14:59:03 30.1 C 6.1 g/m*3 30.1 C 0 km/h
2715 23-07-2010 15:11:02 28.9 C 5.71 g/m*3 28.9 C 0 km/h
2716 23-07-2010 15:23:02 28.9 C 6.57 g/m*3 28.9 C 0 km/h
2717 23-07-2010 15:35:02 28.5 C 6.43 g/m*3 28.5 C 0 km/h
2718 23-07-2010 15:47:02 27.8 C 6.46 g/m*3 27.8 C 0 km/h
2719 23-07-2010 15:59:02 27.9 C 6.76 g/m*3 27.9 C 0 km/h
2720 23-07-2010 16:11:02 28.8 C 6.25 g/m*3 28.8 C 0 km/h
2721 23-07-2010 16:23:03 29.5 C 6.2 g/m*3 29.5 C 0 km/h
2722 23-07-2010 16:35:02 28.7 C 6.22 g/m*3 28.7 C 0 km/h
2723 23-07-2010 16:47:02 28.2 C 6.32 g/m*3 28.2 C 0 km/h
2724 23-07-2010 16:59:02 27.5 C 6.61 g/m*3 27.5 C 0 km/h
2725 23-07-2010 17:11:02 26.4 C 7.22 g/m*3 26.4 C 0 km/h
Sensor: Nr:Datum:Temp:Abs-Feuchte:Windchill:Wind:
Aussen-T/F 2726 23-07-2010 17:23:02 24.5 C 6.94 g/m*3 24.5 C 0 km/h
2727 23-07-2010 17:35:03 21.9 C 8.88 g/m*3 21.9 C 0 km/h
2728 23-07-2010 17:47:02 20.1 C 10.26 g/m*3 20.1 C 0 km/h
2729 23-07-2010 17:59:02 18.7 C 11.37 g/m*3 18.7 C 0 km/h
2730 23-07-2010 18:11:02 18.3 C 11.26 g/m*3 18.3 C 0 km/h
2731 23-07-2010 18:23:02 18 C 11.52 g/m*3 18 C 0 km/h
2732 23-07-2010 18:35:02 18 C 11.67 g/m*3 18 C 0 km/h
2733 23-07-2010 18:47:02 18.2 C 11.66 g/m*3 18.2 C 0 km/h
2734 23-07-2010 18:59:02 18 C 11.52 g/m*3 18 C 0 km/h
2735 23-07-2010 19:11:01 17.3 C 11.79 g/m*3 17.3 C 0 km/h
2736 23-07-2010 19:23:02 17.5 C 12.37 g/m*3 17.5 C 0 km/h
2737 23-07-2010 19:35:01 17 C 12.15 g/m*3 17 C 0 km/h
2738 23-07-2010 19:47:01 16.8 C 12.44 g/m*3 16.8 C 0 km/h
2739 23-07-2010 19:59:01 16.2 C 12.14 g/m*3 16.2 C 0 km/h
2740 23-07-2010 20:11:01 16 C 12.13 g/m*3 16 C 0 km/h
2741 23-07-2010 20:23:02 15.9 C 12.19 g/m*3 15.9 C 0 km/h
2742 23-07-2010 20:35:01 16 C 12.26 g/m*3 16 C 0 km/h
2743 23-07-2010 20:47:02 16.1 C 12.47 g/m*3 16.1 C 0 km/h
2744 23-07-2010 20:59:02 15.9 C 12.46 g/m*3 15.9 C 0 km/h
2745 23-07-2010 21:11:01 15.9 C 12.46 g/m*3 15.9 C 0 km/h
2746 23-07-2010 21:23:02 15.8 C 12.38 g/m*3 15.8 C 0 km/h
2747 23-07-2010 21:35:01 15.6 C 12.23 g/m*3 15.6 C 0 km/h
2748 23-07-2010 21:47:01 15.4 C 12.09 g/m*3 15.4 C 0 km/h
2749 23-07-2010 21:59:01 15.2 C 12.07 g/m*3 15.2 C 0 km/h
2750 23-07-2010 22:11:01 15.1 C 12 g/m*3 15.1 C 0 km/h
Sensor: Nr:Datum:Temp:Abs-Feuchte:Windchill:Wind:
Aussen-T/F 2751 23-07-2010 22:23:02 15.2 C 12.07 g/m*3 15.2 C 0 km/h
2752 23-07-2010 22:35:01 15.1 C 12 g/m*3 15.1 C 0 km/h
2753 23-07-2010 22:48:02 15.1 C 12 g/m*3 15.1 C 0 km/h
2754 23-07-2010 23:00:02 15.3 C 12.14 g/m*3 15.3 C 0 km/h
2755 23-07-2010 23:12:02 15.1 C 12 g/m*3 15.1 C 0 km/h
2756 23-07-2010 23:24:02 15.1 C 12.13 g/m*3 15.1 C 0 km/h
2757 23-07-2010 23:36:02 15 C 12.05 g/m*3 15 C 0 km/h
2758 23-07-2010 23:48:02 15 C 12.05 g/m*3 15 C 0 km/h
2759 24-07-2010 00:00:02 15 C 12.05 g/m*3 15 C 0 km/h
2760 24-07-2010 00:12:02 15 C 12.05 g/m*3 15 C 0 km/h
2761 24-07-2010 00:24:02 15 C 12.05 g/m*3 15 C 0 km/h
2762 24-07-2010 00:36:02 15 C 12.05 g/m*3 15 C 0 km/h
2763 24-07-2010 00:48:03 15.1 C 12.13 g/m*3 15.1 C 0 km/h
2764 24-07-2010 01:00:03 15 C 12.05 g/m*3 15 C 0 km/h
2765 24-07-2010 01:12:03 15 C 12.05 g/m*3 15 C 0 km/h
2766 24-07-2010 01:24:03 15.2 C 12.2 g/m*3 15.2 C 0 km/h
2767 24-07-2010 01:36:03 15.2 C 12.2 g/m*3 15.2 C 0 km/h
2768 24-07-2010 01:48:03 15.2 C 12.2 g/m*3 15.2 C 0 km/h
2769 24-07-2010 02:00:03 15.2 C 12.33 g/m*3 15.2 C 0 km/h
2770 24-07-2010 02:12:03 15.2 C 12.33 g/m*3 15.2 C 0 km/h
2771 24-07-2010 02:24:03 15.2 C 12.33 g/m*3 15.2 C 0 km/h
2772 24-07-2010 02:36:03 15.3 C 12.41 g/m*3 15.3 C 0 km/h
2773 24-07-2010 02:48:03 15.4 C 12.48 g/m*3 15.4 C 0 km/h
2774 24-07-2010 03:00:03 15.4 C 12.48 g/m*3 15.4 C 0 km/h
2775 24-07-2010 03:12:03 15.4 C 12.48 g/m*3 15.4 C 0 km/h
Sensor: Nr:Datum:Temp:Abs-Feuchte:Windchill:Wind:
Aussen-T/F 2776 24-07-2010 03:24:03 15.6 C 12.63 g/m*3 15.6 C 0 km/h
2777 24-07-2010 03:36:03 15.7 C 12.71 g/m*3 15.7 C 0 km/h
2778 24-07-2010 03:48:03 15.7 C 12.71 g/m*3 15.7 C 0 km/h
2779 24-07-2010 04:00:03 15.7 C 12.71 g/m*3 15.7 C 0 km/h
2780 24-07-2010 04:12:03 15.6 C 12.5 g/m*3 15.6 C 0 km/h
2781 24-07-2010 04:24:03 15.7 C 12.44 g/m*3 15.7 C 0 km/h
2782 24-07-2010 04:36:03 15.6 C 12.23 g/m*3 15.6 C 0 km/h
2783 24-07-2010 04:48:03 15.6 C 12.1 g/m*3 15.6 C 0 km/h
2784 24-07-2010 05:00:03 15.6 C 12.1 g/m*3 15.6 C 0 km/h
2785 24-07-2010 05:12:04 15.6 C 11.97 g/m*3 15.6 C 0 km/h
2786 24-07-2010 05:24:04 15.5 C 11.9 g/m*3 15.5 C 0 km/h
2787 24-07-2010 05:36:04 15.5 C 11.9 g/m*3 15.5 C 0 km/h
2788 24-07-2010 05:48:04 15.5 C 11.9 g/m*3 15.5 C 0 km/h
2789 24-07-2010 06:00:04 15.4 C 11.82 g/m*3 15.4 C 0 km/h
2790 24-07-2010 06:12:04 15.4 C 11.69 g/m*3 15.4 C 0 km/h
2791 24-07-2010 06:24:04 15.4 C 11.56 g/m*3 15.4 C 0 km/h
2792 24-07-2010 06:36:04 15.5 C 11.63 g/m*3 15.5 C 0 km/h
2793 24-07-2010 06:48:04 15.4 C 11.56 g/m*3 15.4 C 0 km/h
2794 24-07-2010 07:00:04 15.4 C 11.56 g/m*3 15.4 C 0 km/h
2795 24-07-2010 07:12:04 15.4 C 11.56 g/m*3 15.4 C 0 km/h
2796 24-07-2010 07:24:04 15.5 C 11.63 g/m*3 15.5 C 0 km/h
2797 24-07-2010 07:36:04 15.6 C 11.57 g/m*3 15.6 C 0 km/h
2798 24-07-2010 07:48:04 15.6 C 11.57 g/m*3 15.6 C 0 km/h
2799 24-07-2010 08:00:04 15.8 C 11.58 g/m*3 15.8 C 0 km/h
2800 24-07-2010 08:12:04 16 C 11.31 g/m*3 16 C 0 km/h
Sensor: Nr:Datum:Temp:Abs-Feuchte:Windchill:Wind:
Aussen-T/F 2801 24-07-2010 08:24:04 16.1 C 11.24 g/m*3 16.1 C 0 km/h
2802 24-07-2010 08:36:02 16.4 C 11.31 g/m*3 16.4 C 0 km/h
2803 24-07-2010 08:48:02 16.5 C 11.09 g/m*3 16.5 C 0 km/h
2804 24-07-2010 09:00:02 16.6 C 11.02 g/m*3 16.6 C 0 km/h
2805 24-07-2010 09:12:02 17 C 11 g/m*3 17 C 0 km/h
2806 24-07-2010 09:24:02 17.4 C 11.12 g/m*3 17.4 C 0 km/h
2807 24-07-2010 09:36:03 17.6 C 10.65 g/m*3 17.6 C 0 km/h
2808 24-07-2010 09:48:02 17.6 C 10.2 g/m*3 17.6 C 0 km/h
2809 24-07-2010 10:00:02 17.6 C 9.9 g/m*3 17.6 C 0 km/h
2810 24-07-2010 10:12:02 18.4 C 10.22 g/m*3 18.4 C 0 km/h
2811 24-07-2010 10:24:02 18.9 C 9.88 g/m*3 18.9 C 0 km/h
2812 24-07-2010 10:36:02 19.2 C 9.56 g/m*3 19.2 C 0 km/h
2813 24-07-2010 10:48:02 19 C 8.64 g/m*3 19 C 0 km/h
2814 24-07-2010 11:00:02 19.8 C 9.39 g/m*3 19.8 C 0 km/h
2815 24-07-2010 11:12:02 19.9 C 8.76 g/m*3 19.9 C 0 km/h
2816 24-07-2010 11:24:02 18.7 C 8.97 g/m*3 18.7 C 0 km/h
2817 24-07-2010 11:36:02 19.4 C 8.51 g/m*3 19.4 C 0 km/h
2818 24-07-2010 11:48:02 19.4 C 8.51 g/m*3 19.4 C 0 km/h
2819 24-07-2010 12:00:02 19.5 C 8.39 g/m*3 19.5 C 0 km/h
2820 24-07-2010 12:12:01 20.5 C 8.36 g/m*3 20.5 C 0 km/h
2821 24-07-2010 12:24:01 20.3 C 8.09 g/m*3 20.3 C 0 km/h
2822 24-07-2010 12:36:01 20.8 C 8.33 g/m*3 20.8 C 0 km/h
2823 24-07-2010 12:48:02 21.5 C 7.73 g/m*3 21.5 C 0 km/h
2824 24-07-2010 13:00:02 20.9 C 7.1 g/m*3 20.9 C 0 km/h
2825 24-07-2010 13:12:02 22.9 C 6.95 g/m*3 22.9 C 0 km/h
Sensor: Nr:Datum:Temp:Abs-Feuchte:Windchill:Wind:
Aussen-T/F 2826 24-07-2010 13:24:02 24.3 C 6.2 g/m*3 24.3 C 0 km/h
2827 24-07-2010 13:36:01 23.4 C 6.31 g/m*3 23.4 C 0 km/h
2828 24-07-2010 13:48:02 22.1 C 6.44 g/m*3 22.1 C 0 km/h
2829 24-07-2010 14:00:02 23.8 C 6.02 g/m*3 23.8 C 0 km/h
2830 24-07-2010 14:12:01 23.4 C 5.89 g/m*3 23.4 C 0 km/h
2831 24-07-2010 14:24:02 23.1 C 6.41 g/m*3 23.1 C 0 km/h
2832 24-07-2010 14:36:01 22.8 C 6.3 g/m*3 22.8 C 0 km/h
2833 24-07-2010 14:48:02 24.3 C 6.2 g/m*3 24.3 C 0 km/h
2834 24-07-2010 15:00:02 24 C 5.66 g/m*3 24 C 0 km/h
2835 24-07-2010 15:12:02 23.2 C 5.61 g/m*3 23.2 C 0 km/h
2836 24-07-2010 15:24:02 24.5 C 6.27 g/m*3 24.5 C 0 km/h
2837 24-07-2010 15:36:02 25.1 C 5.32 g/m*3 25.1 C 0 km/h
2838 24-07-2010 15:48:01 23.7 C 4.49 g/m*3 23.7 C 0 km/h
2839 24-07-2010 16:00:01 23.2 C 5.2 g/m*3 23.2 C 0 km/h
2840 24-07-2010 16:12:02 23.6 C 4.68 g/m*3 23.6 C 0 km/h
2841 24-07-2010 16:24:01 24.8 C 4.55 g/m*3 24.8 C 0 km/h
2842 24-07-2010 16:36:01 23.6 C 4.47 g/m*3 23.6 C 0 km/h
2843 24-07-2010 16:48:01 24.1 C 4.38 g/m*3 24.1 C 0 km/h
2844 24-07-2010 17:00:01 24.2 C 4.4 g/m*3 24.2 C 0 km/h
2845 24-07-2010 17:12:02 25.5 C 4.73 g/m*3 25.5 C 0 km/h
2846 24-07-2010 17:24:02 25.1 C 4.63 g/m*3 25.1 C 0 km/h
2847 24-07-2010 17:36:01 24.1 C 4.38 g/m*3 24.1 C 0 km/h
2848 24-07-2010 17:48:02 22.9 C 4.09 g/m*3 22.9 C 0 km/h
2849 24-07-2010 18:00:02 23 C 4.11 g/m*3 23 C 0 km/h
2850 24-07-2010 18:12:01 23.8 C 4.3 g/m*3 23.8 C 0 km/h
Sensor: Nr:Datum:Temp:Abs-Feuchte:Windchill:Wind:
Aussen-T/F 2851 24-07-2010 18:24:02 24.1 C 4.38 g/m*3 24.1 C 0 km/h
2852 24-07-2010 18:36:01 23.4 C 4.21 g/m*3 23.4 C 0 km/h
2853 24-07-2010 18:48:02 23.1 C 4.13 g/m*3 23.1 C 0 km/h
2854 24-07-2010 19:00:02 23.6 C 4.25 g/m*3 23.6 C 0 km/h
2855 24-07-2010 19:12:02 23.5 C 4.23 g/m*3 23.5 C 0 km/h
2856 24-07-2010 19:24:02 23.4 C 4.21 g/m*3 23.4 C 0 km/h
2857 24-07-2010 19:36:02 22.7 C 4.04 g/m*3 22.7 C 0 km/h
2858 24-07-2010 19:48:02 22.9 C 4.09 g/m*3 22.9 C 0 km/h
2859 24-07-2010 20:00:02 23 C 4.11 g/m*3 23 C 0 km/h
2860 24-07-2010 20:12:02 23.1 C 4.13 g/m*3 23.1 C 0 km/h
2861 24-07-2010 20:24:01 22.8 C 4.06 g/m*3 22.8 C 0 km/h
2862 24-07-2010 20:36:02 22.6 C 4.02 g/m*3 22.6 C 0 km/h
2863 24-07-2010 20:48:02 22.1 C 3.9 g/m*3 22.1 C 0 km/h
2864 24-07-2010 21:00:02 21.2 C 3.71 g/m*3 21.2 C 0 km/h
2865 24-07-2010 21:12:02 20.3 C 4.4 g/m*3 20.3 C 0 km/h
2866 24-07-2010 21:24:01 19.7 C 4.58 g/m*3 19.7 C 0 km/h
2867 24-07-2010 21:36:02 19 C 4.73 g/m*3 19 C 0 km/h
2868 24-07-2010 21:48:01 18.6 C 4.93 g/m*3 18.6 C 0 km/h
2869 24-07-2010 22:00:01 18.1 C 5.1 g/m*3 18.1 C 0 km/h
2870 24-07-2010 22:12:02 17.6 C 5.25 g/m*3 17.6 C 0 km/h
2871 24-07-2010 22:24:01 17.5 C 5.07 g/m*3 17.5 C 0 km/h
2872 24-07-2010 22:36:02 17.2 C 5.13 g/m*3 17.2 C 0 km/h
2873 24-07-2010 22:49:02 17.1 C 5.39 g/m*3 17.1 C 0 km/h
2874 24-07-2010 23:01:02 16.7 C 5.83 g/m*3 16.7 C 0 km/h
2875 24-07-2010 23:13:02 16.3 C 5.83 g/m*3 16.3 C 0 km/h
Sensor: Nr:Datum:Temp:Abs-Feuchte:Windchill:Wind:
Aussen-T/F 2876 24-07-2010 23:25:02 15.9 C 6.23 g/m*3 15.9 C 0 km/h
2877 24-07-2010 23:37:02 15.5 C 6.34 g/m*3 15.5 C 0 km/h
2878 24-07-2010 23:49:02 15.2 C 6.23 g/m*3 15.2 C 0 km/h
2879 25-07-2010 00:01:02 15 C 6.41 g/m*3 15 C 0 km/h
2880 25-07-2010 00:13:02 14.8 C 6.71 g/m*3 14.8 C 0 km/h
2881 25-07-2010 00:25:02 14.6 C 6.76 g/m*3 14.6 C 0 km/h
2882 25-07-2010 00:37:02 14.2 C 6.47 g/m*3 14.2 C 0 km/h
2883 25-07-2010 00:49:02 14.1 C 6.55 g/m*3 14.1 C 0 km/h
2884 25-07-2010 01:01:02 13.8 C 6.79 g/m*3 13.8 C 0 km/h
2885 25-07-2010 01:13:03 13.7 C 6.87 g/m*3 13.7 C 0 km/h
2886 25-07-2010 01:25:03 13.5 C 6.78 g/m*3 13.5 C 0 km/h
2887 25-07-2010 01:37:03 13.3 C 6.82 g/m*3 13.3 C 0 km/h
2888 25-07-2010 01:49:03 13.2 C 6.77 g/m*3 13.2 C 0 km/h
2889 25-07-2010 02:01:03 13.1 C 6.96 g/m*3 13.1 C 0 km/h
2890 25-07-2010 02:13:03 12.9 C 6.99 g/m*3 12.9 C 0 km/h
2891 25-07-2010 02:25:03 12.7 C 7.01 g/m*3 12.7 C 0 km/h
2892 25-07-2010 02:37:03 12.5 C 6.93 g/m*3 12.5 C 0 km/h
2893 25-07-2010 02:49:03 12.3 C 6.95 g/m*3 12.3 C 0 km/h
2894 25-07-2010 03:01:03 12.2 C 7.01 g/m*3 12.2 C 0 km/h
2895 25-07-2010 03:13:03 12 C 7.14 g/m*3 12 C 0 km/h
2896 25-07-2010 03:25:03 11.8 C 7.05 g/m*3 11.8 C 0 km/h
2897 25-07-2010 03:37:03 11.8 C 7.05 g/m*3 11.8 C 0 km/h
2898 25-07-2010 03:49:03 11.5 C 7.02 g/m*3 11.5 C 0 km/h
2899 25-07-2010 04:01:03 11.3 C 7.14 g/m*3 11.3 C 0 km/h
2900 25-07-2010 04:13:03 11.1 C 7.25 g/m*3 11.1 C 0 km/h
Sensor: Nr:Datum:Temp:Abs-Feuchte:Windchill:Wind:
Aussen-T/F 2901 25-07-2010 04:25:03 11 C 7.31 g/m*3 11 C 0 km/h
2902 25-07-2010 04:37:03 10.8 C 7.41 g/m*3 10.8 C 0 km/h
2903 25-07-2010 04:49:03 10.6 C 7.42 g/m*3 10.6 C 0 km/h
2904 25-07-2010 05:01:03 10.5 C 7.47 g/m*3 10.5 C 0 km/h
2905 25-07-2010 05:13:03 10.3 C 7.37 g/m*3 10.3 C 0 km/h
2906 25-07-2010 05:25:03 10.1 C 7.38 g/m*3 10.1 C 0 km/h
2907 25-07-2010 05:37:04 10 C 7.33 g/m*3 10 C 0 km/h
2908 25-07-2010 05:49:04 9.9 C 7.38 g/m*3 9.9 C 0 km/h
2909 25-07-2010 06:01:04 10 C 7.33 g/m*3 10 C 0 km/h
2910 25-07-2010 06:13:04 10 C 7.42 g/m*3 10 C 0 km/h
2911 25-07-2010 06:25:04 10 C 7.42 g/m*3 10 C 0 km/h
2912 25-07-2010 06:37:04 10 C 7.42 g/m*3 10 C 0 km/h
2913 25-07-2010 06:49:04 10.2 C 7.42 g/m*3 10.2 C 0 km/h
2914 25-07-2010 07:01:04 10.3 C 7.47 g/m*3 10.3 C 0 km/h
2915 25-07-2010 07:13:04 10.7 C 7.56 g/m*3 10.7 C 0 km/h
2916 25-07-2010 07:25:04 11 C 7.61 g/m*3 11 C 0 km/h
2917 25-07-2010 07:37:04 11.2 C 7.5 g/m*3 11.2 C 0 km/h
2918 25-07-2010 07:49:04 11.4 C 7.6 g/m*3 11.4 C 0 km/h
2919 25-07-2010 08:01:04 11.5 C 7.75 g/m*3 11.5 C 0 km/h
2920 25-07-2010 08:13:04 11.5 C 7.95 g/m*3 11.5 C 0 km/h
2921 25-07-2010 08:25:04 12 C 7.99 g/m*3 12 C 0 km/h
2922 25-07-2010 08:37:04 12.5 C 7.92 g/m*3 12.5 C 0 km/h
2923 25-07-2010 08:49:04 13.1 C 7.87 g/m*3 13.1 C 0 km/h
2924 25-07-2010 09:01:04 13.8 C 7.86 g/m*3 13.8 C 0 km/h
2925 25-07-2010 09:13:04 14.3 C 7.49 g/m*3 14.3 C 0 km/h
Sensor: Nr:Datum:Temp:Abs-Feuchte:Windchill:Wind:
Aussen-T/F 2926 25-07-2010 09:25:04 14.8 C 7.6 g/m*3 14.8 C 0 km/h
2927 25-07-2010 09:37:04 15.6 C 7.58 g/m*3 15.6 C 0 km/h
2928 25-07-2010 09:49:02 16.2 C 7.45 g/m*3 16.2 C 0 km/h
2929 25-07-2010 10:01:02 16.6 C 7.2 g/m*3 16.6 C 0 km/h
2930 25-07-2010 10:13:02 17.5 C 7.01 g/m*3 17.5 C 0 km/h
2931 25-07-2010 10:25:02 17.8 C 6.68 g/m*3 17.8 C 0 km/h
2932 25-07-2010 10:37:02 18.4 C 6.45 g/m*3 18.4 C 0 km/h
2933 25-07-2010 10:49:02 18.7 C 6.4 g/m*3 18.7 C 0 km/h
2934 25-07-2010 11:01:02 19.3 C 6.3 g/m*3 19.3 C 0 km/h
2935 25-07-2010 11:13:02 20.9 C 6.37 g/m*3 20.9 C 0 km/h
2936 25-07-2010 11:25:03 21.2 C 5.93 g/m*3 21.2 C 0 km/h
2937 25-07-2010 11:37:02 21.2 C 5.93 g/m*3 21.2 C 0 km/h
2938 25-07-2010 11:49:03 21.7 C 6.1 g/m*3 21.7 C 0 km/h
2939 25-07-2010 12:01:02 21.5 C 6.03 g/m*3 21.5 C 0 km/h
2940 25-07-2010 12:13:03 22.3 C 6.12 g/m*3 22.3 C 0 km/h
2941 25-07-2010 12:25:02 23.2 C 5.82 g/m*3 23.2 C 0 km/h
2942 25-07-2010 12:37:02 24.2 C 5.72 g/m*3 24.2 C 0 km/h
2943 25-07-2010 12:49:02 23.5 C 5.71 g/m*3 23.5 C 0 km/h
2944 25-07-2010 13:01:02 23.5 C 6.13 g/m*3 23.5 C 0 km/h
2945 25-07-2010 13:13:02 23.3 C 6.06 g/m*3 23.3 C 0 km/h
2946 25-07-2010 13:25:03 23.2 C 6.24 g/m*3 23.2 C 0 km/h
2947 25-07-2010 13:37:02 23.5 C 6.34 g/m*3 23.5 C 0 km/h
2948 25-07-2010 13:49:03 23.4 C 6.31 g/m*3 23.4 C 0 km/h
2949 25-07-2010 14:01:02 23.2 C 6.44 g/m*3 23.2 C 0 km/h
2950 25-07-2010 14:13:02 22.6 C 7.43 g/m*3 22.6 C 0 km/h
Sensor: Nr:Datum:Temp:Abs-Feuchte:Windchill:Wind:
Aussen-T/F 2951 25-07-2010 14:25:02 21.5 C 6.79 g/m*3 21.5 C 0 km/h
2952 25-07-2010 14:37:02 21.6 C 7.21 g/m*3 21.6 C 0 km/h
2953 25-07-2010 14:49:02 22.1 C 6.83 g/m*3 22.1 C 0 km/h
2954 25-07-2010 15:01:02 22.2 C 6.87 g/m*3 22.2 C 0 km/h
2955 25-07-2010 15:13:02 22.2 C 6.68 g/m*3 22.2 C 0 km/h
2956 25-07-2010 15:25:02 21.6 C 6.83 g/m*3 21.6 C 0 km/h
2957 25-07-2010 15:37:01 21 C 7.14 g/m*3 21 C 0 km/h
2958 25-07-2010 15:49:02 20.9 C 7.47 g/m*3 20.9 C 0 km/h
2959 25-07-2010 16:01:01 21.6 C 7.21 g/m*3 21.6 C 0 km/h
2960 25-07-2010 16:13:01 21.9 C 7.14 g/m*3 21.9 C 0 km/h
2961 25-07-2010 16:25:02 22.1 C 6.83 g/m*3 22.1 C 0 km/h
2962 25-07-2010 16:37:02 22.1 C 7.03 g/m*3 22.1 C 0 km/h
2963 25-07-2010 16:49:02 22.2 C 7.46 g/m*3 22.2 C 0 km/h
2964 25-07-2010 17:01:03 23.5 C 6.77 g/m*3 23.5 C 0 km/h
2965 25-07-2010 17:13:03 23.7 C 6.63 g/m*3 23.7 C 0 km/h
2966 25-07-2010 17:25:02 23.3 C 6.69 g/m*3 23.3 C 0 km/h
2967 25-07-2010 17:37:02 23.4 C 6.31 g/m*3 23.4 C 0 km/h
2968 25-07-2010 17:49:01 23.1 C 6.61 g/m*3 23.1 C 0 km/h
2969 25-07-2010 18:01:02 22.8 C 7.32 g/m*3 22.8 C 0 km/h
2970 25-07-2010 18:13:02 22.5 C 7.39 g/m*3 22.5 C 0 km/h
2971 25-07-2010 18:25:01 22.4 C 7.35 g/m*3 22.4 C 0 km/h
2972 25-07-2010 18:37:01 22 C 7.57 g/m*3 22 C 0 km/h
2973 25-07-2010 18:49:01 21.6 C 7.97 g/m*3 21.6 C 0 km/h
2974 25-07-2010 19:01:02 21.3 C 8.2 g/m*3 21.3 C 0 km/h
2975 25-07-2010 19:13:02 20.9 C 8.2 g/m*3 20.9 C 0 km/h
Sensor: Nr:Datum:Temp:Abs-Feuchte:Windchill:Wind:
Aussen-T/F 2976 25-07-2010 19:25:02 20.6 C 8.59 g/m*3 20.6 C 0 km/h
2977 25-07-2010 19:37:01 20.6 C 7.34 g/m*3 20.6 C 0 km/h
2978 25-07-2010 19:49:01 20.6 C 7.16 g/m*3 20.6 C 0 km/h
2979 25-07-2010 20:01:01 20.6 C 7.34 g/m*3 20.6 C 0 km/h
2980 25-07-2010 20:13:01 20.5 C 7.3 g/m*3 20.5 C 0 km/h
2981 25-07-2010 20:25:02 20.4 C 7.43 g/m*3 20.4 C 0 km/h
2982 25-07-2010 20:37:01 19.9 C 8.08 g/m*3 19.9 C 0 km/h
2983 25-07-2010 20:49:02 19.4 C 8.84 g/m*3 19.4 C 0 km/h
2984 25-07-2010 21:01:01 19.1 C 9.18 g/m*3 19.1 C 0 km/h
2985 25-07-2010 21:13:01 19.2 C 9.23 g/m*3 19.2 C 0 km/h
2986 25-07-2010 21:25:02 19.1 C 9.51 g/m*3 19.1 C 0 km/h
2987 25-07-2010 21:37:01 19.1 C 9.51 g/m*3 19.1 C 0 km/h
2988 25-07-2010 21:49:01 18.9 C 9.72 g/m*3 18.9 C 0 km/h
2989 25-07-2010 22:01:01 18.8 C 9.82 g/m*3 18.8 C 0 km/h
2990 25-07-2010 22:13:01 18.5 C 9.97 g/m*3 18.5 C 0 km/h
2991 25-07-2010 22:26:02 18.3 C 10.16 g/m*3 18.3 C 0 km/h
2992 25-07-2010 22:38:02 18.2 C 10.41 g/m*3 18.2 C 0 km/h
2993 25-07-2010 22:50:02 18.1 C 10.51 g/m*3 18.1 C 0 km/h
2994 25-07-2010 23:02:03 17.9 C 10.54 g/m*3 17.9 C 0 km/h
2995 25-07-2010 23:14:03 18 C 10.29 g/m*3 18 C 0 km/h
2996 25-07-2010 23:26:03 17.9 C 10.23 g/m*3 17.9 C 0 km/h
2997 25-07-2010 23:38:03 17.8 C 10.17 g/m*3 17.8 C 0 km/h
2998 25-07-2010 23:50:03 17.8 C 10.17 g/m*3 17.8 C 0 km/h
2999 26-07-2010 00:02:03 17.6 C 9.9 g/m*3 17.6 C 0 km/h
3000 26-07-2010 00:14:03 17.6 C 9.9 g/m*3 17.6 C 0 km/h
Sensor: Nr:Datum:Temp:Abs-Feuchte:Windchill:Wind:
Aussen-T/F 3001 26-07-2010 00:26:03 17.6 C 9.9 g/m*3 17.6 C 0 km/h
3002 26-07-2010 00:38:03 17.6 C 10.05 g/m*3 17.6 C 0 km/h
3003 26-07-2010 00:50:03 17.4 C 9.93 g/m*3 17.4 C 0 km/h
3004 26-07-2010 01:02:03 17.3 C 9.87 g/m*3 17.3 C 0 km/h
3005 26-07-2010 01:14:03 17.2 C 9.96 g/m*3 17.2 C 0 km/h
3006 26-07-2010 01:26:03 17.2 C 9.96 g/m*3 17.2 C 0 km/h
3007 26-07-2010 01:38:03 17.3 C 10.02 g/m*3 17.3 C 0 km/h
3008 26-07-2010 01:50:03 17.3 C 10.16 g/m*3 17.3 C 0 km/h
3009 26-07-2010 02:02:03 17 C 9.98 g/m*3 17 C 0 km/h
3010 26-07-2010 02:14:03 16.9 C 10.07 g/m*3 16.9 C 0 km/h
3011 26-07-2010 02:26:03 16.8 C 10.01 g/m*3 16.8 C 0 km/h
3012 26-07-2010 02:38:03 16.8 C 10.15 g/m*3 16.8 C 0 km/h
3013 26-07-2010 02:50:03 16.5 C 9.97 g/m*3 16.5 C 0 km/h
3014 26-07-2010 03:02:03 16.4 C 10.05 g/m*3 16.4 C 0 km/h
3015 26-07-2010 03:14:03 16.4 C 10.19 g/m*3 16.4 C 0 km/h
3016 26-07-2010 03:26:03 16.4 C 10.33 g/m*3 16.4 C 0 km/h
3017 26-07-2010 03:38:04 16.4 C 10.33 g/m*3 16.4 C 0 km/h
3018 26-07-2010 03:50:04 16.5 C 10.11 g/m*3 16.5 C 0 km/h
3019 26-07-2010 04:02:04 16.6 C 10.17 g/m*3 16.6 C 0 km/h
3020 26-07-2010 04:14:04 16.4 C 10.47 g/m*3 16.4 C 0 km/h
3021 26-07-2010 04:26:04 16.4 C 10.61 g/m*3 16.4 C 0 km/h
3022 26-07-2010 04:38:04 16.1 C 10.69 g/m*3 16.1 C 0 km/h
3023 26-07-2010 04:50:04 15.7 C 10.97 g/m*3 15.7 C 0 km/h
3024 26-07-2010 05:02:04 15.6 C 11.04 g/m*3 15.6 C 0 km/h
3025 26-07-2010 05:14:04 15.6 C 11.3 g/m*3 15.6 C 0 km/h
Sensor: Nr:Datum:Temp:Abs-Feuchte:Windchill:Wind:
Aussen-T/F 3026 26-07-2010 05:26:04 15.5 C 11.37 g/m*3 15.5 C 0 km/h
3027 26-07-2010 05:38:04 15.6 C 11.44 g/m*3 15.6 C 0 km/h
3028 26-07-2010 05:50:04 15.3 C 11.23 g/m*3 15.3 C 0 km/h
3029 26-07-2010 06:02:04 15.4 C 11.3 g/m*3 15.4 C 0 km/h
3030 26-07-2010 06:14:04 15.4 C 11.43 g/m*3 15.4 C 0 km/h
3031 26-07-2010 06:26:04 15.4 C 11.43 g/m*3 15.4 C 0 km/h
3032 26-07-2010 06:38:04 15.4 C 11.56 g/m*3 15.4 C 0 km/h
3033 26-07-2010 06:50:04 15.4 C 11.56 g/m*3 15.4 C 0 km/h
3034 26-07-2010 07:02:02 15.7 C 11.91 g/m*3 15.7 C 0 km/h
3035 26-07-2010 07:14:02 16 C 11.99 g/m*3 16 C 0 km/h
3036 26-07-2010 07:26:03 16 C 11.99 g/m*3 16 C 0 km/h
3037 26-07-2010 07:38:02 16.1 C 11.93 g/m*3 16.1 C 0 km/h
3038 26-07-2010 07:50:02 16.3 C 11.93 g/m*3 16.3 C 0 km/h
3039 26-07-2010 08:02:02 16.5 C 11.94 g/m*3 16.5 C 0 km/h
3040 26-07-2010 08:14:02 16.6 C 11.87 g/m*3 16.6 C 0 km/h
3041 26-07-2010 08:26:02 16.9 C 11.94 g/m*3 16.9 C 0 km/h
3042 26-07-2010 08:38:02 17.5 C 12.08 g/m*3 17.5 C 0 km/h
3043 26-07-2010 08:50:01 17.4 C 11.71 g/m*3 17.4 C 0 km/h
3044 26-07-2010 09:02:02 17.8 C 11.84 g/m*3 17.8 C 0 km/h
3045 26-07-2010 09:14:02 18.2 C 11.81 g/m*3 18.2 C 0 km/h
3046 26-07-2010 09:26:01 18.3 C 11.57 g/m*3 18.3 C 0 km/h
3047 26-07-2010 09:38:01 18.8 C 11.92 g/m*3 18.8 C 0 km/h
3048 26-07-2010 09:50:02 18.8 C 11.43 g/m*3 18.8 C 0 km/h
3049 26-07-2010 10:02:02 18.7 C 11.37 g/m*3 18.7 C 0 km/h
3050 26-07-2010 10:14:02 19.1 C 10.98 g/m*3 19.1 C 0 km/h
Sensor: Nr:Datum:Temp:Abs-Feuchte:Windchill:Wind:
Aussen-T/F 3051 26-07-2010 10:26:02 20.2 C 11.02 g/m*3 20.2 C 0 km/h
3052 26-07-2010 10:38:02 21.1 C 10.32 g/m*3 21.1 C 0 km/h
3053 26-07-2010 10:50:02 22.1 C 9.76 g/m*3 22.1 C 0 km/h
3054 26-07-2010 11:02:01 21.8 C 9.78 g/m*3 21.8 C 0 km/h
3055 26-07-2010 11:14:01 22.6 C 10.04 g/m*3 22.6 C 0 km/h
3056 26-07-2010 11:26:02 22.5 C 9.59 g/m*3 22.5 C 0 km/h
3057 26-07-2010 11:38:02 19.4 C 10.68 g/m*3 19.4 C 0 km/h
3058 26-07-2010 11:50:02 18.4 C 12.11 g/m*3 18.4 C 0 km/h
3059 26-07-2010 12:02:02 19.1 C 13.11 g/m*3 19.1 C 0 km/h
3060 26-07-2010 12:14:02 19.5 C 12.59 g/m*3 19.5 C 0 km/h
3061 26-07-2010 12:26:02 19.5 C 12.25 g/m*3 19.5 C 0 km/h
3062 26-07-2010 12:38:02 18.5 C 12.18 g/m*3 18.5 C 0 km/h
3063 26-07-2010 12:50:01 18.6 C 12.57 g/m*3 18.6 C 0 km/h
3064 26-07-2010 13:02:01 19 C 13.04 g/m*3 19 C 0 km/h
3065 26-07-2010 13:14:01 18.5 C 12.34 g/m*3 18.5 C 0 km/h
3066 26-07-2010 13:26:01 18 C 12.44 g/m*3 18 C 0 km/h
3067 26-07-2010 13:38:01 17.8 C 12.9 g/m*3 17.8 C 0 km/h
3068 26-07-2010 13:50:01 17.5 C 12.82 g/m*3 17.5 C 0 km/h
3069 26-07-2010 14:02:01 17.5 C 12.97 g/m*3 17.5 C 0 km/h
3070 26-07-2010 14:14:01 17.7 C 13.43 g/m*3 17.7 C 0 km/h
3071 26-07-2010 14:26:02 17.3 C 13.11 g/m*3 17.3 C 0 km/h
3072 26-07-2010 14:38:01 17.1 C 13.1 g/m*3 17.1 C 0 km/h
3073 26-07-2010 14:50:02 17.2 C 13.18 g/m*3 17.2 C 0 km/h
3074 26-07-2010 15:02:02 17.4 C 13.49 g/m*3 17.4 C 0 km/h
3075 26-07-2010 15:14:02 17.3 C 13.41 g/m*3 17.3 C 0 km/h
Sensor: Nr:Datum:Temp:Abs-Feuchte:Windchill:Wind:
Aussen-T/F 3076 26-07-2010 15:26:02 17.6 C 13.65 g/m*3 17.6 C 0 km/h
3077 26-07-2010 15:38:03 18.2 C 13.83 g/m*3 18.2 C 0 km/h
3078 26-07-2010 15:50:02 19.1 C 14.1 g/m*3 19.1 C 0 km/h
3079 26-07-2010 16:02:02 19.1 C 13.77 g/m*3 19.1 C 0 km/h
3080 26-07-2010 16:14:02 19.5 C 13.26 g/m*3 19.5 C 0 km/h
3081 26-07-2010 16:26:02 19.1 C 12.79 g/m*3 19.1 C 0 km/h
3082 26-07-2010 16:38:02 19.5 C 13.43 g/m*3 19.5 C 0 km/h
3083 26-07-2010 16:50:02 21.2 C 13.71 g/m*3 21.2 C 0 km/h
3084 26-07-2010 17:02:02 21 C 12.64 g/m*3 21 C 0 km/h
3085 26-07-2010 17:14:02 19.5 C 10.74 g/m*3 19.5 C 0 km/h
3086 26-07-2010 17:26:02 18.7 C 10.73 g/m*3 18.7 C 0 km/h
3087 26-07-2010 17:38:02 18.1 C 11.28 g/m*3 18.1 C 0 km/h
3088 26-07-2010 17:50:02 18.1 C 11.28 g/m*3 18.1 C 0 km/h
3089 26-07-2010 18:02:02 18.2 C 11.19 g/m*3 18.2 C 0 km/h
3090 26-07-2010 18:14:02 17.3 C 11.05 g/m*3 17.3 C 0 km/h
3091 26-07-2010 18:26:03 16.8 C 11.29 g/m*3 16.8 C 0 km/h
3092 26-07-2010 18:38:02 16.8 C 11.44 g/m*3 16.8 C 0 km/h
3093 26-07-2010 18:50:03 16.7 C 11.65 g/m*3 16.7 C 0 km/h
3094 26-07-2010 19:02:02 16.8 C 11.72 g/m*3 16.8 C 0 km/h
3095 26-07-2010 19:14:02 17.1 C 11.79 g/m*3 17.1 C 0 km/h
3096 26-07-2010 19:26:02 17.1 C 11.65 g/m*3 17.1 C 0 km/h
3097 26-07-2010 19:38:02 16.8 C 11.58 g/m*3 16.8 C 0 km/h
3098 26-07-2010 19:50:02 16.8 C 11.29 g/m*3 16.8 C 0 km/h
3099 26-07-2010 20:02:01 16.7 C 10.94 g/m*3 16.7 C 0 km/h
3100 26-07-2010 20:14:01 16.4 C 11.03 g/m*3 16.4 C 0 km/h
Sensor: Nr:Datum:Temp:Abs-Feuchte:Windchill:Wind:
Aussen-T/F 3101 26-07-2010 20:26:02 16.2 C 11.17 g/m*3 16.2 C 0 km/h
3102 26-07-2010 20:38:02 15.9 C 11.24 g/m*3 15.9 C 0 km/h
3103 26-07-2010 20:50:01 15.6 C 11.17 g/m*3 15.6 C 0 km/h
3104 26-07-2010 21:02:02 15.4 C 11.04 g/m*3 15.4 C 0 km/h
3105 26-07-2010 21:14:02 15.4 C 11.3 g/m*3 15.4 C 0 km/h
3106 26-07-2010 21:26:01 15.3 C 11.36 g/m*3 15.3 C 0 km/h
3107 26-07-2010 21:38:01 15.2 C 11.29 g/m*3 15.2 C 0 km/h
3108 26-07-2010 21:50:01 15.2 C 11.42 g/m*3 15.2 C 0 km/h
3109 26-07-2010 22:02:02 15.3 C 11.36 g/m*3 15.3 C 0 km/h
3110 26-07-2010 22:14:02 15.3 C 10.97 g/m*3 15.3 C 0 km/h
3111 26-07-2010 22:27:04 15.2 C 10.77 g/m*3 15.2 C 0 km/h
3112 26-07-2010 22:39:04 15.2 C 10.64 g/m*3 15.2 C 0 km/h
3113 26-07-2010 22:51:04 15.1 C 10.58 g/m*3 15.1 C 0 km/h
3114 26-07-2010 23:03:04 15.1 C 10.58 g/m*3 15.1 C 0 km/h
3115 26-07-2010 23:15:04 15.1 C 10.71 g/m*3 15.1 C 0 km/h
3116 26-07-2010 23:27:04 15.3 C 10.84 g/m*3 15.3 C 0 km/h
3117 26-07-2010 23:39:04 15.4 C 11.04 g/m*3 15.4 C 0 km/h
3118 26-07-2010 23:51:04 15.4 C 11.04 g/m*3 15.4 C 0 km/h
3119 27-07-2010 00:03:04 15.4 C 11.04 g/m*3 15.4 C 0 km/h
3120 27-07-2010 00:15:04 15.4 C 11.04 g/m*3 15.4 C 0 km/h
3121 27-07-2010 00:27:04 15.3 C 11.1 g/m*3 15.3 C 0 km/h
3122 27-07-2010 00:39:05 15.4 C 11.3 g/m*3 15.4 C 0 km/h
3123 27-07-2010 00:51:05 15.2 C 11.16 g/m*3 15.2 C 0 km/h
3124 27-07-2010 01:03:05 15.3 C 11.23 g/m*3 15.3 C 0 km/h
3125 27-07-2010 01:15:05 15.3 C 11.23 g/m*3 15.3 C 0 km/h
Sensor: Nr:Datum:Temp:Abs-Feuchte:Windchill:Wind:
Aussen-T/F 3126 27-07-2010 01:27:05 15.6 C 11.3 g/m*3 15.6 C 0 km/h
3127 27-07-2010 01:39:05 15.6 C 11.17 g/m*3 15.6 C 0 km/h
3128 27-07-2010 01:51:05 15.6 C 11.04 g/m*3 15.6 C 0 km/h
3129 27-07-2010 02:03:05 15.6 C 11.04 g/m*3 15.6 C 0 km/h
3130 27-07-2010 02:15:05 15.6 C 11.04 g/m*3 15.6 C 0 km/h
3131 27-07-2010 02:27:05 15.6 C 11.04 g/m*3 15.6 C 0 km/h
3132 27-07-2010 02:39:05 15.6 C 11.04 g/m*3 15.6 C 0 km/h
3133 27-07-2010 02:51:05 15.6 C 11.04 g/m*3 15.6 C 0 km/h
3134 27-07-2010 03:03:05 15.6 C 11.04 g/m*3 15.6 C 0 km/h
3135 27-07-2010 03:15:05 15.5 C 10.97 g/m*3 15.5 C 0 km/h
3136 27-07-2010 03:27:05 15.4 C 10.9 g/m*3 15.4 C 0 km/h
3137 27-07-2010 03:39:05 15.3 C 10.84 g/m*3 15.3 C 0 km/h
3138 27-07-2010 03:51:05 15.3 C 11.1 g/m*3 15.3 C 0 km/h
3139 27-07-2010 04:03:05 15.4 C 11.04 g/m*3 15.4 C 0 km/h
3140 27-07-2010 04:15:05 15.3 C 10.84 g/m*3 15.3 C 0 km/h
3141 27-07-2010 04:27:05 15.4 C 10.9 g/m*3 15.4 C 0 km/h
3142 27-07-2010 04:39:06 15.2 C 10.77 g/m*3 15.2 C 0 km/h
3143 27-07-2010 04:51:06 15 C 10.64 g/m*3 15 C 0 km/h
3144 27-07-2010 05:03:06 15.2 C 10.9 g/m*3 15.2 C 0 km/h
3145 27-07-2010 05:15:06 15.2 C 10.9 g/m*3 15.2 C 0 km/h
3146 27-07-2010 05:27:06 15.2 C 10.9 g/m*3 15.2 C 0 km/h
3147 27-07-2010 05:39:06 15 C 10.77 g/m*3 15 C 0 km/h
3148 27-07-2010 05:51:06 15.1 C 10.71 g/m*3 15.1 C 0 km/h
3149 27-07-2010 06:03:06 15.2 C 10.77 g/m*3 15.2 C 0 km/h
3150 27-07-2010 06:15:06 15.3 C 10.84 g/m*3 15.3 C 0 km/h
Sensor: Nr:Datum:Temp:Abs-Feuchte:Windchill:Wind:
Aussen-T/F 3151 27-07-2010 06:27:06 15.3 C 10.84 g/m*3 15.3 C 0 km/h
3152 27-07-2010 06:39:06 15.3 C 10.71 g/m*3 15.3 C 0 km/h
3153 27-07-2010 06:51:02 15.3 C 10.71 g/m*3 15.3 C 0 km/h
3154 27-07-2010 07:03:01 15.4 C 10.64 g/m*3 15.4 C 0 km/h
3155 27-07-2010 07:15:01 15.6 C 10.77 g/m*3 15.6 C 0 km/h
3156 27-07-2010 07:27:01 15.6 C 10.51 g/m*3 15.6 C 0 km/h
3157 27-07-2010 07:39:02 15.8 C 10.63 g/m*3 15.8 C 0 km/h
3158 27-07-2010 07:51:02 16 C 10.63 g/m*3 16 C 0 km/h
3159 27-07-2010 08:03:02 16.1 C 10.55 g/m*3 16.1 C 0 km/h
3160 27-07-2010 08:15:02 16.1 C 10.55 g/m*3 16.1 C 0 km/h
3161 27-07-2010 08:27:02 16.4 C 10.75 g/m*3 16.4 C 0 km/h
3162 27-07-2010 08:39:02 16.3 C 10.54 g/m*3 16.3 C 0 km/h
3163 27-07-2010 08:51:02 16.2 C 10.62 g/m*3 16.2 C 0 km/h
3164 27-07-2010 09:03:02 16.5 C 10.67 g/m*3 16.5 C 0 km/h
3165 27-07-2010 09:15:03 16.6 C 10.59 g/m*3 16.6 C 0 km/h
3166 27-07-2010 09:27:03 16.6 C 10.45 g/m*3 16.6 C 0 km/h
3167 27-07-2010 09:39:02 17.3 C 10.61 g/m*3 17.3 C 0 km/h
3168 27-07-2010 09:51:01 17.4 C 10.37 g/m*3 17.4 C 0 km/h
3169 27-07-2010 10:03:01 18 C 10.29 g/m*3 18 C 0 km/h
3170 27-07-2010 10:15:02 17.9 C 10.23 g/m*3 17.9 C 0 km/h
3171 27-07-2010 10:27:02 18.5 C 10.28 g/m*3 18.5 C 0 km/h
3172 27-07-2010 10:39:01 19.2 C 9.89 g/m*3 19.2 C 0 km/h
3173 27-07-2010 10:51:01 19 C 9.61 g/m*3 19 C 0 km/h
3174 27-07-2010 11:03:01 19.2 C 9.73 g/m*3 19.2 C 0 km/h
3175 27-07-2010 11:15:02 19.8 C 9.74 g/m*3 19.8 C 0 km/h
Sensor: Nr:Datum:Temp:Abs-Feuchte:Windchill:Wind:
Aussen-T/F 3176 27-07-2010 11:27:02 20.4 C 9.73 g/m*3 20.4 C 0 km/h
3177 27-07-2010 11:39:01 20.5 C 9.25 g/m*3 20.5 C 0 km/h
3178 27-07-2010 11:51:02 21 C 9.34 g/m*3 21 C 0 km/h
3179 27-07-2010 12:03:02 21.8 C 9.4 g/m*3 21.8 C 0 km/h
3180 27-07-2010 12:15:02 22.5 C 8.99 g/m*3 22.5 C 0 km/h
3181 27-07-2010 12:27:02 21.8 C 8.83 g/m*3 21.8 C 0 km/h
3182 27-07-2010 12:39:02 21.6 C 9.29 g/m*3 21.6 C 0 km/h
3183 27-07-2010 12:51:02 22.7 C 8.89 g/m*3 22.7 C 0 km/h
3184 27-07-2010 13:03:02 23.5 C 8.46 g/m*3 23.5 C 0 km/h
3185 27-07-2010 13:15:01 22.7 C 7.88 g/m*3 22.7 C 0 km/h
3186 27-07-2010 13:27:01 23.1 C 8.27 g/m*3 23.1 C 0 km/h
3187 27-07-2010 13:39:02 25.5 C 7.1 g/m*3 25.5 C 0 km/h
3188 27-07-2010 13:51:02 25 C 7.6 g/m*3 25 C 0 km/h
3189 27-07-2010 14:03:02 23.8 C 7.53 g/m*3 23.8 C 0 km/h
3190 27-07-2010 14:15:01 24.4 C 7.79 g/m*3 24.4 C 0 km/h
3191 27-07-2010 14:27:01 25.2 C 7.68 g/m*3 25.2 C 0 km/h
3192 27-07-2010 14:39:02 24.4 C 7.57 g/m*3 24.4 C 0 km/h
3193 27-07-2010 14:51:01 24.3 C 7.75 g/m*3 24.3 C 0 km/h
3194 27-07-2010 15:03:02 24.3 C 7.75 g/m*3 24.3 C 0 km/h
3195 27-07-2010 15:15:02 25.6 C 7.86 g/m*3 25.6 C 0 km/h
3196 27-07-2010 15:27:02 25.4 C 7.53 g/m*3 25.4 C 0 km/h
3197 27-07-2010 15:39:01 25.7 C 7.42 g/m*3 25.7 C 0 km/h
3198 27-07-2010 15:51:02 25.9 C 7.26 g/m*3 25.9 C 0 km/h
3199 27-07-2010 16:03:01 26.6 C 7.05 g/m*3 26.6 C 0 km/h
3200 27-07-2010 16:15:02 28.5 C 7.27 g/m*3 28.5 C 0 km/h
Sensor: Nr:Datum:Temp:Abs-Feuchte:Windchill:Wind:
Aussen-T/F 3201 27-07-2010 16:27:03 28.2 C 6.87 g/m*3 28.2 C 0 km/h
3202 27-07-2010 16:39:01 28 C 6.8 g/m*3 28 C 0 km/h
3203 27-07-2010 16:51:02 28.2 C 6.05 g/m*3 28.2 C 0 km/h
3204 27-07-2010 17:03:02 28.7 C 5.93 g/m*3 28.7 C 0 km/h
3205 27-07-2010 17:15:02 29.4 C 6.16 g/m*3 29.4 C 0 km/h
3206 27-07-2010 17:27:02 28 C 5.71 g/m*3 28 C 0 km/h
3207 27-07-2010 17:39:03 28.2 C 5.77 g/m*3 28.2 C 0 km/h
3208 27-07-2010 17:51:02 27.3 C 7.33 g/m*3 27.3 C 0 km/h
3209 27-07-2010 18:03:02 26.1 C 6.37 g/m*3 26.1 C 0 km/h
3210 27-07-2010 18:15:01 25.8 C 7.46 g/m*3 25.8 C 0 km/h
3211 27-07-2010 18:27:01 24.8 C 8.19 g/m*3 24.8 C 0 km/h
3212 27-07-2010 18:39:02 24.3 C 7.97 g/m*3 24.3 C 0 km/h
3213 27-07-2010 18:51:02 24.3 C 8.19 g/m*3 24.3 C 0 km/h
3214 27-07-2010 19:03:02 24.2 C 8.58 g/m*3 24.2 C 0 km/h
3215 27-07-2010 19:15:01 23.6 C 8.72 g/m*3 23.6 C 0 km/h
3216 27-07-2010 19:27:01 23.3 C 8.78 g/m*3 23.3 C 0 km/h
3217 27-07-2010 19:39:02 23 C 8.63 g/m*3 23 C 0 km/h
3218 27-07-2010 19:51:01 23 C 8.43 g/m*3 23 C 0 km/h
3219 27-07-2010 20:03:02 22.9 C 8.38 g/m*3 22.9 C 0 km/h
3220 27-07-2010 20:15:02 22.2 C 8.25 g/m*3 22.2 C 0 km/h
3221 27-07-2010 20:27:02 21.7 C 8.2 g/m*3 21.7 C 0 km/h
3222 27-07-2010 20:39:01 21.7 C 8.58 g/m*3 21.7 C 0 km/h
3223 27-07-2010 20:51:02 21.5 C 8.49 g/m*3 21.5 C 0 km/h
3224 27-07-2010 21:03:01 21.2 C 8.52 g/m*3 21.2 C 0 km/h
3225 27-07-2010 21:15:02 21 C 8.79 g/m*3 21 C 0 km/h
Sensor: Nr:Datum:Temp:Abs-Feuchte:Windchill:Wind:
Aussen-T/F 3226 27-07-2010 21:27:03 20.4 C 8.49 g/m*3 20.4 C 0 km/h
3227 27-07-2010 21:39:01 20 C 8.47 g/m*3 20 C